Darstellungsparameter: Aktuell verwendete Einstellungen:
Skalierung der Graphiken ... ?
xyx+y,   Skalierungsfaktor:      Skalierung: Modus: x, Faktor: 1
Darstellungszeitraum ... ?
Vom - - bis: - -   Zeitraum: 26.10.2013 - 15.11.2013
Min/Max/Avg-Anzeige ... ?
Zeige MMA aktuell
Zeige MMA Monat
Zeige MMA alles
Zeige --A aktuell
Zeige --A Monat
Zeige --A alles
Keine MMA-Anzeige
MMA:
Keine MMA-Graphiken
MMA-Basis: 26.10.2013 - 15.11.2013
Quicknavigation für Darstellung... ?
Tage:      1T, 2T, 3T, 5T -1T -2T -3T -5T +1T +2T +3T +5T
Wochen: 1W, 2W, 3W -1W -2W -3W +1W +2W +3W
Monate: 1M, 3M, 6M -1M -3M -6M +1M +3M +6M
Jahre:    1J, 3J, 5J, 10J -1J -3J -5J -10J +1J +3J +5J +10J
Nutze für die Darstellung ... ?
Originaldaten oder Mittelwerte auf ...
Stundenbasis Tagesbasis Wochenbasis
Monatsbasis Jahresbasis      Datenbasis: Original-Daten
Darstellen als:
Statistik (Auto) Statistik J:M      Darstellung:
Zur Graphik,    zurück zur Übersicht aller Sensoren.
 
Tabellarische Datenbersicht: ?
 
<
Sensor: Nr:Datum:Temp:Abs-Feuchte:Windchill:Wind:
Aussen-T/F 1 26-10-2013 00:00:00 14.7 C 12.21 g/m*3 14.7 C 0 km/h
2 26-10-2013 00:05:00 14.8 C 12.29 g/m*3 14.8 C 0 km/h
3 26-10-2013 00:10:00 14.8 C 12.29 g/m*3 14.8 C 0 km/h
4 26-10-2013 00:15:00 14.9 C 12.36 g/m*3 14.9 C 0 km/h
5 26-10-2013 00:20:00 14.9 C 12.36 g/m*3 14.9 C 0 km/h
6 26-10-2013 00:25:00 14.9 C 12.36 g/m*3 14.9 C 0 km/h
7 26-10-2013 00:30:00 14.9 C 12.36 g/m*3 14.9 C 0 km/h
8 26-10-2013 00:35:00 15 C 12.44 g/m*3 15 C 0 km/h
9 26-10-2013 00:40:00 15 C 12.44 g/m*3 15 C 0 km/h
10 26-10-2013 00:45:00 15.1 C 12.64 g/m*3 15.1 C 0 km/h
11 26-10-2013 00:50:00 15.1 C 12.51 g/m*3 15.1 C 1.6 km/h
12 26-10-2013 00:55:00 14.9 C 12.36 g/m*3 14.9 C 1.6 km/h
13 26-10-2013 01:00:00 14.9 C 12.36 g/m*3 14.9 C 0 km/h
14 26-10-2013 01:05:00 14.9 C 12.49 g/m*3 14.9 C 3.2 km/h
15 26-10-2013 01:10:00 15 C 12.44 g/m*3 15 C 0 km/h
16 26-10-2013 01:15:00 15 C 12.44 g/m*3 15 C 0 km/h
17 26-10-2013 01:20:00 15 C 12.57 g/m*3 15 C 0 km/h
18 26-10-2013 01:25:00 15 C 12.57 g/m*3 15 C 0 km/h
19 26-10-2013 01:30:00 15 C 12.57 g/m*3 15 C 0 km/h
20 26-10-2013 01:35:00 15 C 12.57 g/m*3 15 C 3.2 km/h
21 26-10-2013 01:40:00 15.1 C 12.64 g/m*3 15.1 C 1.6 km/h
22 26-10-2013 01:45:00 15.1 C 12.64 g/m*3 15.1 C 1.6 km/h
23 26-10-2013 01:50:00 15.1 C 12.64 g/m*3 15.1 C 0 km/h
24 26-10-2013 01:55:00 15.2 C 12.72 g/m*3 15.2 C 0 km/h
25 26-10-2013 02:00:00 15.1 C 12.64 g/m*3 15.1 C 1.6 km/h
Sensor: Nr:Datum:Temp:Abs-Feuchte:Windchill:Wind:
Aussen-T/F 26 26-10-2013 02:05:00 15 C 12.57 g/m*3 15 C 0 km/h
27 26-10-2013 02:10:00 14.9 C 12.49 g/m*3 14.9 C 0 km/h
28 26-10-2013 02:15:00 14.9 C 12.49 g/m*3 14.9 C 0 km/h
29 26-10-2013 02:20:00 14.9 C 12.49 g/m*3 14.9 C 0 km/h
30 26-10-2013 02:25:00 14.9 C 12.49 g/m*3 14.9 C 0 km/h
31 26-10-2013 02:30:00 15 C 12.57 g/m*3 15 C 0 km/h
32 26-10-2013 02:35:00 15.2 C 12.72 g/m*3 15.2 C 0 km/h
33 26-10-2013 02:40:00 15.2 C 12.72 g/m*3 15.2 C 0 km/h
34 26-10-2013 02:45:00 15.2 C 12.72 g/m*3 15.2 C 0 km/h
35 26-10-2013 02:50:00 15.2 C 12.72 g/m*3 15.2 C 0 km/h
36 26-10-2013 02:55:00 15.3 C 12.8 g/m*3 15.3 C 0 km/h
37 26-10-2013 03:00:00 15.3 C 12.8 g/m*3 15.3 C 0 km/h
38 26-10-2013 03:05:00 15.3 C 12.8 g/m*3 15.3 C 0 km/h
39 26-10-2013 03:10:00 15.3 C 12.8 g/m*3 15.3 C 0 km/h
40 26-10-2013 03:15:00 15.3 C 12.8 g/m*3 15.3 C 0 km/h
41 26-10-2013 03:20:00 15.3 C 12.8 g/m*3 15.3 C 0 km/h
42 26-10-2013 03:25:00 15.3 C 12.8 g/m*3 15.3 C 3.2 km/h
43 26-10-2013 03:30:00 15.2 C 12.72 g/m*3 15.2 C 0 km/h
44 26-10-2013 03:35:00 15.1 C 12.64 g/m*3 15.1 C 0 km/h
45 26-10-2013 03:40:00 15.1 C 12.64 g/m*3 15.1 C 0 km/h
46 26-10-2013 03:45:00 15.3 C 12.8 g/m*3 15.3 C 1.6 km/h
47 26-10-2013 03:50:00 15.5 C 12.95 g/m*3 15.5 C 0 km/h
48 26-10-2013 03:55:00 15.6 C 13.03 g/m*3 15.6 C 1.6 km/h
49 26-10-2013 04:00:00 15.5 C 12.95 g/m*3 15.5 C 0 km/h
50 26-10-2013 04:05:00 15.5 C 12.95 g/m*3 15.5 C 0 km/h
Sensor: Nr:Datum:Temp:Abs-Feuchte:Windchill:Wind:
Aussen-T/F 51 26-10-2013 04:10:00 15.4 C 12.88 g/m*3 15.4 C 0 km/h
52 26-10-2013 04:15:00 15.4 C 12.88 g/m*3 15.4 C 0 km/h
53 26-10-2013 04:20:00 15.3 C 12.8 g/m*3 15.3 C 0 km/h
54 26-10-2013 04:25:00 15.3 C 12.8 g/m*3 15.3 C 0 km/h
55 26-10-2013 04:30:00 15.2 C 12.72 g/m*3 15.2 C 0 km/h
56 26-10-2013 04:35:00 15.2 C 12.72 g/m*3 15.2 C 0 km/h
57 26-10-2013 04:40:00 15.1 C 12.64 g/m*3 15.1 C 0 km/h
58 26-10-2013 04:45:00 15 C 12.57 g/m*3 15 C 0 km/h
59 26-10-2013 04:50:00 15 C 12.57 g/m*3 15 C 0 km/h
60 26-10-2013 04:55:00 15 C 12.57 g/m*3 15 C 0 km/h
61 26-10-2013 05:00:00 14.9 C 12.49 g/m*3 14.9 C 0 km/h
62 26-10-2013 05:05:00 14.9 C 12.49 g/m*3 14.9 C 0 km/h
63 26-10-2013 05:10:00 14.9 C 12.49 g/m*3 14.9 C 0 km/h
64 26-10-2013 05:15:00 14.9 C 12.49 g/m*3 14.9 C 0 km/h
65 26-10-2013 05:20:00 14.9 C 12.49 g/m*3 14.9 C 0 km/h
66 26-10-2013 05:25:00 14.9 C 12.49 g/m*3 14.9 C 0 km/h
67 26-10-2013 05:30:00 14.9 C 12.49 g/m*3 14.9 C 0 km/h
68 26-10-2013 05:35:00 14.9 C 12.49 g/m*3 14.9 C 0 km/h
69 26-10-2013 05:40:00 14.9 C 12.49 g/m*3 14.9 C 0 km/h
70 26-10-2013 05:45:00 15.1 C 12.77 g/m*3 15.1 C 0 km/h
71 26-10-2013 05:50:00 15.2 C 12.85 g/m*3 15.2 C 0 km/h
72 26-10-2013 05:55:00 15.2 C 12.85 g/m*3 15.2 C 0 km/h
73 26-10-2013 06:00:00 15.2 C 12.85 g/m*3 15.2 C 0 km/h
74 26-10-2013 06:05:00 15.1 C 12.77 g/m*3 15.1 C 0 km/h
75 26-10-2013 06:10:00 15.1 C 12.77 g/m*3 15.1 C 0 km/h
Sensor: Nr:Datum:Temp:Abs-Feuchte:Windchill:Wind:
Aussen-T/F 76 26-10-2013 06:15:00 15.1 C 12.77 g/m*3 15.1 C 0 km/h
77 26-10-2013 06:20:00 15.1 C 12.77 g/m*3 15.1 C 0 km/h
78 26-10-2013 06:25:00 15.1 C 12.77 g/m*3 15.1 C 0 km/h
79 26-10-2013 06:30:00 15.1 C 12.77 g/m*3 15.1 C 0 km/h
80 26-10-2013 06:35:00 15.1 C 12.64 g/m*3 15.1 C 0 km/h
81 26-10-2013 06:40:00 15.1 C 12.64 g/m*3 15.1 C 0 km/h
82 26-10-2013 06:45:00 15.1 C 12.77 g/m*3 15.1 C 0 km/h
83 26-10-2013 06:50:00 15.1 C 12.77 g/m*3 15.1 C 0 km/h
84 26-10-2013 06:55:00 15.1 C 12.77 g/m*3 15.1 C 0 km/h
85 26-10-2013 07:00:00 15.1 C 12.77 g/m*3 15.1 C 0 km/h
86 26-10-2013 07:05:00 15.1 C 12.64 g/m*3 15.1 C 0 km/h
87 26-10-2013 07:10:00 15 C 12.57 g/m*3 15 C 0 km/h
88 26-10-2013 07:15:00 15 C 12.57 g/m*3 15 C 0 km/h
89 26-10-2013 07:20:00 15 C 12.57 g/m*3 15 C 0 km/h
90 26-10-2013 07:25:00 15 C 12.57 g/m*3 15 C 0 km/h
91 26-10-2013 07:30:00 15 C 12.57 g/m*3 15 C 0 km/h
92 26-10-2013 07:35:00 15 C 12.57 g/m*3 15 C 0 km/h
93 26-10-2013 07:40:00 15 C 12.57 g/m*3 15 C 0 km/h
94 26-10-2013 07:45:00 14.9 C 12.49 g/m*3 14.9 C 0 km/h
95 26-10-2013 07:50:00 14.9 C 12.49 g/m*3 14.9 C 0 km/h
96 26-10-2013 07:55:00 14.9 C 12.62 g/m*3 14.9 C 0 km/h
97 26-10-2013 08:00:00 14.9 C 12.49 g/m*3 14.9 C 0 km/h
98 26-10-2013 08:05:00 14.9 C 12.49 g/m*3 14.9 C 0 km/h
99 26-10-2013 08:10:00 14.9 C 12.49 g/m*3 14.9 C 0 km/h
100 26-10-2013 08:15:00 15 C 12.57 g/m*3 15 C 0 km/h
Sensor: Nr:Datum:Temp:Abs-Feuchte:Windchill:Wind:
Aussen-T/F 101 26-10-2013 08:20:00 15.1 C 12.77 g/m*3 15.1 C 0 km/h
102 26-10-2013 08:25:00 15.1 C 12.77 g/m*3 15.1 C 0 km/h
103 26-10-2013 08:30:00 15.2 C 12.85 g/m*3 15.2 C 0 km/h
104 26-10-2013 08:35:00 15.1 C 12.77 g/m*3 15.1 C 0 km/h
105 26-10-2013 08:40:00 15.2 C 12.85 g/m*3 15.2 C 3.2 km/h
106 26-10-2013 08:45:00 15.3 C 12.93 g/m*3 15.3 C 1.6 km/h
107 26-10-2013 08:50:00 15.5 C 13.09 g/m*3 15.5 C 1.6 km/h
108 26-10-2013 08:55:00 15.5 C 13.09 g/m*3 15.5 C 0 km/h
109 26-10-2013 09:00:00 15.6 C 13.17 g/m*3 15.6 C 1.6 km/h
110 26-10-2013 09:05:00 15.6 C 13.17 g/m*3 15.6 C 0 km/h
111 26-10-2013 09:10:00 15.7 C 13.25 g/m*3 15.7 C 0 km/h
112 26-10-2013 09:15:00 15.7 C 13.25 g/m*3 15.7 C 1.6 km/h
113 26-10-2013 09:20:00 15.7 C 13.25 g/m*3 15.7 C 1.6 km/h
114 26-10-2013 09:25:00 15.7 C 13.25 g/m*3 15.7 C 1.6 km/h
115 26-10-2013 09:30:00 15.7 C 13.25 g/m*3 15.7 C 0 km/h
116 26-10-2013 09:35:00 15.7 C 13.25 g/m*3 15.7 C 0 km/h
117 26-10-2013 09:40:00 15.7 C 13.25 g/m*3 15.7 C 1.6 km/h
118 26-10-2013 09:45:00 15.7 C 13.25 g/m*3 15.7 C 0 km/h
119 26-10-2013 09:50:00 15.8 C 13.33 g/m*3 15.8 C 0 km/h
120 26-10-2013 09:55:00 15.8 C 13.33 g/m*3 15.8 C 0 km/h
121 26-10-2013 10:00:00 16 C 13.49 g/m*3 16 C 1.6 km/h
122 26-10-2013 10:05:00 16.1 C 13.57 g/m*3 16.1 C 3.2 km/h
123 26-10-2013 10:10:00 16.1 C 13.57 g/m*3 16.1 C 0 km/h
124 26-10-2013 10:15:00 16.2 C 13.65 g/m*3 16.2 C 0 km/h
125 26-10-2013 10:20:00 16.2 C 13.65 g/m*3 16.2 C 0 km/h
Sensor: Nr:Datum:Temp:Abs-Feuchte:Windchill:Wind:
Aussen-T/F 126 26-10-2013 10:25:00 16.3 C 13.73 g/m*3 16.3 C 0 km/h
127 26-10-2013 10:30:00 16.4 C 13.82 g/m*3 16.4 C 0 km/h
128 26-10-2013 10:35:00 16.4 C 13.82 g/m*3 16.4 C 0 km/h
129 26-10-2013 10:40:00 16.5 C 13.9 g/m*3 16.5 C 0 km/h
130 26-10-2013 10:45:00 16.6 C 13.99 g/m*3 16.6 C 1.6 km/h
131 26-10-2013 10:50:00 16.7 C 14.07 g/m*3 16.7 C 1.6 km/h
132 26-10-2013 10:55:00 16.9 C 14.24 g/m*3 16.9 C 0 km/h
133 26-10-2013 11:00:00 16.9 C 14.24 g/m*3 16.9 C 0 km/h
134 26-10-2013 11:05:00 16.9 C 14.24 g/m*3 16.9 C 0 km/h
135 26-10-2013 11:10:00 16.9 C 14.24 g/m*3 16.9 C 0 km/h
136 26-10-2013 11:15:00 16.9 C 14.24 g/m*3 16.9 C 0 km/h
137 26-10-2013 11:20:00 16.8 C 14.15 g/m*3 16.8 C 0 km/h
138 26-10-2013 11:25:00 16.8 C 14.15 g/m*3 16.8 C 0 km/h
139 26-10-2013 11:30:00 16.8 C 14.15 g/m*3 16.8 C 0 km/h
140 26-10-2013 11:35:00 16.8 C 14.15 g/m*3 16.8 C 0 km/h
141 26-10-2013 11:40:00 16.8 C 14.15 g/m*3 16.8 C 0 km/h
142 26-10-2013 11:45:00 16.7 C 14.07 g/m*3 16.7 C 0 km/h
143 26-10-2013 11:50:00 16.7 C 14.07 g/m*3 16.7 C 1.6 km/h
144 26-10-2013 11:55:00 16.7 C 14.07 g/m*3 16.7 C 3.2 km/h
145 26-10-2013 12:00:00 16.8 C 14.15 g/m*3 16.8 C 3.2 km/h
146 26-10-2013 12:05:00 16.8 C 14.15 g/m*3 16.8 C 6.4 km/h
147 26-10-2013 12:10:00 16.9 C 14.24 g/m*3 16.9 C 6.4 km/h
148 26-10-2013 12:15:00 16.9 C 14.1 g/m*3 16.9 C 6.4 km/h
149 26-10-2013 12:20:00 17.2 C 14.35 g/m*3 17.2 C 0 km/h
150 26-10-2013 12:25:00 17.4 C 14.23 g/m*3 17.4 C 11.3 km/h
Sensor: Nr:Datum:Temp:Abs-Feuchte:Windchill:Wind:
Aussen-T/F 151 26-10-2013 12:30:00 17.8 C 14.27 g/m*3 17.8 C 12.9 km/h
152 26-10-2013 12:35:00 18.1 C 14.37 g/m*3 18.1 C 12.9 km/h
153 26-10-2013 12:40:00 18.3 C 14.23 g/m*3 18.3 C 11.3 km/h
154 26-10-2013 12:45:00 18.3 C 14.23 g/m*3 18.3 C 8.1 km/h
155 26-10-2013 12:50:00 18.3 C 13.92 g/m*3 18.3 C 9.7 km/h
156 26-10-2013 12:55:00 18.4 C 14 g/m*3 18.4 C 11.3 km/h
157 26-10-2013 13:00:00 18.5 C 13.92 g/m*3 18.5 C 9.7 km/h
158 26-10-2013 13:05:00 18.6 C 14.01 g/m*3 18.6 C 14.5 km/h
159 26-10-2013 13:10:00 18.6 C 14.01 g/m*3 18.6 C 8.1 km/h
160 26-10-2013 13:15:00 18.6 C 13.85 g/m*3 18.6 C 8.1 km/h
161 26-10-2013 13:20:00 18.6 C 14.01 g/m*3 18.6 C 4.8 km/h
162 26-10-2013 13:25:00 18.6 C 13.85 g/m*3 18.6 C 8.1 km/h
163 26-10-2013 13:30:00 18.6 C 13.85 g/m*3 18.6 C 4.8 km/h
164 26-10-2013 13:35:00 18.6 C 13.85 g/m*3 18.6 C 14.5 km/h
165 26-10-2013 13:40:00 18.5 C 13.61 g/m*3 18.5 C 12.9 km/h
166 26-10-2013 13:45:00 18.5 C 13.77 g/m*3 18.5 C 8.1 km/h
167 26-10-2013 13:50:00 18.6 C 13.69 g/m*3 18.6 C 12.9 km/h
168 26-10-2013 13:55:00 18.6 C 13.85 g/m*3 18.6 C 8.1 km/h
169 26-10-2013 14:00:00 18.7 C 13.93 g/m*3 18.7 C 9.7 km/h
170 26-10-2013 14:05:00 18.7 C 13.93 g/m*3 18.7 C 3.2 km/h
171 26-10-2013 14:10:00 18.8 C 14.01 g/m*3 18.8 C 3.2 km/h
172 26-10-2013 14:15:00 18.8 C 13.85 g/m*3 18.8 C 9.7 km/h
173 26-10-2013 14:20:00 18.8 C 13.85 g/m*3 18.8 C 8.1 km/h
174 26-10-2013 14:25:00 18.9 C 13.93 g/m*3 18.9 C 8.1 km/h
175 26-10-2013 14:30:00 18.9 C 13.93 g/m*3 18.9 C 8.1 km/h
Sensor: Nr:Datum:Temp:Abs-Feuchte:Windchill:Wind:
Aussen-T/F 176 26-10-2013 14:35:00 18.9 C 13.93 g/m*3 18.9 C 8.1 km/h
177 26-10-2013 14:40:00 18.9 C 13.93 g/m*3 18.9 C 9.7 km/h
178 26-10-2013 14:45:00 18.9 C 13.93 g/m*3 18.9 C 4.8 km/h
179 26-10-2013 14:50:00 18.9 C 14.09 g/m*3 18.9 C 3.2 km/h
180 26-10-2013 14:55:00 18.9 C 14.26 g/m*3 18.9 C 4.8 km/h
181 26-10-2013 15:00:00 18.9 C 14.58 g/m*3 18.9 C 0 km/h
182 26-10-2013 15:05:00 18.7 C 14.25 g/m*3 18.7 C 0 km/h
183 26-10-2013 15:10:00 18.7 C 14.57 g/m*3 18.7 C 0 km/h
184 26-10-2013 15:15:00 18.6 C 14.48 g/m*3 18.6 C 0 km/h
185 26-10-2013 15:20:00 18.6 C 14.48 g/m*3 18.6 C 0 km/h
186 26-10-2013 15:25:00 18.6 C 14.64 g/m*3 18.6 C 3.2 km/h
187 26-10-2013 15:30:00 18.7 C 14.73 g/m*3 18.7 C 0 km/h
188 26-10-2013 15:35:00 18.8 C 14.49 g/m*3 18.8 C 6.4 km/h
189 26-10-2013 15:40:00 19 C 14.67 g/m*3 19 C 3.2 km/h
190 26-10-2013 15:45:00 19 C 14.67 g/m*3 19 C 3.2 km/h
191 26-10-2013 15:50:00 19 C 14.67 g/m*3 19 C 1.6 km/h
192 26-10-2013 15:55:00 19.3 C 14.6 g/m*3 19.3 C 4.8 km/h
193 26-10-2013 16:00:00 19.3 C 14.6 g/m*3 19.3 C 9.7 km/h
194 26-10-2013 16:05:00 19.3 C 14.6 g/m*3 19.3 C 3.2 km/h
195 26-10-2013 17:35:00 18 C 14.28 g/m*3 18 C 1.6 km/h
196 26-10-2013 17:40:00 18 C 14.28 g/m*3 18 C 1.6 km/h
197 26-10-2013 17:45:00 17.9 C 14.2 g/m*3 17.9 C 1.6 km/h
198 26-10-2013 17:50:00 17.8 C 14.12 g/m*3 17.8 C 3.2 km/h
199 26-10-2013 17:55:00 17.8 C 14.12 g/m*3 17.8 C 0 km/h
200 26-10-2013 18:00:00 17.8 C 14.12 g/m*3 17.8 C 4.8 km/h
Sensor: Nr:Datum:Temp:Abs-Feuchte:Windchill:Wind:
Aussen-T/F 201 26-10-2013 18:05:00 17.7 C 14.03 g/m*3 17.7 C 1.6 km/h
202 26-10-2013 18:10:00 17.6 C 13.95 g/m*3 17.6 C 0 km/h
203 26-10-2013 18:15:00 17.5 C 13.87 g/m*3 17.5 C 0 km/h
204 26-10-2013 18:20:00 17.4 C 13.78 g/m*3 17.4 C 0 km/h
205 26-10-2013 18:25:00 17.3 C 13.7 g/m*3 17.3 C 1.6 km/h
206 26-10-2013 18:30:00 17.2 C 13.77 g/m*3 17.2 C 3.2 km/h
207 26-10-2013 18:35:00 17.2 C 13.77 g/m*3 17.2 C 1.6 km/h
208 26-10-2013 18:40:00 17.3 C 13.85 g/m*3 17.3 C 6.4 km/h
209 26-10-2013 18:45:00 17.3 C 13.7 g/m*3 17.3 C 1.6 km/h
210 26-10-2013 18:50:00 17.4 C 13.78 g/m*3 17.4 C 1.6 km/h
211 26-10-2013 18:55:00 17.7 C 13.88 g/m*3 17.7 C 3.2 km/h
212 26-10-2013 19:00:00 17.6 C 13.8 g/m*3 17.6 C 0 km/h
213 26-10-2013 19:05:00 17.3 C 13.55 g/m*3 17.3 C 0 km/h
214 26-10-2013 19:10:00 17.2 C 13.62 g/m*3 17.2 C 0 km/h
215 26-10-2013 19:15:00 17.2 C 13.77 g/m*3 17.2 C 0 km/h
216 26-10-2013 19:20:00 17.1 C 13.68 g/m*3 17.1 C 0 km/h
217 26-10-2013 19:25:00 16.9 C 13.52 g/m*3 16.9 C 0 km/h
218 26-10-2013 19:30:00 16.9 C 13.52 g/m*3 16.9 C 0 km/h
219 26-10-2013 19:35:00 16.9 C 13.52 g/m*3 16.9 C 0 km/h
220 26-10-2013 19:40:00 16.9 C 13.52 g/m*3 16.9 C 0 km/h
221 26-10-2013 19:45:00 16.9 C 13.52 g/m*3 16.9 C 0 km/h
222 26-10-2013 19:50:00 16.9 C 13.52 g/m*3 16.9 C 0 km/h
223 26-10-2013 19:55:00 16.9 C 13.52 g/m*3 16.9 C 0 km/h
224 26-10-2013 20:04:00 16.9 C 13.52 g/m*3 16.9 C 0 km/h
225 26-10-2013 20:10:00 16.9 C 13.52 g/m*3 16.9 C 0 km/h
Sensor: Nr:Datum:Temp:Abs-Feuchte:Windchill:Wind:
Aussen-T/F 226 26-10-2013 20:15:00 16.9 C 13.52 g/m*3 16.9 C 0 km/h
227 26-10-2013 20:20:00 16.8 C 13.44 g/m*3 16.8 C 0 km/h
228 26-10-2013 20:25:00 16.8 C 13.58 g/m*3 16.8 C 0 km/h
229 26-10-2013 20:30:00 16.8 C 13.58 g/m*3 16.8 C 1.6 km/h
230 26-10-2013 20:35:00 16.8 C 13.58 g/m*3 16.8 C 0 km/h
231 26-10-2013 20:40:00 16.7 C 13.5 g/m*3 16.7 C 0 km/h
232 26-10-2013 20:45:00 16.7 C 13.5 g/m*3 16.7 C 0 km/h
233 26-10-2013 20:50:00 16.6 C 13.28 g/m*3 16.6 C 0 km/h
234 26-10-2013 20:55:00 16.6 C 13.42 g/m*3 16.6 C 0 km/h
235 26-10-2013 21:00:00 16.5 C 13.34 g/m*3 16.5 C 0 km/h
236 26-10-2013 21:05:00 16.5 C 13.34 g/m*3 16.5 C 0 km/h
237 26-10-2013 21:10:00 16.4 C 13.26 g/m*3 16.4 C 0 km/h
238 26-10-2013 21:15:00 16.4 C 13.26 g/m*3 16.4 C 0 km/h
239 26-10-2013 21:20:00 16.4 C 13.26 g/m*3 16.4 C 0 km/h
240 26-10-2013 21:25:00 16.3 C 13.18 g/m*3 16.3 C 0 km/h
241 26-10-2013 21:30:00 16.3 C 13.32 g/m*3 16.3 C 0 km/h
242 26-10-2013 21:35:00 16.3 C 13.32 g/m*3 16.3 C 0 km/h
243 26-10-2013 21:40:00 16.3 C 13.32 g/m*3 16.3 C 0 km/h
244 26-10-2013 21:45:00 16.3 C 13.32 g/m*3 16.3 C 0 km/h
245 26-10-2013 21:50:00 16.2 C 13.24 g/m*3 16.2 C 0 km/h
246 26-10-2013 21:55:00 16.2 C 13.24 g/m*3 16.2 C 0 km/h
247 26-10-2013 22:00:00 16.2 C 13.24 g/m*3 16.2 C 0 km/h
248 26-10-2013 22:05:00 16.2 C 13.24 g/m*3 16.2 C 0 km/h
249 26-10-2013 22:10:00 16.2 C 13.24 g/m*3 16.2 C 0 km/h
250 26-10-2013 22:15:00 16.2 C 13.24 g/m*3 16.2 C 3.2 km/h
Sensor: Nr:Datum:Temp:Abs-Feuchte:Windchill:Wind:
Aussen-T/F 251 26-10-2013 22:20:00 16.2 C 13.24 g/m*3 16.2 C 0 km/h
252 26-10-2013 22:25:00 16.2 C 13.24 g/m*3 16.2 C 1.6 km/h
253 26-10-2013 22:30:00 16.3 C 13.18 g/m*3 16.3 C 0 km/h
254 26-10-2013 22:35:00 16.6 C 13.28 g/m*3 16.6 C 6.4 km/h
255 26-10-2013 22:40:00 16.9 C 12.94 g/m*3 16.9 C 12.9 km/h
256 26-10-2013 22:45:00 17.3 C 13.11 g/m*3 17.3 C 6.4 km/h
257 26-10-2013 22:50:00 17.6 C 13.2 g/m*3 17.6 C 3.2 km/h
258 26-10-2013 22:55:00 17.6 C 13.05 g/m*3 17.6 C 3.2 km/h
259 26-10-2013 23:00:00 17.6 C 13.05 g/m*3 17.6 C 1.6 km/h
260 26-10-2013 23:05:00 17.6 C 12.9 g/m*3 17.6 C 0 km/h
261 26-10-2013 23:10:00 17.6 C 12.9 g/m*3 17.6 C 6.4 km/h
262 26-10-2013 23:15:00 17.7 C 12.82 g/m*3 17.7 C 12.9 km/h
263 26-10-2013 23:20:00 17.7 C 12.98 g/m*3 17.7 C 4.8 km/h
264 26-10-2013 23:25:00 17.5 C 12.97 g/m*3 17.5 C 1.6 km/h
265 26-10-2013 23:30:00 17.2 C 12.89 g/m*3 17.2 C 4.8 km/h
266 26-10-2013 23:35:00 17.1 C 12.81 g/m*3 17.1 C 3.2 km/h
267 26-10-2013 23:40:00 16.9 C 12.8 g/m*3 16.9 C 3.2 km/h
268 26-10-2013 23:45:00 16.7 C 12.65 g/m*3 16.7 C 6.4 km/h
269 26-10-2013 23:50:00 16.6 C 12.71 g/m*3 16.6 C 1.6 km/h
270 26-10-2013 23:55:00 16.4 C 12.7 g/m*3 16.4 C 1.6 km/h
271 27-10-2013 00:00:00 16.2 C 12.69 g/m*3 16.2 C 1.6 km/h
272 27-10-2013 00:05:00 16.1 C 12.75 g/m*3 16.1 C 1.6 km/h
273 27-10-2013 00:10:00 15.9 C 12.73 g/m*3 15.9 C 0 km/h
274 27-10-2013 00:15:00 15.8 C 12.65 g/m*3 15.8 C 0 km/h
275 27-10-2013 00:20:00 15.7 C 12.71 g/m*3 15.7 C 1.6 km/h
Sensor: Nr:Datum:Temp:Abs-Feuchte:Windchill:Wind:
Aussen-T/F 276 27-10-2013 00:25:00 15.6 C 12.63 g/m*3 15.6 C 0 km/h
277 27-10-2013 00:30:00 15.4 C 12.61 g/m*3 15.4 C 0 km/h
278 27-10-2013 00:35:00 15.4 C 12.61 g/m*3 15.4 C 0 km/h
279 27-10-2013 00:40:00 15.4 C 12.61 g/m*3 15.4 C 0 km/h
280 27-10-2013 00:45:00 15.4 C 12.61 g/m*3 15.4 C 0 km/h
281 27-10-2013 00:50:00 15.3 C 12.54 g/m*3 15.3 C 0 km/h
282 27-10-2013 00:55:00 15.3 C 12.54 g/m*3 15.3 C 0 km/h
283 27-10-2013 01:00:00 15.3 C 12.67 g/m*3 15.3 C 0 km/h
284 27-10-2013 01:05:00 15.3 C 12.67 g/m*3 15.3 C 0 km/h
285 27-10-2013 01:10:00 15.2 C 12.59 g/m*3 15.2 C 0 km/h
286 27-10-2013 01:15:00 15.2 C 12.59 g/m*3 15.2 C 0 km/h
287 27-10-2013 01:20:00 15.2 C 12.59 g/m*3 15.2 C 0 km/h
288 27-10-2013 01:25:00 15.2 C 12.59 g/m*3 15.2 C 0 km/h
289 27-10-2013 01:30:00 15.2 C 12.59 g/m*3 15.2 C 0 km/h
290 27-10-2013 01:35:00 15.1 C 12.51 g/m*3 15.1 C 0 km/h
291 27-10-2013 01:40:00 15.1 C 12.51 g/m*3 15.1 C 0 km/h
292 27-10-2013 01:45:00 15.1 C 12.51 g/m*3 15.1 C 0 km/h
293 27-10-2013 01:50:00 15.1 C 12.51 g/m*3 15.1 C 1.6 km/h
294 27-10-2013 01:55:00 15 C 12.44 g/m*3 15 C 0 km/h
295 27-10-2013 02:00:00 15.1 C 12.51 g/m*3 15.1 C 0 km/h
296 27-10-2013 02:05:00 15.1 C 12.51 g/m*3 15.1 C 0 km/h
297 27-10-2013 02:10:00 15.1 C 12.51 g/m*3 15.1 C 0 km/h
298 27-10-2013 02:15:00 15.2 C 12.59 g/m*3 15.2 C 1.6 km/h
299 27-10-2013 02:20:00 15.2 C 12.59 g/m*3 15.2 C 0 km/h
300 27-10-2013 02:25:00 15.2 C 12.59 g/m*3 15.2 C 0 km/h
Sensor: Nr:Datum:Temp:Abs-Feuchte:Windchill:Wind:
Aussen-T/F 301 27-10-2013 02:30:00 15.2 C 12.59 g/m*3 15.2 C 0 km/h
302 27-10-2013 02:35:00 15.2 C 12.59 g/m*3 15.2 C 0 km/h
303 27-10-2013 02:40:00 15.2 C 12.59 g/m*3 15.2 C 0 km/h
304 27-10-2013 02:45:00 15.2 C 12.59 g/m*3 15.2 C 0 km/h
305 27-10-2013 02:50:00 15.2 C 12.59 g/m*3 15.2 C 0 km/h
306 27-10-2013 02:55:00 15.3 C 12.67 g/m*3 15.3 C 0 km/h
307 27-10-2013 04:00:00 15.3 C 12.67 g/m*3 15.3 C 0 km/h
308 27-10-2013 04:05:00 16.2 C 12.41 g/m*3 16.2 C 1.6 km/h
309 27-10-2013 04:05:00 15.9 C 12.46 g/m*3 15.9 C 4.8 km/h
310 27-10-2013 04:10:00 16.1 C 12.34 g/m*3 16.1 C 4.8 km/h
311 27-10-2013 04:10:00 15.8 C 12.38 g/m*3 15.8 C 4.8 km/h
312 27-10-2013 04:15:00 15.9 C 12.32 g/m*3 15.9 C 8.1 km/h
313 27-10-2013 04:15:00 16.3 C 12.21 g/m*3 16.3 C 11.3 km/h
314 27-10-2013 04:20:00 16.1 C 12.47 g/m*3 16.1 C 6.4 km/h
315 27-10-2013 04:20:00 16.4 C 12.42 g/m*3 16.4 C 0 km/h
316 27-10-2013 04:25:00 16.2 C 12.41 g/m*3 16.2 C 6.4 km/h
317 27-10-2013 04:25:00 16.2 C 12.27 g/m*3 16.2 C 3.2 km/h
318 27-10-2013 04:30:00 16.3 C 12.49 g/m*3 16.3 C 6.4 km/h
319 27-10-2013 04:30:00 16.2 C 12.27 g/m*3 16.2 C 4.8 km/h
320 27-10-2013 04:35:00 16.2 C 12.27 g/m*3 16.2 C 1.6 km/h
321 27-10-2013 04:35:00 16.4 C 12.42 g/m*3 16.4 C 9.7 km/h
322 27-10-2013 04:40:00 16.3 C 12.07 g/m*3 16.3 C 9.7 km/h
323 27-10-2013 04:40:00 16.6 C 12.43 g/m*3 16.6 C 9.7 km/h
324 27-10-2013 04:45:00 16.3 C 12.21 g/m*3 16.3 C 1.6 km/h
325 27-10-2013 04:45:00 16.6 C 12.43 g/m*3 16.6 C 6.4 km/h
Sensor: Nr:Datum:Temp:Abs-Feuchte:Windchill:Wind:
Aussen-T/F 326 27-10-2013 04:50:00 16.4 C 12 g/m*3 16.4 C 9.7 km/h
327 27-10-2013 04:50:00 16.4 C 12.42 g/m*3 16.4 C 6.4 km/h
328 27-10-2013 04:55:00 16.3 C 12.49 g/m*3 16.3 C 0 km/h
329 27-10-2013 04:55:00 16.6 C 12.15 g/m*3 16.6 C 6.4 km/h
330 27-10-2013 05:00:00 16.2 C 12.41 g/m*3 16.2 C 1.6 km/h
331 27-10-2013 05:00:00 16.4 C 12 g/m*3 16.4 C 1.6 km/h
332 27-10-2013 05:05:00 16.2 C 11.86 g/m*3 16.2 C 6.4 km/h
333 27-10-2013 05:10:00 16.1 C 12.06 g/m*3 16.1 C 1.6 km/h
334 27-10-2013 05:15:00 16.1 C 11.79 g/m*3 16.1 C 3.2 km/h
335 27-10-2013 05:20:00 16.1 C 11.79 g/m*3 16.1 C 4.8 km/h
336 27-10-2013 05:25:00 16 C 11.72 g/m*3 16 C 8.1 km/h
337 27-10-2013 05:30:00 16.1 C 11.51 g/m*3 16.1 C 11.3 km/h
338 27-10-2013 05:35:00 16.2 C 11.45 g/m*3 16.2 C 9.7 km/h
339 27-10-2013 05:40:00 16.3 C 11.38 g/m*3 16.3 C 11.3 km/h
340 27-10-2013 05:45:00 16.4 C 11.31 g/m*3 16.4 C 12.9 km/h
341 27-10-2013 05:50:00 16.3 C 11.38 g/m*3 16.3 C 9.7 km/h
342 27-10-2013 05:55:00 16.3 C 11.24 g/m*3 16.3 C 25.7 km/h
343 27-10-2013 06:00:00 16.2 C 11.17 g/m*3 16.2 C 6.4 km/h
344 27-10-2013 06:05:00 16.1 C 11.1 g/m*3 16.1 C 17.7 km/h
345 27-10-2013 06:10:00 16.1 C 11.1 g/m*3 16.1 C 12.9 km/h
346 27-10-2013 06:15:00 16.1 C 11.1 g/m*3 16.1 C 6.4 km/h
347 27-10-2013 06:20:00 16 C 11.04 g/m*3 16 C 8.1 km/h
348 27-10-2013 06:25:00 15.8 C 11.04 g/m*3 15.8 C 4.8 km/h
349 27-10-2013 06:30:00 15.5 C 10.97 g/m*3 15.5 C 4.8 km/h
350 27-10-2013 06:35:00 15.3 C 10.97 g/m*3 15.3 C 4.8 km/h
Sensor: Nr:Datum:Temp:Abs-Feuchte:Windchill:Wind:
Aussen-T/F 351 27-10-2013 06:40:00 15.4 C 10.9 g/m*3 15.4 C 8.1 km/h
352 27-10-2013 06:45:00 15.4 C 10.77 g/m*3 15.4 C 9.7 km/h
353 27-10-2013 06:50:00 15.4 C 10.77 g/m*3 15.4 C 8.1 km/h
354 27-10-2013 06:55:00 15.4 C 10.77 g/m*3 15.4 C 6.4 km/h
355 27-10-2013 07:00:00 15.5 C 10.71 g/m*3 15.5 C 16.1 km/h
356 27-10-2013 07:05:00 15.6 C 10.77 g/m*3 15.6 C 11.3 km/h
357 27-10-2013 07:10:00 15.6 C 10.64 g/m*3 15.6 C 12.9 km/h
358 27-10-2013 07:15:00 15.6 C 10.64 g/m*3 15.6 C 14.5 km/h
359 27-10-2013 07:20:00 15.6 C 10.64 g/m*3 15.6 C 4.8 km/h
360 27-10-2013 07:25:00 15.5 C 10.57 g/m*3 15.5 C 4.8 km/h
361 27-10-2013 07:30:00 15.3 C 10.58 g/m*3 15.3 C 8.1 km/h
362 27-10-2013 07:35:00 15.2 C 10.64 g/m*3 15.2 C 8.1 km/h
363 27-10-2013 07:40:00 15.3 C 10.71 g/m*3 15.3 C 12.9 km/h
364 27-10-2013 07:45:00 15.3 C 10.58 g/m*3 15.3 C 16.1 km/h
365 27-10-2013 07:50:00 15.3 C 10.58 g/m*3 15.3 C 9.7 km/h
366 27-10-2013 07:55:00 15.4 C 10.64 g/m*3 15.4 C 4.8 km/h
367 27-10-2013 08:00:00 15.3 C 10.58 g/m*3 15.3 C 3.2 km/h
368 27-10-2013 08:05:00 15.3 C 10.58 g/m*3 15.3 C 6.4 km/h
369 27-10-2013 08:10:00 15.3 C 10.45 g/m*3 15.3 C 4.8 km/h
370 27-10-2013 08:15:00 15.4 C 10.64 g/m*3 15.4 C 3.2 km/h
371 27-10-2013 08:20:00 15.6 C 10.64 g/m*3 15.6 C 14.5 km/h
372 27-10-2013 08:25:00 15.7 C 10.57 g/m*3 15.7 C 6.4 km/h
373 27-10-2013 08:30:00 15.8 C 10.77 g/m*3 15.8 C 6.4 km/h
374 27-10-2013 08:35:00 15.8 C 10.63 g/m*3 15.8 C 6.4 km/h
375 27-10-2013 08:40:00 15.9 C 10.7 g/m*3 15.9 C 14.5 km/h
Sensor: Nr:Datum:Temp:Abs-Feuchte:Windchill:Wind:
Aussen-T/F 376 27-10-2013 08:45:00 15.9 C 10.83 g/m*3 15.9 C 4.8 km/h
377 27-10-2013 08:50:00 16 C 10.9 g/m*3 16 C 6.4 km/h
378 27-10-2013 08:55:00 16.1 C 10.83 g/m*3 16.1 C 8.1 km/h
379 27-10-2013 09:00:00 16.2 C 10.89 g/m*3 16.2 C 3.2 km/h
380 27-10-2013 09:05:00 16.2 C 10.76 g/m*3 16.2 C 9.7 km/h
381 27-10-2013 09:10:00 16.1 C 10.97 g/m*3 16.1 C 6.4 km/h
382 27-10-2013 09:15:00 15.9 C 10.83 g/m*3 15.9 C 6.4 km/h
383 27-10-2013 09:20:00 15.9 C 10.83 g/m*3 15.9 C 4.8 km/h
384 27-10-2013 09:25:00 16.1 C 10.83 g/m*3 16.1 C 12.9 km/h
385 27-10-2013 09:30:00 16.3 C 11.1 g/m*3 16.3 C 14.5 km/h
386 27-10-2013 09:35:00 16.4 C 10.75 g/m*3 16.4 C 12.9 km/h
387 27-10-2013 09:40:00 16.6 C 10.74 g/m*3 16.6 C 8.1 km/h
388 27-10-2013 09:45:00 16.7 C 10.8 g/m*3 16.7 C 11.3 km/h
389 27-10-2013 09:50:00 16.8 C 10.72 g/m*3 16.8 C 9.7 km/h
390 27-10-2013 09:55:00 16.8 C 10.72 g/m*3 16.8 C 14.5 km/h
391 27-10-2013 10:00:00 16.9 C 10.79 g/m*3 16.9 C 8.1 km/h
392 27-10-2013 10:05:00 16.9 C 10.64 g/m*3 16.9 C 12.9 km/h
393 27-10-2013 10:10:00 16.9 C 10.5 g/m*3 16.9 C 20.9 km/h
394 27-10-2013 10:15:00 17 C 10.56 g/m*3 17 C 16.1 km/h
395 27-10-2013 10:20:00 17.1 C 10.63 g/m*3 17.1 C 16.1 km/h
396 27-10-2013 10:25:00 17.1 C 10.48 g/m*3 17.1 C 37 km/h
397 27-10-2013 10:30:00 17.2 C 10.4 g/m*3 17.2 C 37 km/h
398 27-10-2013 10:35:00 17.3 C 10.46 g/m*3 17.3 C 25.7 km/h
399 27-10-2013 10:40:00 17.4 C 10.37 g/m*3 17.4 C 19.3 km/h
400 27-10-2013 10:45:00 17.4 C 10.37 g/m*3 17.4 C 35.4 km/h
Sensor: Nr:Datum:Temp:Abs-Feuchte:Windchill:Wind:
Aussen-T/F 401 27-10-2013 10:50:00 17.4 C 10.23 g/m*3 17.4 C 17.7 km/h
402 27-10-2013 10:55:00 17.4 C 10.23 g/m*3 17.4 C 25.7 km/h
403 27-10-2013 11:00:00 17.3 C 10.16 g/m*3 17.3 C 22.5 km/h
404 27-10-2013 11:05:00 17.1 C 10.04 g/m*3 17.1 C 25.7 km/h
405 27-10-2013 11:10:00 16.8 C 10.29 g/m*3 16.8 C 22.5 km/h
406 27-10-2013 11:15:00 16.6 C 10.45 g/m*3 16.6 C 24.1 km/h
407 27-10-2013 11:20:00 16.2 C 10.62 g/m*3 16.2 C 16.1 km/h
408 27-10-2013 11:25:00 15.7 C 10.7 g/m*3 15.7 C 19.3 km/h
409 27-10-2013 11:30:00 15.2 C 10.77 g/m*3 15.2 C 17.7 km/h
410 27-10-2013 11:35:00 14.8 C 10.89 g/m*3 14.8 C 12.9 km/h
411 27-10-2013 11:40:00 14.4 C 10.88 g/m*3 14.4 C 12.9 km/h
412 27-10-2013 11:45:00 14.3 C 11.06 g/m*3 14.3 C 11.3 km/h
413 27-10-2013 11:50:00 14.2 C 11.11 g/m*3 14.2 C 8.1 km/h
414 27-10-2013 11:55:00 14.2 C 11.11 g/m*3 14.2 C 8.1 km/h
415 27-10-2013 12:00:00 14.3 C 11.18 g/m*3 14.3 C 9.7 km/h
416 27-10-2013 12:05:00 14.4 C 11.25 g/m*3 14.4 C 8.1 km/h
417 27-10-2013 12:10:00 14.7 C 11.21 g/m*3 14.7 C 11.3 km/h
418 27-10-2013 12:15:00 14.9 C 11.22 g/m*3 14.9 C 12.9 km/h
419 27-10-2013 12:20:00 15.3 C 11.1 g/m*3 15.3 C 12.9 km/h
420 27-10-2013 12:25:00 15.5 C 11.1 g/m*3 15.5 C 29 km/h
421 27-10-2013 12:30:00 15.7 C 10.97 g/m*3 15.7 C 12.9 km/h
422 27-10-2013 12:35:00 15.8 C 10.9 g/m*3 15.8 C 16.1 km/h
423 27-10-2013 12:40:00 15.9 C 10.97 g/m*3 15.9 C 12.9 km/h
424 27-10-2013 12:45:00 16.1 C 10.97 g/m*3 16.1 C 20.9 km/h
425 27-10-2013 12:50:00 16.3 C 10.96 g/m*3 16.3 C 14.5 km/h
Sensor: Nr:Datum:Temp:Abs-Feuchte:Windchill:Wind:
Aussen-T/F 426 27-10-2013 12:55:00 16.6 C 11.02 g/m*3 16.6 C 22.5 km/h
427 27-10-2013 13:00:00 16.8 C 10.87 g/m*3 16.8 C 20.9 km/h
428 27-10-2013 13:05:00 16.8 C 10.72 g/m*3 16.8 C 17.7 km/h
429 27-10-2013 13:10:00 16.8 C 10.72 g/m*3 16.8 C 14.5 km/h
430 27-10-2013 13:15:00 16.8 C 10.72 g/m*3 16.8 C 6.4 km/h
431 27-10-2013 13:20:00 15.6 C 9.71 g/m*3 15.6 C 45 km/h
432 27-10-2013 13:25:00 13.4 C 9.07 g/m*3 13.4 C 33.8 km/h
433 27-10-2013 13:30:00 12.7 C 9.35 g/m*3 12.7 C 16.1 km/h
434 27-10-2013 13:35:00 11.9 C 9.11 g/m*3 11.9 C 11.3 km/h
435 27-10-2013 13:40:00 11.6 C 8.83 g/m*3 11.6 C 8.1 km/h
436 27-10-2013 13:45:00 11.4 C 9.03 g/m*3 11.4 C 19.3 km/h
437 27-10-2013 13:50:00 11.3 C 9.08 g/m*3 11.3 C 11.3 km/h
438 27-10-2013 13:55:00 11.3 C 8.98 g/m*3 11.3 C 6.4 km/h
439 27-10-2013 14:00:00 11.4 C 9.03 g/m*3 11.4 C 20.9 km/h
440 27-10-2013 14:05:00 11.5 C 8.99 g/m*3 11.5 C 14.5 km/h
441 27-10-2013 14:10:00 11.7 C 9.1 g/m*3 11.7 C 16.1 km/h
442 27-10-2013 14:15:00 11.9 C 9.32 g/m*3 11.9 C 12.9 km/h
443 27-10-2013 14:20:00 12.1 C 9.33 g/m*3 12.1 C 12.9 km/h
444 27-10-2013 14:25:00 12.2 C 9.39 g/m*3 12.2 C 14.5 km/h
445 27-10-2013 14:30:00 12.4 C 9.51 g/m*3 12.4 C 12.9 km/h
446 27-10-2013 14:35:00 12.6 C 9.62 g/m*3 12.6 C 8.1 km/h
447 27-10-2013 14:40:00 12.8 C 9.63 g/m*3 12.8 C 12.9 km/h
448 27-10-2013 14:45:00 13 C 9.75 g/m*3 13 C 19.3 km/h
449 27-10-2013 14:50:00 13.2 C 9.64 g/m*3 13.2 C 14.5 km/h
450 27-10-2013 14:55:00 13.3 C 9.7 g/m*3 13.3 C 14.5 km/h
Sensor: Nr:Datum:Temp:Abs-Feuchte:Windchill:Wind:
Aussen-T/F 451 27-10-2013 15:00:00 13.6 C 9.77 g/m*3 13.6 C 16.1 km/h
452 27-10-2013 15:05:00 13.7 C 9.83 g/m*3 13.7 C 12.9 km/h
453 27-10-2013 15:10:00 13.8 C 9.89 g/m*3 13.8 C 16.1 km/h
454 27-10-2013 15:15:00 13.8 C 9.89 g/m*3 13.8 C 11.3 km/h
455 27-10-2013 15:20:00 13.9 C 10.07 g/m*3 13.9 C 12.9 km/h
456 27-10-2013 15:25:00 13.9 C 9.95 g/m*3 13.9 C 12.9 km/h
457 27-10-2013 15:30:00 14 C 10.01 g/m*3 14 C 12.9 km/h
458 27-10-2013 15:35:00 14.1 C 10.07 g/m*3 14.1 C 14.5 km/h
459 27-10-2013 15:40:00 14.1 C 10.07 g/m*3 14.1 C 6.4 km/h
460 27-10-2013 15:45:00 14.1 C 10.19 g/m*3 14.1 C 4.8 km/h
461 27-10-2013 15:50:00 14.1 C 10.19 g/m*3 14.1 C 8.1 km/h
462 27-10-2013 15:55:00 14.2 C 10.38 g/m*3 14.2 C 4.8 km/h
463 27-10-2013 16:00:00 14.3 C 10.32 g/m*3 14.3 C 9.7 km/h
464 27-10-2013 16:05:00 14.3 C 10.32 g/m*3 14.3 C 6.4 km/h
465 27-10-2013 16:10:00 14.3 C 10.44 g/m*3 14.3 C 1.6 km/h
466 27-10-2013 16:15:00 14.2 C 10.38 g/m*3 14.2 C 11.3 km/h
467 27-10-2013 16:20:00 14.2 C 10.38 g/m*3 14.2 C 4.8 km/h
468 27-10-2013 16:25:00 14.1 C 10.56 g/m*3 14.1 C 0 km/h
469 27-10-2013 16:30:00 14 C 10.37 g/m*3 14 C 1.6 km/h
470 27-10-2013 16:35:00 14.1 C 10.44 g/m*3 14.1 C 3.2 km/h
471 27-10-2013 16:40:00 14.2 C 10.38 g/m*3 14.2 C 11.3 km/h
472 27-10-2013 16:45:00 14.2 C 10.26 g/m*3 14.2 C 6.4 km/h
473 27-10-2013 16:50:00 14.2 C 10.14 g/m*3 14.2 C 6.4 km/h
474 27-10-2013 16:55:00 13.9 C 10.31 g/m*3 13.9 C 1.6 km/h
475 27-10-2013 17:00:00 13.7 C 10.07 g/m*3 13.7 C 3.2 km/h
Sensor: Nr:Datum:Temp:Abs-Feuchte:Windchill:Wind:
Aussen-T/F 476 27-10-2013 17:05:00 13.6 C 9.77 g/m*3 13.6 C 4.8 km/h
477 27-10-2013 17:10:00 13.6 C 9.89 g/m*3 13.6 C 3.2 km/h
478 27-10-2013 17:15:00 13.6 C 9.77 g/m*3 13.6 C 8.1 km/h
479 27-10-2013 17:20:00 13.6 C 9.42 g/m*3 13.6 C 9.7 km/h
480 27-10-2013 17:25:00 13.8 C 9.41 g/m*3 13.8 C 8.1 km/h
481 27-10-2013 17:30:00 14 C 9.29 g/m*3 14 C 17.7 km/h
482 27-10-2013 17:35:00 14.2 C 9.28 g/m*3 14.2 C 11.3 km/h
483 27-10-2013 17:40:00 14.2 C 9.28 g/m*3 14.2 C 16.1 km/h
484 27-10-2013 17:45:00 14.2 C 9.28 g/m*3 14.2 C 14.5 km/h
485 27-10-2013 17:50:00 14.2 C 9.28 g/m*3 14.2 C 14.5 km/h
486 27-10-2013 17:55:00 14.3 C 9.34 g/m*3 14.3 C 16.1 km/h
487 27-10-2013 18:00:00 14.3 C 9.34 g/m*3 14.3 C 14.5 km/h
488 27-10-2013 18:05:00 14.4 C 9.39 g/m*3 14.4 C 19.3 km/h
489 27-10-2013 18:10:00 14.4 C 9.39 g/m*3 14.4 C 6.4 km/h
490 27-10-2013 18:15:00 14.4 C 9.39 g/m*3 14.4 C 12.9 km/h
491 27-10-2013 18:20:00 14.4 C 9.39 g/m*3 14.4 C 17.7 km/h
492 27-10-2013 18:25:00 14.3 C 9.46 g/m*3 14.3 C 16.1 km/h
493 27-10-2013 18:30:00 14.3 C 9.46 g/m*3 14.3 C 22.5 km/h
494 27-10-2013 18:35:00 14.3 C 9.46 g/m*3 14.3 C 19.3 km/h
495 27-10-2013 18:40:00 14.4 C 9.52 g/m*3 14.4 C 20.9 km/h
496 27-10-2013 18:45:00 14.4 C 9.52 g/m*3 14.4 C 29 km/h
497 27-10-2013 18:50:00 14.4 C 9.64 g/m*3 14.4 C 24.1 km/h
498 27-10-2013 18:55:00 14.3 C 9.58 g/m*3 14.3 C 30.6 km/h
499 27-10-2013 19:00:00 14.3 C 9.58 g/m*3 14.3 C 17.7 km/h
500 27-10-2013 19:05:00 14.2 C 9.65 g/m*3 14.2 C 22.5 km/h
Sensor: Nr:Datum:Temp:Abs-Feuchte:Windchill:Wind:
Aussen-T/F 501 27-10-2013 19:10:00 14.2 C 9.65 g/m*3 14.2 C 22.5 km/h
502 27-10-2013 19:15:00 14.2 C 9.65 g/m*3 14.2 C 22.5 km/h
503 27-10-2013 19:20:00 14.2 C 9.65 g/m*3 14.2 C 22.5 km/h
504 27-10-2013 19:25:00 14.2 C 9.65 g/m*3 14.2 C 20.9 km/h
505 27-10-2013 19:30:00 14.2 C 9.65 g/m*3 14.2 C 17.7 km/h
506 27-10-2013 19:35:00 14.2 C 9.65 g/m*3 14.2 C 19.3 km/h
507 27-10-2013 19:40:00 14.3 C 9.71 g/m*3 14.3 C 24.1 km/h
508 27-10-2013 19:45:00 14.3 C 9.83 g/m*3 14.3 C 20.9 km/h
509 27-10-2013 19:50:00 14.2 C 10.01 g/m*3 14.2 C 20.9 km/h
510 27-10-2013 19:55:00 13.8 C 10.13 g/m*3 13.8 C 11.3 km/h
511 27-10-2013 20:00:00 13.6 C 10.12 g/m*3 13.6 C 14.5 km/h
512 27-10-2013 20:05:00 13.4 C 10.11 g/m*3 13.4 C 14.5 km/h
513 27-10-2013 20:10:00 13.3 C 10.17 g/m*3 13.3 C 12.9 km/h
514 27-10-2013 20:15:00 13.2 C 10.1 g/m*3 13.2 C 12.9 km/h
515 27-10-2013 20:20:00 13.2 C 10.1 g/m*3 13.2 C 9.7 km/h
516 27-10-2013 20:25:00 13.2 C 10.1 g/m*3 13.2 C 9.7 km/h
517 27-10-2013 20:30:00 13.2 C 10.1 g/m*3 13.2 C 8.1 km/h
518 27-10-2013 20:35:00 13.2 C 9.99 g/m*3 13.2 C 8.1 km/h
519 27-10-2013 20:40:00 13.3 C 10.05 g/m*3 13.3 C 8.1 km/h
520 27-10-2013 20:45:00 13.3 C 10.05 g/m*3 13.3 C 4.8 km/h
521 27-10-2013 20:50:00 13.4 C 10 g/m*3 13.4 C 16.1 km/h
522 27-10-2013 20:55:00 13.5 C 9.94 g/m*3 13.5 C 8.1 km/h
523 27-10-2013 21:00:00 13.6 C 10 g/m*3 13.6 C 6.4 km/h
524 27-10-2013 21:05:00 13.6 C 10 g/m*3 13.6 C 8.1 km/h
525 27-10-2013 21:10:00 13.5 C 9.94 g/m*3 13.5 C 9.7 km/h
Sensor: Nr:Datum:Temp:Abs-Feuchte:Windchill:Wind:
Aussen-T/F 526 27-10-2013 21:15:00 13.4 C 9.88 g/m*3 13.4 C 9.7 km/h
527 27-10-2013 21:20:00 13.5 C 10.06 g/m*3 13.5 C 4.8 km/h
528 27-10-2013 21:25:00 13.6 C 10.12 g/m*3 13.6 C 6.4 km/h
529 27-10-2013 21:30:00 13.5 C 9.94 g/m*3 13.5 C 8.1 km/h
530 27-10-2013 21:35:00 13.6 C 10 g/m*3 13.6 C 8.1 km/h
531 27-10-2013 21:40:00 13.8 C 9.89 g/m*3 13.8 C 20.9 km/h
532 27-10-2013 21:45:00 14.1 C 10.07 g/m*3 14.1 C 17.7 km/h
533 27-10-2013 21:50:00 14.2 C 9.89 g/m*3 14.2 C 12.9 km/h
534 27-10-2013 21:55:00 14.3 C 9.95 g/m*3 14.3 C 4.8 km/h
535 27-10-2013 22:00:00 14.3 C 9.83 g/m*3 14.3 C 8.1 km/h
536 27-10-2013 22:05:00 14.5 C 9.95 g/m*3 14.5 C 20.9 km/h
537 27-10-2013 22:10:00 14.6 C 9.89 g/m*3 14.6 C 20.9 km/h
538 27-10-2013 22:15:00 14.6 C 9.89 g/m*3 14.6 C 16.1 km/h
539 27-10-2013 22:20:00 14.6 C 9.89 g/m*3 14.6 C 11.3 km/h
540 27-10-2013 22:25:00 14.6 C 9.89 g/m*3 14.6 C 22.5 km/h
541 27-10-2013 22:30:00 14.7 C 9.95 g/m*3 14.7 C 22.5 km/h
542 27-10-2013 22:35:00 14.6 C 10.01 g/m*3 14.6 C 17.7 km/h
543 27-10-2013 22:40:00 14.6 C 10.01 g/m*3 14.6 C 24.1 km/h
544 27-10-2013 22:45:00 14.7 C 10.07 g/m*3 14.7 C 17.7 km/h
545 27-10-2013 22:50:00 14.7 C 10.07 g/m*3 14.7 C 16.1 km/h
546 27-10-2013 22:55:00 14.6 C 10.01 g/m*3 14.6 C 12.9 km/h
547 27-10-2013 23:00:00 14.6 C 10.14 g/m*3 14.6 C 16.1 km/h
548 27-10-2013 23:05:00 14.4 C 10.01 g/m*3 14.4 C 16.1 km/h
549 27-10-2013 23:10:00 14.4 C 10.14 g/m*3 14.4 C 16.1 km/h
550 27-10-2013 23:15:00 14.3 C 10.07 g/m*3 14.3 C 14.5 km/h
Sensor: Nr:Datum:Temp:Abs-Feuchte:Windchill:Wind:
Aussen-T/F 551 27-10-2013 23:20:00 14.3 C 10.07 g/m*3 14.3 C 12.9 km/h
552 27-10-2013 23:25:00 14.3 C 10.07 g/m*3 14.3 C 19.3 km/h
553 27-10-2013 23:30:00 14.3 C 10.07 g/m*3 14.3 C 24.1 km/h
554 27-10-2013 23:35:00 14.4 C 10.14 g/m*3 14.4 C 9.7 km/h
555 27-10-2013 23:40:00 14.4 C 10.14 g/m*3 14.4 C 12.9 km/h
556 27-10-2013 23:45:00 14.4 C 10.14 g/m*3 14.4 C 17.7 km/h
557 27-10-2013 23:50:00 14.4 C 10.14 g/m*3 14.4 C 12.9 km/h
558 27-10-2013 23:55:00 14.4 C 10.14 g/m*3 14.4 C 16.1 km/h
559 28-10-2013 00:00:00 14.4 C 10.14 g/m*3 14.4 C 6.4 km/h
560 28-10-2013 00:05:00 14.3 C 10.2 g/m*3 14.3 C 16.1 km/h
561 28-10-2013 00:10:00 14.3 C 10.2 g/m*3 14.3 C 8.1 km/h
562 28-10-2013 00:15:00 14.3 C 10.2 g/m*3 14.3 C 11.3 km/h
563 28-10-2013 00:20:00 14.3 C 10.32 g/m*3 14.3 C 8.1 km/h
564 28-10-2013 00:25:00 14.3 C 10.32 g/m*3 14.3 C 12.9 km/h
565 28-10-2013 00:30:00 14.2 C 10.38 g/m*3 14.2 C 0 km/h
566 28-10-2013 00:35:00 14.1 C 10.44 g/m*3 14.1 C 0 km/h
567 28-10-2013 00:40:00 13.9 C 10.19 g/m*3 13.9 C 9.7 km/h
568 28-10-2013 00:45:00 14 C 10.49 g/m*3 14 C 4.8 km/h
569 28-10-2013 00:50:00 13.9 C 10.55 g/m*3 13.9 C 4.8 km/h
570 28-10-2013 00:55:00 13.8 C 10.6 g/m*3 13.8 C 3.2 km/h
571 28-10-2013 01:00:00 13.6 C 10.59 g/m*3 13.6 C 1.6 km/h
572 28-10-2013 01:05:00 13.5 C 10.64 g/m*3 13.5 C 0 km/h
573 28-10-2013 01:10:00 13.3 C 10.63 g/m*3 13.3 C 4.8 km/h
574 28-10-2013 01:15:00 13.2 C 10.68 g/m*3 13.2 C 0 km/h
575 28-10-2013 01:20:00 13.2 C 10.68 g/m*3 13.2 C 1.6 km/h
Sensor: Nr:Datum:Temp:Abs-Feuchte:Windchill:Wind:
Aussen-T/F 576 28-10-2013 01:25:00 13.1 C 10.73 g/m*3 13.1 C 6.4 km/h
577 28-10-2013 01:30:00 13 C 10.66 g/m*3 13 C 1.6 km/h
578 28-10-2013 01:35:00 13 C 10.66 g/m*3 13 C 1.6 km/h
579 28-10-2013 01:40:00 12.9 C 10.59 g/m*3 12.9 C 3.2 km/h
580 28-10-2013 01:45:00 12.9 C 10.59 g/m*3 12.9 C 3.2 km/h
581 28-10-2013 01:50:00 12.9 C 10.71 g/m*3 12.9 C 3.2 km/h
582 28-10-2013 01:55:00 12.9 C 10.71 g/m*3 12.9 C 3.2 km/h
583 28-10-2013 02:00:00 13 C 10.77 g/m*3 13 C 3.2 km/h
584 28-10-2013 02:05:00 13 C 10.77 g/m*3 13 C 3.2 km/h
585 28-10-2013 02:10:00 13.1 C 10.84 g/m*3 13.1 C 6.4 km/h
586 28-10-2013 02:15:00 13.1 C 10.84 g/m*3 13.1 C 6.4 km/h
587 28-10-2013 02:20:00 13.1 C 10.84 g/m*3 13.1 C 4.8 km/h
588 28-10-2013 02:25:00 13.2 C 10.91 g/m*3 13.2 C 3.2 km/h
589 28-10-2013 02:30:00 13.2 C 11.02 g/m*3 13.2 C 6.4 km/h
590 28-10-2013 02:35:00 13.3 C 11.09 g/m*3 13.3 C 3.2 km/h
591 28-10-2013 02:40:00 13.4 C 11.16 g/m*3 13.4 C 6.4 km/h
592 28-10-2013 02:45:00 13.7 C 11.25 g/m*3 13.7 C 11.3 km/h
593 28-10-2013 02:50:00 13.8 C 11.32 g/m*3 13.8 C 6.4 km/h
594 28-10-2013 02:55:00 13.9 C 11.27 g/m*3 13.9 C 9.7 km/h
595 28-10-2013 03:00:00 14.1 C 11.29 g/m*3 14.1 C 19.3 km/h
596 28-10-2013 03:05:00 14.3 C 11.43 g/m*3 14.3 C 17.7 km/h
597 28-10-2013 03:10:00 14.4 C 11.37 g/m*3 14.4 C 14.5 km/h
598 28-10-2013 03:15:00 14.4 C 11.37 g/m*3 14.4 C 14.5 km/h
599 28-10-2013 03:20:00 14.5 C 11.32 g/m*3 14.5 C 12.9 km/h
600 28-10-2013 03:25:00 14.5 C 11.32 g/m*3 14.5 C 9.7 km/h
Sensor: Nr:Datum:Temp:Abs-Feuchte:Windchill:Wind:
Aussen-T/F 601 28-10-2013 03:30:00 14.6 C 11.26 g/m*3 14.6 C 11.3 km/h
602 28-10-2013 03:35:00 14.7 C 11.21 g/m*3 14.7 C 14.5 km/h
603 28-10-2013 03:40:00 14.9 C 11.22 g/m*3 14.9 C 20.9 km/h
604 28-10-2013 03:45:00 15 C 11.16 g/m*3 15 C 20.9 km/h
605 28-10-2013 03:50:00 15.1 C 11.09 g/m*3 15.1 C 17.7 km/h
606 28-10-2013 03:55:00 15.2 C 11.03 g/m*3 15.2 C 16.1 km/h
607 28-10-2013 04:00:00 15.2 C 11.16 g/m*3 15.2 C 6.4 km/h
608 28-10-2013 04:05:00 15.1 C 11.09 g/m*3 15.1 C 11.3 km/h
609 28-10-2013 04:10:00 15.1 C 11.09 g/m*3 15.1 C 11.3 km/h
610 28-10-2013 04:15:00 15.2 C 11.03 g/m*3 15.2 C 12.9 km/h
611 28-10-2013 04:20:00 15.2 C 10.9 g/m*3 15.2 C 17.7 km/h
612 28-10-2013 04:25:00 15.4 C 11.17 g/m*3 15.4 C 12.9 km/h
613 28-10-2013 04:30:00 15.3 C 11.1 g/m*3 15.3 C 19.3 km/h
614 28-10-2013 04:35:00 15.2 C 10.9 g/m*3 15.2 C 11.3 km/h
615 28-10-2013 04:40:00 15.3 C 10.97 g/m*3 15.3 C 11.3 km/h
616 28-10-2013 04:45:00 15.3 C 10.71 g/m*3 15.3 C 17.7 km/h
617 28-10-2013 04:50:00 15.4 C 10.9 g/m*3 15.4 C 9.7 km/h
618 28-10-2013 04:55:00 15.5 C 10.71 g/m*3 15.5 C 12.9 km/h
619 28-10-2013 05:00:00 15.5 C 10.84 g/m*3 15.5 C 3.2 km/h
620 28-10-2013 05:05:00 15.3 C 10.84 g/m*3 15.3 C 6.4 km/h
621 28-10-2013 05:10:00 15.1 C 10.58 g/m*3 15.1 C 4.8 km/h
622 28-10-2013 05:15:00 15.1 C 10.58 g/m*3 15.1 C 6.4 km/h
623 28-10-2013 05:20:00 14.9 C 10.71 g/m*3 14.9 C 3.2 km/h
624 28-10-2013 05:25:00 14.7 C 10.7 g/m*3 14.7 C 4.8 km/h
625 28-10-2013 05:30:00 14.4 C 10.63 g/m*3 14.4 C 3.2 km/h
Sensor: Nr:Datum:Temp:Abs-Feuchte:Windchill:Wind:
Aussen-T/F 626 28-10-2013 05:35:00 14.1 C 10.68 g/m*3 14.1 C 1.6 km/h
627 28-10-2013 05:40:00 13.8 C 10.25 g/m*3 13.8 C 4.8 km/h
628 28-10-2013 05:45:00 13.9 C 10.43 g/m*3 13.9 C 4.8 km/h
629 28-10-2013 05:50:00 13.9 C 10.55 g/m*3 13.9 C 4.8 km/h
630 28-10-2013 05:55:00 13.8 C 10.6 g/m*3 13.8 C 3.2 km/h
631 28-10-2013 06:00:00 13.6 C 10.59 g/m*3 13.6 C 1.6 km/h
632 28-10-2013 06:05:00 13.5 C 10.53 g/m*3 13.5 C 4.8 km/h
633 28-10-2013 06:10:00 13.6 C 10.47 g/m*3 13.6 C 4.8 km/h
634 28-10-2013 06:15:00 13.7 C 10.54 g/m*3 13.7 C 3.2 km/h
635 28-10-2013 06:20:00 13.8 C 10.13 g/m*3 13.8 C 4.8 km/h
636 28-10-2013 06:25:00 14.2 C 10.5 g/m*3 14.2 C 3.2 km/h
637 28-10-2013 06:30:00 14.3 C 10.07 g/m*3 14.3 C 6.4 km/h
638 28-10-2013 06:35:00 14.8 C 10.64 g/m*3 14.8 C 8.1 km/h
639 28-10-2013 06:40:00 14.7 C 10.58 g/m*3 14.7 C 3.2 km/h
640 28-10-2013 06:45:00 14.5 C 10.7 g/m*3 14.5 C 3.2 km/h
641 28-10-2013 06:50:00 14.3 C 10.57 g/m*3 14.3 C 3.2 km/h
642 28-10-2013 06:55:00 14.3 C 10.07 g/m*3 14.3 C 8.1 km/h
643 28-10-2013 07:00:00 14.8 C 10.13 g/m*3 14.8 C 8.1 km/h
644 28-10-2013 07:05:00 15.3 C 10.19 g/m*3 15.3 C 12.9 km/h
645 28-10-2013 07:10:00 15.8 C 10.1 g/m*3 15.8 C 9.7 km/h
646 28-10-2013 07:15:00 16.2 C 10.07 g/m*3 16.2 C 12.9 km/h
647 28-10-2013 07:20:00 16.4 C 10.05 g/m*3 16.4 C 11.3 km/h
648 28-10-2013 07:25:00 16.4 C 9.91 g/m*3 16.4 C 14.5 km/h
649 28-10-2013 07:30:00 16.5 C 9.97 g/m*3 16.5 C 19.3 km/h
650 28-10-2013 07:35:00 16.6 C 10.03 g/m*3 16.6 C 19.3 km/h
Sensor: Nr:Datum:Temp:Abs-Feuchte:Windchill:Wind:
Aussen-T/F 651 28-10-2013 07:40:00 16.7 C 9.95 g/m*3 16.7 C 24.1 km/h
652 28-10-2013 07:45:00 16.8 C 9.87 g/m*3 16.8 C 25.7 km/h
653 28-10-2013 07:50:00 16.9 C 9.78 g/m*3 16.9 C 25.7 km/h
654 28-10-2013 07:55:00 17.1 C 9.9 g/m*3 17.1 C 25.7 km/h
655 28-10-2013 08:00:00 17 C 9.98 g/m*3 17 C 22.5 km/h
656 28-10-2013 08:05:00 16.9 C 9.92 g/m*3 16.9 C 22.5 km/h
657 28-10-2013 08:10:00 16.9 C 9.78 g/m*3 16.9 C 16.1 km/h
658 28-10-2013 08:15:00 17 C 9.69 g/m*3 17 C 24.1 km/h
659 28-10-2013 08:20:00 17.2 C 9.67 g/m*3 17.2 C 25.7 km/h
660 28-10-2013 08:25:00 17.3 C 9.72 g/m*3 17.3 C 16.1 km/h
661 28-10-2013 08:30:00 17.3 C 9.72 g/m*3 17.3 C 19.3 km/h
662 28-10-2013 08:35:00 17.3 C 9.58 g/m*3 17.3 C 20.9 km/h
663 28-10-2013 08:40:00 17.3 C 9.43 g/m*3 17.3 C 17.7 km/h
664 28-10-2013 08:45:00 17.4 C 9.63 g/m*3 17.4 C 11.3 km/h
665 28-10-2013 08:50:00 17.4 C 9.48 g/m*3 17.4 C 17.7 km/h
666 28-10-2013 08:55:00 17.5 C 9.84 g/m*3 17.5 C 24.1 km/h
667 28-10-2013 09:00:00 17.5 C 9.54 g/m*3 17.5 C 19.3 km/h
668 28-10-2013 09:05:00 17.6 C 9.6 g/m*3 17.6 C 14.5 km/h
669 28-10-2013 09:10:00 17.7 C 9.51 g/m*3 17.7 C 24.1 km/h
670 28-10-2013 09:15:00 17.8 C 9.56 g/m*3 17.8 C 8.1 km/h
671 28-10-2013 09:20:00 17.8 C 9.56 g/m*3 17.8 C 11.3 km/h
672 28-10-2013 09:25:00 17.8 C 9.41 g/m*3 17.8 C 11.3 km/h
673 28-10-2013 09:30:00 17.7 C 9.51 g/m*3 17.7 C 8.1 km/h
674 28-10-2013 09:35:00 17.7 C 9.66 g/m*3 17.7 C 6.4 km/h
675 28-10-2013 09:40:00 17.8 C 9.56 g/m*3 17.8 C 11.3 km/h
Sensor: Nr:Datum:Temp:Abs-Feuchte:Windchill:Wind:
Aussen-T/F 676 28-10-2013 09:45:00 17.9 C 9.47 g/m*3 17.9 C 16.1 km/h
677 28-10-2013 09:50:00 18.1 C 9.58 g/m*3 18.1 C 11.3 km/h
678 28-10-2013 09:55:00 18.1 C 9.58 g/m*3 18.1 C 16.1 km/h
679 28-10-2013 10:00:00 18.1 C 9.43 g/m*3 18.1 C 17.7 km/h
680 28-10-2013 10:05:00 18.2 C 9.64 g/m*3 18.2 C 14.5 km/h
681 28-10-2013 10:10:00 18.2 C 9.64 g/m*3 18.2 C 8.1 km/h
682 28-10-2013 10:15:00 18.3 C 9.69 g/m*3 18.3 C 17.7 km/h
683 28-10-2013 10:20:00 18.4 C 9.44 g/m*3 18.4 C 24.1 km/h
684 28-10-2013 10:25:00 18.7 C 9.61 g/m*3 18.7 C 20.9 km/h
685 28-10-2013 10:30:00 18.9 C 9.4 g/m*3 18.9 C 32.2 km/h
686 28-10-2013 10:35:00 18.9 C 9.4 g/m*3 18.9 C 32.2 km/h
687 28-10-2013 10:40:00 18.9 C 9.4 g/m*3 18.9 C 33.8 km/h
688 28-10-2013 10:45:00 18.9 C 9.56 g/m*3 18.9 C 27.4 km/h
689 28-10-2013 10:50:00 18.9 C 9.56 g/m*3 18.9 C 24.1 km/h
690 28-10-2013 10:55:00 19 C 9.61 g/m*3 19 C 19.3 km/h
691 28-10-2013 11:00:00 19.1 C 9.84 g/m*3 19.1 C 27.4 km/h
692 28-10-2013 11:05:00 19.1 C 9.84 g/m*3 19.1 C 35.4 km/h
693 28-10-2013 11:10:00 19.1 C 9.84 g/m*3 19.1 C 35.4 km/h
694 28-10-2013 11:15:00 19 C 9.78 g/m*3 19 C 25.7 km/h
695 28-10-2013 11:20:00 19 C 9.94 g/m*3 19 C 30.6 km/h
696 28-10-2013 11:25:00 18.9 C 10.04 g/m*3 18.9 C 27.4 km/h
697 28-10-2013 11:30:00 18.8 C 9.99 g/m*3 18.8 C 30.6 km/h
698 28-10-2013 11:35:00 18.7 C 10.25 g/m*3 18.7 C 32.2 km/h
699 28-10-2013 11:40:00 18.6 C 10.35 g/m*3 18.6 C 30.6 km/h
700 28-10-2013 11:45:00 18.4 C 10.38 g/m*3 18.4 C 30.6 km/h
Sensor: Nr:Datum:Temp:Abs-Feuchte:Windchill:Wind:
Aussen-T/F 701 28-10-2013 11:50:00 18.3 C 10.63 g/m*3 18.3 C 27.4 km/h
702 28-10-2013 11:55:00 18 C 10.75 g/m*3 18 C 24.1 km/h
703 28-10-2013 12:00:00 17.8 C 10.93 g/m*3 17.8 C 27.4 km/h
704 28-10-2013 12:05:00 17.5 C 10.88 g/m*3 17.5 C 24.1 km/h
705 28-10-2013 12:10:00 17.2 C 11.13 g/m*3 17.2 C 25.7 km/h
706 28-10-2013 12:15:00 17 C 11.14 g/m*3 17 C 32.2 km/h
707 28-10-2013 12:20:00 16.7 C 11.23 g/m*3 16.7 C 29 km/h
708 28-10-2013 12:25:00 16.6 C 11.3 g/m*3 16.6 C 19.3 km/h
709 28-10-2013 12:30:00 16.4 C 11.31 g/m*3 16.4 C 24.1 km/h
710 28-10-2013 12:35:00 16.3 C 11.24 g/m*3 16.3 C 27.4 km/h
711 28-10-2013 12:40:00 16.2 C 11.31 g/m*3 16.2 C 27.4 km/h
712 28-10-2013 12:45:00 16.2 C 11.45 g/m*3 16.2 C 20.9 km/h
713 28-10-2013 12:50:00 16.2 C 11.45 g/m*3 16.2 C 30.6 km/h
714 28-10-2013 12:55:00 16.2 C 11.31 g/m*3 16.2 C 16.1 km/h
715 28-10-2013 13:00:00 16.4 C 11.17 g/m*3 16.4 C 20.9 km/h
716 28-10-2013 13:05:00 16.6 C 11.16 g/m*3 16.6 C 19.3 km/h
717 28-10-2013 13:10:00 16.8 C 11.01 g/m*3 16.8 C 29 km/h
718 28-10-2013 13:15:00 16.9 C 10.93 g/m*3 16.9 C 32.2 km/h
719 28-10-2013 13:20:00 17.1 C 10.92 g/m*3 17.1 C 25.7 km/h
720 28-10-2013 13:25:00 17.2 C 10.84 g/m*3 17.2 C 24.1 km/h
721 28-10-2013 13:30:00 17.2 C 10.84 g/m*3 17.2 C 30.6 km/h
722 28-10-2013 13:35:00 17.1 C 10.92 g/m*3 17.1 C 25.7 km/h
723 28-10-2013 13:40:00 16.8 C 11.01 g/m*3 16.8 C 19.3 km/h
724 28-10-2013 13:45:00 16.4 C 11.17 g/m*3 16.4 C 22.5 km/h
725 28-10-2013 13:50:00 16.3 C 11.24 g/m*3 16.3 C 20.9 km/h
Sensor: Nr:Datum:Temp:Abs-Feuchte:Windchill:Wind:
Aussen-T/F 726 28-10-2013 13:55:00 16.2 C 11.17 g/m*3 16.2 C 17.7 km/h
727 28-10-2013 14:00:00 16.2 C 11.17 g/m*3 16.2 C 17.7 km/h
728 28-10-2013 14:05:00 16.2 C 11.31 g/m*3 16.2 C 25.7 km/h
729 28-10-2013 14:10:00 16.1 C 11.38 g/m*3 16.1 C 17.7 km/h
730 28-10-2013 14:15:00 16.1 C 11.38 g/m*3 16.1 C 19.3 km/h
731 28-10-2013 14:40:00 16.4 C 11.03 g/m*3 16.4 C 17.7 km/h
732 28-10-2013 14:45:00 16.6 C 11.16 g/m*3 16.6 C 16.1 km/h
733 28-10-2013 14:50:00 16.6 C 11.02 g/m*3 16.6 C 12.9 km/h
734 28-10-2013 14:55:00 16.6 C 10.88 g/m*3 16.6 C 20.9 km/h
735 28-10-2013 15:00:00 16.7 C 10.94 g/m*3 16.7 C 19.3 km/h
736 28-10-2013 15:05:00 16.7 C 10.8 g/m*3 16.7 C 17.7 km/h
737 28-10-2013 15:10:00 16.7 C 10.66 g/m*3 16.7 C 27.4 km/h
738 28-10-2013 15:15:00 16.7 C 10.66 g/m*3 16.7 C 14.5 km/h
739 28-10-2013 15:20:00 16.8 C 10.58 g/m*3 16.8 C 24.1 km/h
740 28-10-2013 15:25:00 16.9 C 10.64 g/m*3 16.9 C 20.9 km/h
741 28-10-2013 15:30:00 16.9 C 10.5 g/m*3 16.9 C 17.7 km/h
742 28-10-2013 15:35:00 17 C 10.42 g/m*3 17 C 22.5 km/h
743 28-10-2013 15:40:00 16.9 C 10.5 g/m*3 16.9 C 17.7 km/h
744 28-10-2013 15:45:00 16.9 C 10.5 g/m*3 16.9 C 22.5 km/h
745 28-10-2013 15:50:00 16.9 C 10.5 g/m*3 16.9 C 17.7 km/h
746 28-10-2013 16:45:00 16.2 C 10.07 g/m*3 16.2 C 16.1 km/h
747 28-10-2013 16:50:00 15.9 C 10.02 g/m*3 15.9 C 20.9 km/h
748 28-10-2013 16:55:00 15.8 C 10.1 g/m*3 15.8 C 20.9 km/h
749 28-10-2013 17:00:00 15.6 C 10.11 g/m*3 15.6 C 17.7 km/h
750 28-10-2013 17:05:00 15.4 C 9.99 g/m*3 15.4 C 12.9 km/h
Sensor: Nr:Datum:Temp:Abs-Feuchte:Windchill:Wind:
Aussen-T/F 751 28-10-2013 17:10:00 15.4 C 9.99 g/m*3 15.4 C 17.7 km/h
752 28-10-2013 17:15:00 15.3 C 10.06 g/m*3 15.3 C 16.1 km/h
753 28-10-2013 17:20:00 15.2 C 9.99 g/m*3 15.2 C 14.5 km/h
754 28-10-2013 17:25:00 15.1 C 10.06 g/m*3 15.1 C 17.7 km/h
755 28-10-2013 17:30:00 15.1 C 10.06 g/m*3 15.1 C 20.9 km/h
756 28-10-2013 17:35:00 15.1 C 9.93 g/m*3 15.1 C 17.7 km/h
757 28-10-2013 17:40:00 15.2 C 9.99 g/m*3 15.2 C 16.1 km/h
758 28-10-2013 17:45:00 15.2 C 9.99 g/m*3 15.2 C 16.1 km/h
759 28-10-2013 17:50:00 15.1 C 9.8 g/m*3 15.1 C 14.5 km/h
760 28-10-2013 17:55:00 14.8 C 9.75 g/m*3 14.8 C 24.1 km/h
761 28-10-2013 18:00:00 14.6 C 9.64 g/m*3 14.6 C 14.5 km/h
762 28-10-2013 18:05:00 14.4 C 9.77 g/m*3 14.4 C 22.5 km/h
763 28-10-2013 18:10:00 14.4 C 9.77 g/m*3 14.4 C 19.3 km/h
764 28-10-2013 18:15:00 14.3 C 9.71 g/m*3 14.3 C 11.3 km/h
765 28-10-2013 18:20:00 14.2 C 9.77 g/m*3 14.2 C 6.4 km/h
766 28-10-2013 18:25:00 14.2 C 9.77 g/m*3 14.2 C 17.7 km/h
767 28-10-2013 18:30:00 14.1 C 9.83 g/m*3 14.1 C 11.3 km/h
768 28-10-2013 18:35:00 14.1 C 9.71 g/m*3 14.1 C 14.5 km/h
769 28-10-2013 18:40:00 14.2 C 9.77 g/m*3 14.2 C 16.1 km/h
770 28-10-2013 18:45:00 14.4 C 9.77 g/m*3 14.4 C 12.9 km/h
771 28-10-2013 18:50:00 14.4 C 9.77 g/m*3 14.4 C 17.7 km/h
772 28-10-2013 18:55:00 14.8 C 9.63 g/m*3 14.8 C 12.9 km/h
773 28-10-2013 19:00:00 14.8 C 9.63 g/m*3 14.8 C 8.1 km/h
774 28-10-2013 19:05:00 14.7 C 9.69 g/m*3 14.7 C 12.9 km/h
775 28-10-2013 19:10:00 14.6 C 9.64 g/m*3 14.6 C 6.4 km/h
Sensor: Nr:Datum:Temp:Abs-Feuchte:Windchill:Wind:
Aussen-T/F 776 28-10-2013 19:15:00 14.5 C 9.58 g/m*3 14.5 C 3.2 km/h
777 28-10-2013 19:20:00 14.2 C 9.65 g/m*3 14.2 C 9.7 km/h
778 28-10-2013 19:25:00 14.1 C 9.59 g/m*3 14.1 C 1.6 km/h
779 28-10-2013 19:30:00 14.1 C 9.71 g/m*3 14.1 C 11.3 km/h
780 28-10-2013 19:35:00 14.3 C 9.71 g/m*3 14.3 C 9.7 km/h
781 28-10-2013 19:40:00 14.4 C 9.64 g/m*3 14.4 C 9.7 km/h
782 28-10-2013 19:45:00 14.4 C 9.64 g/m*3 14.4 C 9.7 km/h
783 28-10-2013 19:50:00 14.4 C 9.64 g/m*3 14.4 C 11.3 km/h
784 28-10-2013 19:55:00 14.4 C 9.64 g/m*3 14.4 C 9.7 km/h
785 28-10-2013 20:00:00 14.3 C 9.58 g/m*3 14.3 C 9.7 km/h
786 28-10-2013 20:05:00 14.3 C 9.58 g/m*3 14.3 C 12.9 km/h
787 28-10-2013 20:10:00 14.3 C 9.58 g/m*3 14.3 C 9.7 km/h
788 28-10-2013 20:15:00 14.3 C 9.46 g/m*3 14.3 C 9.7 km/h
789 28-10-2013 20:20:00 14.3 C 9.46 g/m*3 14.3 C 9.7 km/h
790 28-10-2013 20:25:00 14.3 C 9.46 g/m*3 14.3 C 17.7 km/h
791 28-10-2013 20:30:00 14.3 C 9.46 g/m*3 14.3 C 8.1 km/h
792 28-10-2013 20:35:00 14.3 C 9.34 g/m*3 14.3 C 11.3 km/h
793 28-10-2013 20:40:00 14.3 C 9.34 g/m*3 14.3 C 11.3 km/h
794 28-10-2013 20:45:00 14.3 C 9.34 g/m*3 14.3 C 12.9 km/h
795 28-10-2013 22:00:00 13.8 C 9.29 g/m*3 13.8 C 8.1 km/h
796 28-10-2013 22:05:00 13.7 C 9.12 g/m*3 13.7 C 8.1 km/h
797 28-10-2013 22:10:00 13.6 C 9.18 g/m*3 13.6 C 4.8 km/h
798 28-10-2013 22:15:00 13.4 C 9.07 g/m*3 13.4 C 9.7 km/h
799 28-10-2013 22:20:00 13.4 C 9.07 g/m*3 13.4 C 24.1 km/h
800 28-10-2013 22:25:00 13.4 C 9.07 g/m*3 13.4 C 9.7 km/h
Sensor: Nr:Datum:Temp:Abs-Feuchte:Windchill:Wind:
Aussen-T/F 801 28-10-2013 22:30:00 13.4 C 9.07 g/m*3 13.4 C 6.4 km/h
802 28-10-2013 22:35:00 13.2 C 9.07 g/m*3 13.2 C 4.8 km/h
803 28-10-2013 22:40:00 13.1 C 9.01 g/m*3 13.1 C 8.1 km/h
804 28-10-2013 22:45:00 13.2 C 9.07 g/m*3 13.2 C 12.9 km/h
805 28-10-2013 22:50:00 13.1 C 9.01 g/m*3 13.1 C 4.8 km/h
806 28-10-2013 22:55:00 12.9 C 8.9 g/m*3 12.9 C 12.9 km/h
807 28-10-2013 23:00:00 12.9 C 8.9 g/m*3 12.9 C 9.7 km/h
808 28-10-2013 23:05:00 12.9 C 8.9 g/m*3 12.9 C 14.5 km/h
809 28-10-2013 23:10:00 13.1 C 8.9 g/m*3 13.1 C 14.5 km/h
810 28-10-2013 23:15:00 13.1 C 8.9 g/m*3 13.1 C 17.7 km/h
811 28-10-2013 23:20:00 13.1 C 8.79 g/m*3 13.1 C 16.1 km/h
812 28-10-2013 23:25:00 13.2 C 8.84 g/m*3 13.2 C 12.9 km/h
813 28-10-2013 23:30:00 13.2 C 8.84 g/m*3 13.2 C 14.5 km/h
814 28-10-2013 23:35:00 13.1 C 8.79 g/m*3 13.1 C 8.1 km/h
815 28-10-2013 23:40:00 13.1 C 8.79 g/m*3 13.1 C 11.3 km/h
816 28-10-2013 23:45:00 13.1 C 8.67 g/m*3 13.1 C 17.7 km/h
817 28-10-2013 23:50:00 13.1 C 8.67 g/m*3 13.1 C 11.3 km/h
818 28-10-2013 23:55:00 13.1 C 8.67 g/m*3 13.1 C 12.9 km/h
819 29-10-2013 00:00:00 13.1 C 8.67 g/m*3 13.1 C 8.1 km/h
820 29-10-2013 00:05:00 13 C 8.62 g/m*3 13 C 6.4 km/h
821 29-10-2013 00:10:00 12.9 C 8.57 g/m*3 12.9 C 8.1 km/h
822 29-10-2013 00:15:00 12.9 C 8.57 g/m*3 12.9 C 12.9 km/h
823 29-10-2013 00:20:00 12.9 C 8.68 g/m*3 12.9 C 9.7 km/h
824 29-10-2013 00:25:00 12.8 C 8.74 g/m*3 12.8 C 9.7 km/h
825 29-10-2013 00:30:00 12.8 C 8.62 g/m*3 12.8 C 11.3 km/h
Sensor: Nr:Datum:Temp:Abs-Feuchte:Windchill:Wind:
Aussen-T/F 826 29-10-2013 00:35:00 12.8 C 8.62 g/m*3 12.8 C 8.1 km/h
827 29-10-2013 00:40:00 12.7 C 8.57 g/m*3 12.7 C 17.7 km/h
828 29-10-2013 00:45:00 12.8 C 8.62 g/m*3 12.8 C 17.7 km/h
829 29-10-2013 00:50:00 12.9 C 8.57 g/m*3 12.9 C 11.3 km/h
830 29-10-2013 00:55:00 12.9 C 8.57 g/m*3 12.9 C 6.4 km/h
831 29-10-2013 01:00:00 13 C 8.62 g/m*3 13 C 3.2 km/h
832 29-10-2013 01:05:00 12.9 C 8.57 g/m*3 12.9 C 3.2 km/h
833 29-10-2013 01:10:00 12.8 C 8.51 g/m*3 12.8 C 6.4 km/h
834 29-10-2013 01:15:00 12.8 C 8.51 g/m*3 12.8 C 12.9 km/h
835 29-10-2013 01:20:00 12.8 C 8.51 g/m*3 12.8 C 8.1 km/h
836 29-10-2013 01:25:00 12.7 C 8.46 g/m*3 12.7 C 8.1 km/h
837 29-10-2013 01:30:00 12.6 C 8.41 g/m*3 12.6 C 9.7 km/h
838 29-10-2013 01:35:00 12.6 C 8.41 g/m*3 12.6 C 8.1 km/h
839 29-10-2013 01:40:00 12.5 C 8.36 g/m*3 12.5 C 8.1 km/h
840 29-10-2013 01:45:00 12.6 C 8.41 g/m*3 12.6 C 17.7 km/h
841 29-10-2013 01:50:00 12.5 C 8.36 g/m*3 12.5 C 9.7 km/h
842 29-10-2013 01:55:00 12.5 C 8.36 g/m*3 12.5 C 14.5 km/h
843 29-10-2013 02:00:00 12.5 C 8.36 g/m*3 12.5 C 12.9 km/h
844 29-10-2013 02:05:00 12.4 C 8.3 g/m*3 12.4 C 11.3 km/h
845 29-10-2013 02:10:00 12.4 C 8.3 g/m*3 12.4 C 14.5 km/h
846 29-10-2013 02:15:00 12.3 C 8.36 g/m*3 12.3 C 6.4 km/h
847 29-10-2013 02:20:00 12.3 C 8.36 g/m*3 12.3 C 16.1 km/h
848 29-10-2013 02:25:00 12.3 C 8.36 g/m*3 12.3 C 8.1 km/h
849 29-10-2013 02:30:00 12.3 C 8.36 g/m*3 12.3 C 12.9 km/h
850 29-10-2013 02:35:00 12.3 C 8.25 g/m*3 12.3 C 12.9 km/h
Sensor: Nr:Datum:Temp:Abs-Feuchte:Windchill:Wind:
Aussen-T/F 851 29-10-2013 02:40:00 12.3 C 8.25 g/m*3 12.3 C 14.5 km/h
852 29-10-2013 02:45:00 12.3 C 8.25 g/m*3 12.3 C 11.3 km/h
853 29-10-2013 02:50:00 12.3 C 8.25 g/m*3 12.3 C 11.3 km/h
854 29-10-2013 02:55:00 12.3 C 8.36 g/m*3 12.3 C 6.4 km/h
855 29-10-2013 03:00:00 12.2 C 8.31 g/m*3 12.2 C 9.7 km/h
856 29-10-2013 03:05:00 12.2 C 8.31 g/m*3 12.2 C 16.1 km/h
857 29-10-2013 03:10:00 12.2 C 8.31 g/m*3 12.2 C 6.4 km/h
858 29-10-2013 03:15:00 12.2 C 8.31 g/m*3 12.2 C 12.9 km/h
859 29-10-2013 03:20:00 12.2 C 8.31 g/m*3 12.2 C 6.4 km/h
860 29-10-2013 03:25:00 12.2 C 8.42 g/m*3 12.2 C 11.3 km/h
861 29-10-2013 03:30:00 12.2 C 8.42 g/m*3 12.2 C 6.4 km/h
862 29-10-2013 03:35:00 12.1 C 8.47 g/m*3 12.1 C 3.2 km/h
863 29-10-2013 03:40:00 12.1 C 8.47 g/m*3 12.1 C 6.4 km/h
864 29-10-2013 03:45:00 12 C 8.42 g/m*3 12 C 6.4 km/h
865 29-10-2013 03:50:00 12 C 8.31 g/m*3 12 C 8.1 km/h
866 29-10-2013 03:55:00 12 C 8.42 g/m*3 12 C 11.3 km/h
867 29-10-2013 04:00:00 11.9 C 8.26 g/m*3 11.9 C 12.9 km/h
868 29-10-2013 04:05:00 12 C 8.31 g/m*3 12 C 14.5 km/h
869 29-10-2013 04:10:00 12 C 8.31 g/m*3 12 C 8.1 km/h
870 29-10-2013 04:15:00 12 C 8.31 g/m*3 12 C 8.1 km/h
871 29-10-2013 04:20:00 12 C 8.21 g/m*3 12 C 12.9 km/h
872 29-10-2013 04:25:00 12.1 C 8.26 g/m*3 12.1 C 19.3 km/h
873 29-10-2013 04:30:00 12.1 C 8.26 g/m*3 12.1 C 16.1 km/h
874 29-10-2013 04:35:00 12.1 C 8.26 g/m*3 12.1 C 11.3 km/h
875 29-10-2013 04:40:00 12.1 C 8.26 g/m*3 12.1 C 9.7 km/h
Sensor: Nr:Datum:Temp:Abs-Feuchte:Windchill:Wind:
Aussen-T/F 876 29-10-2013 04:45:00 12 C 8.21 g/m*3 12 C 12.9 km/h
877 29-10-2013 04:50:00 11.9 C 8.15 g/m*3 11.9 C 17.7 km/h
878 29-10-2013 04:55:00 11.9 C 8.15 g/m*3 11.9 C 8.1 km/h
879 29-10-2013 05:00:00 11.9 C 8.15 g/m*3 11.9 C 12.9 km/h
880 29-10-2013 05:05:00 11.9 C 8.05 g/m*3 11.9 C 12.9 km/h
881 29-10-2013 05:10:00 11.9 C 8.05 g/m*3 11.9 C 17.7 km/h
882 29-10-2013 05:15:00 11.8 C 8 g/m*3 11.8 C 16.1 km/h
883 29-10-2013 05:20:00 11.8 C 8 g/m*3 11.8 C 14.5 km/h
884 29-10-2013 05:25:00 11.8 C 8.1 g/m*3 11.8 C 9.7 km/h
885 29-10-2013 05:30:00 11.8 C 8.1 g/m*3 11.8 C 12.9 km/h
886 29-10-2013 05:35:00 11.8 C 8.1 g/m*3 11.8 C 11.3 km/h
887 29-10-2013 05:40:00 11.8 C 8.1 g/m*3 11.8 C 9.7 km/h
888 29-10-2013 05:45:00 11.8 C 8.21 g/m*3 11.8 C 16.1 km/h
889 29-10-2013 05:50:00 11.8 C 8.1 g/m*3 11.8 C 14.5 km/h
890 29-10-2013 05:55:00 11.7 C 8.05 g/m*3 11.7 C 14.5 km/h
891 29-10-2013 06:00:00 11.7 C 8.05 g/m*3 11.7 C 6.4 km/h
892 29-10-2013 06:05:00 11.6 C 8.11 g/m*3 11.6 C 8.1 km/h
893 29-10-2013 06:10:00 11.6 C 8.11 g/m*3 11.6 C 8.1 km/h
894 29-10-2013 06:15:00 11.6 C 8.11 g/m*3 11.6 C 6.4 km/h
895 29-10-2013 06:20:00 11.5 C 8.06 g/m*3 11.5 C 8.1 km/h
896 29-10-2013 06:25:00 11.6 C 8.11 g/m*3 11.6 C 17.7 km/h
897 29-10-2013 06:30:00 11.6 C 8.11 g/m*3 11.6 C 11.3 km/h
898 29-10-2013 06:35:00 11.5 C 8.06 g/m*3 11.5 C 9.7 km/h
899 29-10-2013 06:40:00 11.5 C 8.06 g/m*3 11.5 C 6.4 km/h
900 29-10-2013 06:45:00 11.4 C 8.11 g/m*3 11.4 C 11.3 km/h
Sensor: Nr:Datum:Temp:Abs-Feuchte:Windchill:Wind:
Aussen-T/F 901 29-10-2013 06:50:00 11.3 C 7.96 g/m*3 11.3 C 4.8 km/h
902 29-10-2013 06:55:00 11.3 C 7.96 g/m*3 11.3 C 9.7 km/h
903 29-10-2013 07:00:00 11.2 C 7.8 g/m*3 11.2 C 11.3 km/h
904 29-10-2013 07:05:00 11.2 C 7.8 g/m*3 11.2 C 11.3 km/h
905 29-10-2013 07:10:00 11.2 C 7.6 g/m*3 11.2 C 11.3 km/h
906 29-10-2013 07:15:00 11.2 C 7.7 g/m*3 11.2 C 8.1 km/h
907 29-10-2013 07:20:00 11 C 7.61 g/m*3 9.63 C 11.3 km/h
908 29-10-2013 07:25:00 10.9 C 7.66 g/m*3 10.9 C 4.8 km/h
909 29-10-2013 07:30:00 10.8 C 7.61 g/m*3 10.8 C 3.2 km/h
910 29-10-2013 07:35:00 10.8 C 7.61 g/m*3 10.8 C 4.8 km/h
911 29-10-2013 07:40:00 10.7 C 7.56 g/m*3 10.18 C 6.4 km/h
912 29-10-2013 07:45:00 10.8 C 7.51 g/m*3 8.78 C 16.1 km/h
913 29-10-2013 07:50:00 10.8 C 7.41 g/m*3 9.64 C 9.7 km/h
914 29-10-2013 07:55:00 10.9 C 7.46 g/m*3 9.28 C 12.9 km/h
915 29-10-2013 08:00:00 10.9 C 7.36 g/m*3 8.9 C 16.1 km/h
916 29-10-2013 08:05:00 10.9 C 7.36 g/m*3 9.76 C 9.7 km/h
917 29-10-2013 08:10:00 10.9 C 7.36 g/m*3 9.76 C 9.7 km/h
918 29-10-2013 08:15:00 10.9 C 7.36 g/m*3 9.51 C 11.3 km/h
919 29-10-2013 08:20:00 10.9 C 7.26 g/m*3 8.73 C 17.7 km/h
920 29-10-2013 08:25:00 11 C 7.31 g/m*3 9.02 C 16.1 km/h
921 29-10-2013 08:30:00 11 C 7.41 g/m*3 10.52 C 6.4 km/h
922 29-10-2013 08:35:00 11.1 C 7.35 g/m*3 11.1 C 12.9 km/h
923 29-10-2013 08:40:00 11.1 C 7.45 g/m*3 11.1 C 4.8 km/h
924 29-10-2013 08:45:00 11.2 C 7.5 g/m*3 11.2 C 19.3 km/h
925 29-10-2013 08:50:00 11.3 C 7.55 g/m*3 11.3 C 9.7 km/h
Sensor: Nr:Datum:Temp:Abs-Feuchte:Windchill:Wind:
Aussen-T/F 926 29-10-2013 08:55:00 11.3 C 7.55 g/m*3 11.3 C 16.1 km/h
927 29-10-2013 09:00:00 11.4 C 7.6 g/m*3 11.4 C 12.9 km/h
928 29-10-2013 09:05:00 11.5 C 7.64 g/m*3 11.5 C 8.1 km/h
929 29-10-2013 09:10:00 11.6 C 7.59 g/m*3 11.6 C 11.3 km/h
930 29-10-2013 09:15:00 11.7 C 7.53 g/m*3 11.7 C 16.1 km/h
931 29-10-2013 09:20:00 11.7 C 7.53 g/m*3 11.7 C 19.3 km/h
932 29-10-2013 09:25:00 11.7 C 7.53 g/m*3 11.7 C 17.7 km/h
933 29-10-2013 09:30:00 11.7 C 7.53 g/m*3 11.7 C 9.7 km/h
934 29-10-2013 09:35:00 11.7 C 7.53 g/m*3 11.7 C 25.7 km/h
935 29-10-2013 09:40:00 11.8 C 7.58 g/m*3 11.8 C 14.5 km/h
936 29-10-2013 09:45:00 11.8 C 7.47 g/m*3 11.8 C 8.1 km/h
937 29-10-2013 09:50:00 11.8 C 7.58 g/m*3 11.8 C 14.5 km/h
938 29-10-2013 09:55:00 11.8 C 7.58 g/m*3 11.8 C 8.1 km/h
939 29-10-2013 10:00:00 11.8 C 7.47 g/m*3 11.8 C 19.3 km/h
940 29-10-2013 10:05:00 11.8 C 7.58 g/m*3 11.8 C 20.9 km/h
941 29-10-2013 10:10:00 11.8 C 7.47 g/m*3 11.8 C 27.4 km/h
942 29-10-2013 10:15:00 11.9 C 7.63 g/m*3 11.9 C 19.3 km/h
943 29-10-2013 10:20:00 12.1 C 7.61 g/m*3 12.1 C 20.9 km/h
944 29-10-2013 10:25:00 12.1 C 7.61 g/m*3 12.1 C 19.3 km/h
945 29-10-2013 10:30:00 12 C 7.57 g/m*3 12 C 12.9 km/h
946 29-10-2013 10:35:00 11.9 C 7.63 g/m*3 11.9 C 6.4 km/h
947 29-10-2013 10:40:00 11.9 C 7.63 g/m*3 11.9 C 17.7 km/h
948 29-10-2013 10:45:00 11.9 C 7.73 g/m*3 11.9 C 14.5 km/h
949 29-10-2013 10:50:00 11.9 C 7.73 g/m*3 11.9 C 9.7 km/h
950 29-10-2013 10:55:00 11.9 C 7.73 g/m*3 11.9 C 6.4 km/h
Sensor: Nr:Datum:Temp:Abs-Feuchte:Windchill:Wind:
Aussen-T/F 951 29-10-2013 11:00:00 11.9 C 7.73 g/m*3 11.9 C 11.3 km/h
952 29-10-2013 11:05:00 12 C 7.67 g/m*3 12 C 14.5 km/h
953 29-10-2013 11:10:00 12.1 C 7.83 g/m*3 12.1 C 12.9 km/h
954 29-10-2013 11:15:00 12.1 C 7.72 g/m*3 12.1 C 12.9 km/h
955 29-10-2013 11:20:00 12.2 C 7.77 g/m*3 12.2 C 8.1 km/h
956 29-10-2013 11:25:00 12.2 C 7.77 g/m*3 12.2 C 12.9 km/h
957 29-10-2013 11:30:00 12.2 C 7.77 g/m*3 12.2 C 17.7 km/h
958 29-10-2013 11:35:00 12.2 C 7.88 g/m*3 12.2 C 16.1 km/h
959 29-10-2013 11:40:00 12.2 C 7.77 g/m*3 12.2 C 16.1 km/h
960 29-10-2013 11:45:00 12.3 C 7.82 g/m*3 12.3 C 19.3 km/h
961 29-10-2013 11:50:00 12.3 C 7.82 g/m*3 12.3 C 9.7 km/h
962 29-10-2013 11:55:00 12.3 C 7.93 g/m*3 12.3 C 17.7 km/h
963 29-10-2013 12:00:00 12.3 C 7.82 g/m*3 12.3 C 14.5 km/h
964 29-10-2013 12:05:00 12.4 C 7.98 g/m*3 12.4 C 14.5 km/h
965 29-10-2013 12:10:00 12.6 C 8.08 g/m*3 12.6 C 12.9 km/h
966 29-10-2013 12:15:00 12.7 C 8.01 g/m*3 12.7 C 14.5 km/h
967 29-10-2013 12:20:00 12.8 C 7.95 g/m*3 12.8 C 19.3 km/h
968 29-10-2013 12:25:00 13.1 C 7.99 g/m*3 13.1 C 14.5 km/h
969 29-10-2013 12:30:00 13.1 C 7.99 g/m*3 13.1 C 14.5 km/h
970 29-10-2013 12:35:00 13.1 C 7.99 g/m*3 13.1 C 16.1 km/h
971 29-10-2013 12:40:00 13.1 C 7.99 g/m*3 13.1 C 17.7 km/h
972 29-10-2013 12:45:00 13.1 C 7.99 g/m*3 13.1 C 14.5 km/h
973 29-10-2013 12:50:00 13.1 C 7.87 g/m*3 13.1 C 11.3 km/h
974 29-10-2013 12:55:00 13.2 C 7.92 g/m*3 13.2 C 11.3 km/h
975 29-10-2013 13:00:00 13.4 C 8.02 g/m*3 13.4 C 9.7 km/h
Sensor: Nr:Datum:Temp:Abs-Feuchte:Windchill:Wind:
Aussen-T/F 976 29-10-2013 13:05:00 13.5 C 7.95 g/m*3 13.5 C 17.7 km/h
977 29-10-2013 13:10:00 13.6 C 7.89 g/m*3 13.6 C 24.1 km/h
978 29-10-2013 13:15:00 13.6 C 7.77 g/m*3 13.6 C 19.3 km/h
979 29-10-2013 13:20:00 13.6 C 7.77 g/m*3 13.6 C 11.3 km/h
980 29-10-2013 13:25:00 13.6 C 7.65 g/m*3 13.6 C 14.5 km/h
981 29-10-2013 13:30:00 13.5 C 7.6 g/m*3 13.5 C 16.1 km/h
982 29-10-2013 13:35:00 13.4 C 7.67 g/m*3 13.4 C 8.1 km/h
983 29-10-2013 13:40:00 13.3 C 7.74 g/m*3 13.3 C 11.3 km/h
984 29-10-2013 13:45:00 13.2 C 7.58 g/m*3 13.2 C 8.1 km/h
985 29-10-2013 13:50:00 13 C 7.48 g/m*3 13 C 12.9 km/h
986 29-10-2013 13:55:00 13 C 7.6 g/m*3 13 C 11.3 km/h
987 29-10-2013 14:00:00 13.1 C 7.53 g/m*3 13.1 C 11.3 km/h
988 29-10-2013 14:05:00 13.1 C 7.53 g/m*3 13.1 C 11.3 km/h
989 29-10-2013 14:10:00 13.1 C 7.53 g/m*3 13.1 C 6.4 km/h
990 29-10-2013 14:15:00 13.1 C 7.65 g/m*3 13.1 C 1.6 km/h
991 29-10-2013 14:20:00 13.2 C 7.58 g/m*3 13.2 C 12.9 km/h
992 29-10-2013 14:25:00 13.2 C 7.46 g/m*3 13.2 C 8.1 km/h
993 29-10-2013 14:30:00 13.2 C 7.69 g/m*3 13.2 C 9.7 km/h
994 29-10-2013 14:35:00 13.2 C 7.69 g/m*3 13.2 C 9.7 km/h
995 29-10-2013 14:40:00 13.1 C 7.53 g/m*3 13.1 C 3.2 km/h
996 29-10-2013 14:45:00 13.1 C 7.53 g/m*3 13.1 C 12.9 km/h
997 29-10-2013 14:50:00 13.1 C 7.53 g/m*3 13.1 C 6.4 km/h
998 29-10-2013 17:00:00 11.9 C 7.31 g/m*3 11.9 C 3.2 km/h
999 29-10-2013 17:05:00 11.7 C 7.53 g/m*3 11.7 C 3.2 km/h
1000 29-10-2013 17:10:00 11.4 C 7.8 g/m*3 11.4 C 8.1 km/h
Sensor: Nr:Datum:Temp:Abs-Feuchte:Windchill:Wind:
Aussen-T/F 1001 29-10-2013 17:15:00 11.4 C 7.8 g/m*3 11.4 C 8.1 km/h
1002 29-10-2013 17:20:00 11.4 C 7.8 g/m*3 11.4 C 1.6 km/h
1003 29-10-2013 17:25:00 11 C 7.61 g/m*3 11 C 3.2 km/h
1004 29-10-2013 17:30:00 11 C 7.61 g/m*3 11 C 1.6 km/h
1005 29-10-2013 17:35:00 10.4 C 7.61 g/m*3 10.4 C 3.2 km/h
1006 29-10-2013 17:40:00 10.4 C 7.61 g/m*3 10.4 C 1.6 km/h
1007 29-10-2013 17:45:00 10.1 C 7.56 g/m*3 10.1 C 3.2 km/h
1008 29-10-2013 17:50:00 9.9 C 7.56 g/m*3 9.9 C 1.6 km/h
1009 29-10-2013 17:55:00 9.7 C 7.47 g/m*3 9.7 C 1.6 km/h
1010 29-10-2013 18:00:00 9.6 C 7.51 g/m*3 9.6 C 1.6 km/h
1011 29-10-2013 18:05:00 9.4 C 7.51 g/m*3 9.4 C 0 km/h
1012 29-10-2013 18:10:00 9.2 C 7.41 g/m*3 9.2 C 3.2 km/h
1013 29-10-2013 18:15:00 9.2 C 7.5 g/m*3 9.2 C 1.6 km/h
1014 29-10-2013 18:20:00 9.2 C 7.5 g/m*3 9.2 C 1.6 km/h
1015 29-10-2013 18:25:00 9.1 C 7.45 g/m*3 9.1 C 0 km/h
1016 29-10-2013 18:30:00 9.1 C 7.45 g/m*3 9.1 C 0 km/h
1017 29-10-2013 19:25:00 8.3 C 7.33 g/m*3 8.3 C 3.2 km/h
1018 29-10-2013 19:30:00 8.3 C 7.33 g/m*3 8.3 C 0 km/h
1019 29-10-2013 19:35:00 8.2 C 7.37 g/m*3 8.2 C 0 km/h
1020 29-10-2013 19:40:00 8.1 C 7.32 g/m*3 8.1 C 0 km/h
1021 29-10-2013 19:45:00 8.1 C 7.32 g/m*3 8.1 C 0 km/h
1022 29-10-2013 19:50:00 8 C 7.28 g/m*3 8 C 0 km/h
1023 29-10-2013 19:55:00 7.9 C 7.23 g/m*3 7.9 C 0 km/h
1024 29-10-2013 20:00:00 7.8 C 7.18 g/m*3 7.8 C 0 km/h
1025 29-10-2013 20:05:00 7.8 C 7.26 g/m*3 7.8 C 0 km/h
Sensor: Nr:Datum:Temp:Abs-Feuchte:Windchill:Wind:
Aussen-T/F 1026 29-10-2013 20:10:00 7.9 C 7.31 g/m*3 7.9 C 1.6 km/h
1027 29-10-2013 20:15:00 7.9 C 7.31 g/m*3 7.9 C 1.6 km/h
1028 29-10-2013 20:20:00 7.9 C 7.23 g/m*3 7.9 C 0 km/h
1029 29-10-2013 20:25:00 7.8 C 7.26 g/m*3 7.8 C 0 km/h
1030 29-10-2013 20:30:00 7.7 C 7.22 g/m*3 7.7 C 0 km/h
1031 29-10-2013 20:35:00 7.7 C 7.22 g/m*3 7.7 C 0 km/h
1032 29-10-2013 20:40:00 7.7 C 7.22 g/m*3 7.7 C 3.2 km/h
1033 29-10-2013 20:45:00 7.7 C 7.22 g/m*3 7.7 C 0 km/h
1034 29-10-2013 20:50:00 7.7 C 7.3 g/m*3 7.7 C 0 km/h
1035 29-10-2013 20:55:00 7.7 C 7.3 g/m*3 7.7 C 0 km/h
1036 29-10-2013 21:00:00 7.7 C 7.3 g/m*3 7.7 C 0 km/h
1037 29-10-2013 21:05:00 7.8 C 7.35 g/m*3 7.8 C 0 km/h
1038 29-10-2013 21:10:00 7.7 C 7.3 g/m*3 7.7 C 0 km/h
1039 29-10-2013 21:15:00 7.7 C 7.22 g/m*3 7.7 C 0 km/h
1040 29-10-2013 21:20:00 7.6 C 7.25 g/m*3 7.6 C 0 km/h
1041 29-10-2013 21:25:00 7.6 C 7.25 g/m*3 7.6 C 1.6 km/h
1042 29-10-2013 21:30:00 7.7 C 7.22 g/m*3 7.7 C 0 km/h
1043 29-10-2013 21:35:00 7.6 C 7.17 g/m*3 7.6 C 0 km/h
1044 29-10-2013 21:40:00 7.5 C 7.2 g/m*3 7.5 C 1.6 km/h
1045 29-10-2013 21:45:00 7.4 C 7.16 g/m*3 7.4 C 0 km/h
1046 29-10-2013 21:50:00 7.4 C 7.16 g/m*3 7.4 C 3.2 km/h
1047 29-10-2013 21:55:00 7.4 C 7.24 g/m*3 7.4 C 1.6 km/h
1048 29-10-2013 22:00:00 7.6 C 7.33 g/m*3 7.6 C 3.2 km/h
1049 29-10-2013 22:05:00 7.7 C 7.3 g/m*3 7.7 C 0 km/h
1050 29-10-2013 22:10:00 7.8 C 7.43 g/m*3 7.8 C 0 km/h
Sensor: Nr:Datum:Temp:Abs-Feuchte:Windchill:Wind:
Aussen-T/F 1051 29-10-2013 22:15:00 7.9 C 7.39 g/m*3 7.9 C 3.2 km/h
1052 29-10-2013 22:20:00 8.1 C 7.41 g/m*3 8.1 C 0 km/h
1053 29-10-2013 22:25:00 8.2 C 7.37 g/m*3 8.2 C 3.2 km/h
1054 29-10-2013 22:30:00 8.3 C 7.42 g/m*3 8.3 C 1.6 km/h
1055 29-10-2013 22:35:00 8.5 C 7.43 g/m*3 8.5 C 1.6 km/h
1056 29-10-2013 22:40:00 8.5 C 7.43 g/m*3 8.5 C 4.8 km/h
1057 29-10-2013 22:45:00 8.4 C 7.38 g/m*3 8.4 C 3.2 km/h
1058 29-10-2013 22:50:00 8.4 C 7.38 g/m*3 8.4 C 1.6 km/h
1059 29-10-2013 22:55:00 8.4 C 7.38 g/m*3 8.4 C 3.2 km/h
1060 29-10-2013 23:00:00 8.6 C 7.48 g/m*3 7.75 C 6.4 km/h
1061 29-10-2013 23:05:00 8.7 C 7.44 g/m*3 7.46 C 8.1 km/h
1062 29-10-2013 23:10:00 8.7 C 7.44 g/m*3 8.7 C 4.8 km/h
1063 29-10-2013 23:15:00 8.7 C 7.44 g/m*3 8.7 C 1.6 km/h
1064 29-10-2013 23:20:00 8.6 C 7.39 g/m*3 7.75 C 6.4 km/h
1065 29-10-2013 23:25:00 8.6 C 7.39 g/m*3 8.6 C 3.2 km/h
1066 29-10-2013 23:30:00 8.7 C 7.44 g/m*3 8.7 C 3.2 km/h
1067 29-10-2013 23:35:00 8.7 C 7.44 g/m*3 8.7 C 3.2 km/h
1068 29-10-2013 23:40:00 8.7 C 7.44 g/m*3 8.7 C 0 km/h
1069 29-10-2013 23:45:00 8.6 C 7.48 g/m*3 8.6 C 0 km/h
1070 29-10-2013 23:50:00 8.3 C 7.33 g/m*3 8.3 C 0 km/h
1071 29-10-2013 23:55:00 8.2 C 7.37 g/m*3 8.2 C 0 km/h
1072 30-10-2013 00:00:00 8.1 C 7.41 g/m*3 8.1 C 0 km/h
1073 30-10-2013 00:05:00 7.9 C 7.31 g/m*3 7.9 C 3.2 km/h
1074 30-10-2013 00:10:00 7.8 C 7.35 g/m*3 7.8 C 0 km/h
1075 30-10-2013 00:15:00 7.8 C 7.35 g/m*3 7.8 C 0 km/h
Sensor: Nr:Datum:Temp:Abs-Feuchte:Windchill:Wind:
Aussen-T/F 1076 30-10-2013 00:20:00 7.7 C 7.3 g/m*3 7.7 C 3.2 km/h
1077 30-10-2013 00:25:00 7.8 C 7.35 g/m*3 7.8 C 0 km/h
1078 30-10-2013 00:30:00 7.8 C 7.35 g/m*3 7.8 C 1.6 km/h
1079 30-10-2013 00:35:00 7.9 C 7.39 g/m*3 7.9 C 1.6 km/h
1080 30-10-2013 00:40:00 7.9 C 7.31 g/m*3 7.9 C 1.6 km/h
1081 30-10-2013 00:45:00 7.9 C 7.31 g/m*3 7.9 C 0 km/h
1082 30-10-2013 00:50:00 7.9 C 7.31 g/m*3 7.9 C 1.6 km/h
1083 30-10-2013 00:55:00 7.9 C 7.31 g/m*3 7.9 C 0 km/h
1084 30-10-2013 01:00:00 7.9 C 7.31 g/m*3 7.9 C 1.6 km/h
1085 30-10-2013 01:05:00 7.9 C 7.31 g/m*3 7.9 C 1.6 km/h
1086 30-10-2013 01:10:00 7.9 C 7.31 g/m*3 7.9 C 1.6 km/h
1087 30-10-2013 01:15:00 7.8 C 7.26 g/m*3 7.8 C 3.2 km/h
1088 30-10-2013 01:20:00 7.9 C 7.31 g/m*3 7.9 C 1.6 km/h
1089 30-10-2013 01:25:00 7.9 C 7.31 g/m*3 7.9 C 0 km/h
1090 30-10-2013 01:30:00 7.9 C 7.31 g/m*3 7.9 C 3.2 km/h
1091 30-10-2013 01:35:00 7.8 C 7.18 g/m*3 7.8 C 1.6 km/h
1092 30-10-2013 01:40:00 7.7 C 7.22 g/m*3 7.7 C 3.2 km/h
1093 30-10-2013 01:45:00 7.6 C 7.25 g/m*3 7.6 C 1.6 km/h
1094 30-10-2013 01:50:00 7.5 C 7.2 g/m*3 7.5 C 1.6 km/h
1095 30-10-2013 01:55:00 7.4 C 7.16 g/m*3 7.4 C 0 km/h
1096 30-10-2013 02:00:00 7.3 C 7.19 g/m*3 7.3 C 1.6 km/h
1097 30-10-2013 02:05:00 7.4 C 7.24 g/m*3 7.4 C 4.8 km/h
1098 30-10-2013 02:10:00 7.4 C 7.24 g/m*3 7.4 C 4.8 km/h
1099 30-10-2013 02:15:00 7.5 C 7.28 g/m*3 7.5 C 3.2 km/h
1100 30-10-2013 02:20:00 7.5 C 7.2 g/m*3 7.5 C 1.6 km/h
Sensor: Nr:Datum:Temp:Abs-Feuchte:Windchill:Wind:
Aussen-T/F 1101 30-10-2013 02:25:00 7.4 C 7.24 g/m*3 7.4 C 1.6 km/h
1102 30-10-2013 02:30:00 7.4 C 7.24 g/m*3 7.4 C 0 km/h
1103 30-10-2013 02:35:00 7.3 C 7.19 g/m*3 7.3 C 0 km/h
1104 30-10-2013 02:40:00 7.2 C 7.14 g/m*3 7.2 C 0 km/h
1105 30-10-2013 02:45:00 7.1 C 7.1 g/m*3 7.1 C 1.6 km/h
1106 30-10-2013 02:50:00 7.1 C 7.18 g/m*3 6.02 C 6.4 km/h
1107 30-10-2013 02:55:00 7.1 C 7.18 g/m*3 6.02 C 6.4 km/h
1108 30-10-2013 03:00:00 7.2 C 7.22 g/m*3 7.2 C 3.2 km/h
1109 30-10-2013 03:05:00 7.3 C 7.19 g/m*3 7.3 C 4.8 km/h
1110 30-10-2013 03:10:00 7.4 C 7.24 g/m*3 5.93 C 8.1 km/h
1111 30-10-2013 03:15:00 7.6 C 7.25 g/m*3 7.6 C 4.8 km/h
1112 30-10-2013 03:20:00 7.7 C 7.22 g/m*3 7.7 C 4.8 km/h
1113 30-10-2013 03:25:00 7.8 C 7.18 g/m*3 7.8 C 4.8 km/h
1114 30-10-2013 03:30:00 7.8 C 7.18 g/m*3 6.4 C 8.1 km/h
1115 30-10-2013 03:35:00 7.8 C 7.18 g/m*3 6.4 C 8.1 km/h
1116 30-10-2013 03:40:00 7.8 C 7.18 g/m*3 6.06 C 9.7 km/h
1117 30-10-2013 03:45:00 7.9 C 7.15 g/m*3 7.9 C 3.2 km/h
1118 30-10-2013 03:50:00 7.9 C 7.15 g/m*3 7.9 C 4.8 km/h
1119 30-10-2013 03:55:00 7.8 C 7.1 g/m*3 7.8 C 3.2 km/h
1120 30-10-2013 04:00:00 7.8 C 7.1 g/m*3 7.8 C 3.2 km/h
1121 30-10-2013 04:05:00 7.7 C 7.14 g/m*3 7.7 C 4.8 km/h
1122 30-10-2013 04:10:00 7.6 C 7.09 g/m*3 7.6 C 3.2 km/h
1123 30-10-2013 04:15:00 7.4 C 7.08 g/m*3 7.4 C 3.2 km/h
1124 30-10-2013 04:20:00 7.4 C 7.08 g/m*3 7.4 C 4.8 km/h
1125 30-10-2013 04:25:00 7.5 C 7.12 g/m*3 7.5 C 3.2 km/h
Sensor: Nr:Datum:Temp:Abs-Feuchte:Windchill:Wind:
Aussen-T/F 1126 30-10-2013 04:30:00 7.6 C 7.09 g/m*3 6.6 C 6.4 km/h
1127 30-10-2013 04:35:00 7.6 C 7.09 g/m*3 7.6 C 4.8 km/h
1128 30-10-2013 04:40:00 7.5 C 7.04 g/m*3 7.5 C 4.8 km/h
1129 30-10-2013 04:45:00 7.4 C 7 g/m*3 6.37 C 6.4 km/h
1130 30-10-2013 04:50:00 7.4 C 7.08 g/m*3 7.4 C 3.2 km/h
1131 30-10-2013 04:55:00 7.3 C 7.03 g/m*3 7.3 C 4.8 km/h
1132 30-10-2013 05:00:00 7.3 C 7.03 g/m*3 7.3 C 4.8 km/h
1133 30-10-2013 05:05:00 7.2 C 6.99 g/m*3 7.2 C 4.8 km/h
1134 30-10-2013 05:10:00 7.3 C 7.03 g/m*3 5.16 C 11.3 km/h
1135 30-10-2013 05:15:00 7.3 C 7.03 g/m*3 6.25 C 6.4 km/h
1136 30-10-2013 05:20:00 7.4 C 7 g/m*3 6.37 C 6.4 km/h
1137 30-10-2013 05:25:00 7.4 C 7 g/m*3 7.4 C 3.2 km/h
1138 30-10-2013 05:30:00 7.6 C 7.09 g/m*3 6.6 C 6.4 km/h
1139 30-10-2013 05:35:00 7.6 C 7.01 g/m*3 7.6 C 3.2 km/h
1140 30-10-2013 05:40:00 7.5 C 7.04 g/m*3 7.5 C 3.2 km/h
1141 30-10-2013 05:45:00 7.4 C 7 g/m*3 7.4 C 3.2 km/h
1142 30-10-2013 05:50:00 7.3 C 6.95 g/m*3 7.3 C 3.2 km/h
1143 30-10-2013 05:55:00 7.2 C 6.91 g/m*3 7.2 C 3.2 km/h
1144 30-10-2013 06:00:00 7.1 C 6.94 g/m*3 7.1 C 4.8 km/h
1145 30-10-2013 06:05:00 7.1 C 6.94 g/m*3 7.1 C 4.8 km/h
1146 30-10-2013 06:10:00 6.9 C 6.85 g/m*3 6.9 C 4.8 km/h
1147 30-10-2013 06:15:00 6.8 C 6.88 g/m*3 6.8 C 4.8 km/h
1148 30-10-2013 06:20:00 6.7 C 6.84 g/m*3 6.7 C 3.2 km/h
1149 30-10-2013 06:25:00 6.7 C 6.91 g/m*3 6.7 C 4.8 km/h
1150 30-10-2013 06:30:00 6.8 C 6.96 g/m*3 6.8 C 4.8 km/h
Sensor: Nr:Datum:Temp:Abs-Feuchte:Windchill:Wind:
Aussen-T/F 1151 30-10-2013 06:35:00 6.8 C 6.88 g/m*3 6.8 C 3.2 km/h
1152 30-10-2013 06:40:00 6.8 C 6.88 g/m*3 6.8 C 3.2 km/h
1153 30-10-2013 06:45:00 6.8 C 6.88 g/m*3 6.8 C 3.2 km/h
1154 30-10-2013 06:50:00 6.7 C 6.84 g/m*3 6.7 C 3.2 km/h
1155 30-10-2013 06:55:00 6.7 C 6.91 g/m*3 6.7 C 3.2 km/h
1156 30-10-2013 07:00:00 6.7 C 6.91 g/m*3 6.7 C 3.2 km/h
1157 30-10-2013 07:05:00 6.7 C 6.91 g/m*3 5.11 C 8.1 km/h
1158 30-10-2013 07:10:00 6.8 C 6.88 g/m*3 5.22 C 8.1 km/h
1159 30-10-2013 07:15:00 6.8 C 6.88 g/m*3 4.56 C 11.3 km/h
1160 30-10-2013 07:20:00 6.8 C 6.88 g/m*3 5.22 C 8.1 km/h
1161 30-10-2013 07:25:00 6.7 C 6.84 g/m*3 6.7 C 4.8 km/h
1162 30-10-2013 07:30:00 6.8 C 6.88 g/m*3 5.22 C 8.1 km/h
1163 30-10-2013 07:35:00 6.8 C 6.88 g/m*3 4.29 C 12.9 km/h
1164 30-10-2013 07:40:00 6.8 C 6.88 g/m*3 4.29 C 12.9 km/h
1165 30-10-2013 07:45:00 6.8 C 6.88 g/m*3 5.67 C 6.4 km/h
1166 30-10-2013 07:50:00 6.8 C 6.88 g/m*3 6.8 C 4.8 km/h
1167 30-10-2013 07:55:00 6.8 C 6.88 g/m*3 5.67 C 6.4 km/h
1168 30-10-2013 08:00:00 6.8 C 6.88 g/m*3 5.22 C 8.1 km/h
1169 30-10-2013 08:05:00 6.9 C 6.93 g/m*3 5.34 C 8.1 km/h
1170 30-10-2013 08:10:00 6.9 C 6.93 g/m*3 6.9 C 4.8 km/h
1171 30-10-2013 08:15:00 6.9 C 6.85 g/m*3 5.34 C 8.1 km/h
1172 30-10-2013 08:20:00 6.9 C 6.85 g/m*3 4.99 C 9.7 km/h
1173 30-10-2013 08:25:00 7 C 6.9 g/m*3 3.86 C 17.7 km/h
1174 30-10-2013 08:30:00 7.1 C 6.86 g/m*3 5.23 C 9.7 km/h
1175 30-10-2013 08:35:00 7.1 C 6.86 g/m*3 7.1 C 3.2 km/h
Sensor: Nr:Datum:Temp:Abs-Feuchte:Windchill:Wind:
Aussen-T/F 1176 30-10-2013 08:40:00 7.1 C 6.94 g/m*3 7.1 C 3.2 km/h
1177 30-10-2013 08:45:00 7.1 C 6.94 g/m*3 5.23 C 9.7 km/h
1178 30-10-2013 08:50:00 7.2 C 6.91 g/m*3 7.2 C 3.2 km/h
1179 30-10-2013 08:55:00 7.1 C 6.94 g/m*3 6.02 C 6.4 km/h
1180 30-10-2013 09:00:00 7.2 C 6.91 g/m*3 5.04 C 11.3 km/h
1181 30-10-2013 09:05:00 7.2 C 6.99 g/m*3 7.2 C 3.2 km/h
1182 30-10-2013 09:10:00 7.2 C 6.99 g/m*3 7.2 C 3.2 km/h
1183 30-10-2013 09:15:00 7.3 C 6.95 g/m*3 7.3 C 4.8 km/h
1184 30-10-2013 09:20:00 7.3 C 6.95 g/m*3 6.25 C 6.4 km/h
1185 30-10-2013 09:25:00 7.4 C 7 g/m*3 7.4 C 4.8 km/h
1186 30-10-2013 09:30:00 7.4 C 7 g/m*3 7.4 C 3.2 km/h
1187 30-10-2013 09:35:00 7.4 C 7 g/m*3 7.4 C 1.6 km/h
1188 30-10-2013 09:40:00 7.4 C 7 g/m*3 6.37 C 6.4 km/h
1189 30-10-2013 09:45:00 7.3 C 7.03 g/m*3 7.3 C 0 km/h
1190 30-10-2013 09:50:00 7.3 C 7.03 g/m*3 7.3 C 0 km/h
1191 30-10-2013 09:55:00 7.3 C 7.03 g/m*3 7.3 C 0 km/h
1192 30-10-2013 10:00:00 7.5 C 7.04 g/m*3 7.5 C 3.2 km/h
1193 30-10-2013 10:05:00 7.7 C 7.14 g/m*3 7.7 C 4.8 km/h
1194 30-10-2013 10:10:00 7.8 C 7.1 g/m*3 6.06 C 9.7 km/h
1195 30-10-2013 10:15:00 8.1 C 7.16 g/m*3 8.1 C 4.8 km/h
1196 30-10-2013 10:20:00 8.1 C 7.16 g/m*3 7.17 C 6.4 km/h
1197 30-10-2013 10:25:00 8.1 C 7.16 g/m*3 6.75 C 8.1 km/h
1198 30-10-2013 10:30:00 8.2 C 7.12 g/m*3 8.2 C 3.2 km/h
1199 30-10-2013 10:35:00 8.2 C 7.2 g/m*3 8.2 C 3.2 km/h
1200 30-10-2013 10:40:00 8.2 C 7.12 g/m*3 8.2 C 3.2 km/h
Sensor: Nr:Datum:Temp:Abs-Feuchte:Windchill:Wind:
Aussen-T/F 1201 30-10-2013 10:45:00 8.2 C 7.2 g/m*3 7.29 C 6.4 km/h
1202 30-10-2013 10:50:00 8.2 C 7.2 g/m*3 8.2 C 0 km/h
1203 30-10-2013 10:55:00 8.2 C 7.2 g/m*3 8.2 C 3.2 km/h
1204 30-10-2013 11:00:00 8.2 C 7.12 g/m*3 7.29 C 6.4 km/h
1205 30-10-2013 11:05:00 8.4 C 7.13 g/m*3 7.52 C 6.4 km/h
1206 30-10-2013 11:10:00 8.5 C 7.17 g/m*3 8.5 C 3.2 km/h
1207 30-10-2013 11:15:00 8.6 C 7.13 g/m*3 8.6 C 3.2 km/h
1208 30-10-2013 11:20:00 8.7 C 7.18 g/m*3 6.85 C 11.3 km/h
1209 30-10-2013 11:25:00 8.9 C 7.1 g/m*3 6.85 C 12.9 km/h
1210 30-10-2013 11:30:00 9.2 C 7.14 g/m*3 7.46 C 11.3 km/h
1211 30-10-2013 11:35:00 9.3 C 7.19 g/m*3 7.58 C 11.3 km/h
1212 30-10-2013 11:40:00 9.4 C 7.24 g/m*3 7.24 C 14.5 km/h
1213 30-10-2013 11:45:00 9.6 C 7.24 g/m*3 7.7 C 12.9 km/h
1214 30-10-2013 11:50:00 9.6 C 7.33 g/m*3 8.21 C 9.7 km/h
1215 30-10-2013 11:55:00 9.6 C 7.24 g/m*3 7.48 C 14.5 km/h
1216 30-10-2013 12:00:00 9.6 C 7.33 g/m*3 7.94 C 11.3 km/h
1217 30-10-2013 12:05:00 9.7 C 7.19 g/m*3 7.82 C 12.9 km/h
1218 30-10-2013 12:10:00 9.8 C 7.24 g/m*3 7.73 C 14.5 km/h
1219 30-10-2013 12:15:00 9.9 C 7.19 g/m*3 8.3 C 11.3 km/h
1220 30-10-2013 12:20:00 9.9 C 7.19 g/m*3 8.06 C 12.9 km/h
1221 30-10-2013 12:25:00 9.9 C 7.28 g/m*3 8.3 C 11.3 km/h
1222 30-10-2013 12:30:00 10 C 7.14 g/m*3 8.68 C 9.7 km/h
1223 30-10-2013 12:35:00 10.1 C 7.19 g/m*3 8.1 C 14.5 km/h
1224 30-10-2013 12:40:00 10.2 C 7.14 g/m*3 8.43 C 12.9 km/h
1225 30-10-2013 12:45:00 10.3 C 7.18 g/m*3 8.78 C 11.3 km/h
Sensor: Nr:Datum:Temp:Abs-Feuchte:Windchill:Wind:
Aussen-T/F 1226 30-10-2013 12:50:00 10.4 C 7.32 g/m*3 8.9 C 11.3 km/h
1227 30-10-2013 12:55:00 10.4 C 7.23 g/m*3 8.47 C 14.5 km/h
1228 30-10-2013 13:00:00 10.4 C 7.23 g/m*3 8.67 C 12.9 km/h
1229 30-10-2013 13:05:00 10.5 C 7.27 g/m*3 9.02 C 11.3 km/h
1230 30-10-2013 13:10:00 10.6 C 7.32 g/m*3 9.69 C 8.1 km/h
1231 30-10-2013 13:15:00 10.6 C 7.22 g/m*3 9.14 C 11.3 km/h
1232 30-10-2013 13:20:00 10.6 C 7.32 g/m*3 10.6 C 4.8 km/h
1233 30-10-2013 13:25:00 10.7 C 7.17 g/m*3 9.04 C 12.9 km/h
1234 30-10-2013 13:30:00 10.8 C 7.22 g/m*3 8.96 C 14.5 km/h
1235 30-10-2013 13:35:00 10.8 C 7.22 g/m*3 9.93 C 8.1 km/h
1236 30-10-2013 13:40:00 10.8 C 7.22 g/m*3 10.29 C 6.4 km/h
1237 30-10-2013 13:45:00 10.8 C 7.22 g/m*3 10.8 C 4.8 km/h
1238 30-10-2013 13:50:00 10.8 C 7.22 g/m*3 10.8 C 3.2 km/h
1239 30-10-2013 13:55:00 10.9 C 7.16 g/m*3 10.04 C 8.1 km/h
1240 30-10-2013 14:00:00 10.9 C 7.26 g/m*3 9.51 C 11.3 km/h
1241 30-10-2013 14:05:00 11.1 C 7.35 g/m*3 11.1 C 11.3 km/h
1242 30-10-2013 14:10:00 11.2 C 7.3 g/m*3 11.2 C 11.3 km/h
1243 30-10-2013 14:15:00 11.2 C 7.4 g/m*3 11.2 C 8.1 km/h
1244 30-10-2013 14:20:00 11.2 C 7.2 g/m*3 11.2 C 11.3 km/h
1245 30-10-2013 14:25:00 11.3 C 7.34 g/m*3 11.3 C 6.4 km/h
1246 30-10-2013 14:30:00 11.3 C 7.55 g/m*3 11.3 C 6.4 km/h
1247 30-10-2013 14:35:00 11.2 C 7.4 g/m*3 11.2 C 3.2 km/h
1248 30-10-2013 14:40:00 11.1 C 7.45 g/m*3 11.1 C 9.7 km/h
1249 30-10-2013 14:45:00 11.1 C 7.35 g/m*3 11.1 C 11.3 km/h
1250 30-10-2013 14:50:00 11.1 C 7.25 g/m*3 11.1 C 8.1 km/h
Sensor: Nr:Datum:Temp:Abs-Feuchte:Windchill:Wind:
Aussen-T/F 1251 30-10-2013 14:55:00 11.1 C 7.45 g/m*3 11.1 C 4.8 km/h
1252 30-10-2013 15:00:00 11.1 C 7.25 g/m*3 11.1 C 8.1 km/h
1253 30-10-2013 15:05:00 11 C 7.61 g/m*3 11 C 3.2 km/h
1254 30-10-2013 15:10:00 10.9 C 7.46 g/m*3 10.9 C 1.6 km/h
1255 30-10-2013 15:15:00 10.8 C 7.61 g/m*3 10.8 C 4.8 km/h
1256 30-10-2013 15:20:00 10.7 C 7.56 g/m*3 10.7 C 1.6 km/h
1257 30-10-2013 15:25:00 10.6 C 7.32 g/m*3 9.4 C 9.7 km/h
1258 30-10-2013 15:30:00 10.5 C 7.37 g/m*3 10.5 C 4.8 km/h
1259 30-10-2013 15:35:00 10.4 C 7.42 g/m*3 10.4 C 3.2 km/h
1260 30-10-2013 15:40:00 10.3 C 7.57 g/m*3 10.3 C 1.6 km/h
1261 30-10-2013 15:45:00 10.1 C 7.56 g/m*3 10.1 C 1.6 km/h
1262 30-10-2013 15:50:00 10.1 C 7.47 g/m*3 10.1 C 1.6 km/h
1263 30-10-2013 15:55:00 10.1 C 7.38 g/m*3 10.1 C 1.6 km/h
1264 30-10-2013 16:00:00 10.1 C 7.56 g/m*3 10.1 C 3.2 km/h
1265 30-10-2013 16:05:00 9.8 C 7.52 g/m*3 9.8 C 1.6 km/h
1266 30-10-2013 16:10:00 9.8 C 7.61 g/m*3 9.8 C 1.6 km/h
1267 30-10-2013 16:15:00 9.6 C 7.6 g/m*3 9.6 C 1.6 km/h
1268 30-10-2013 16:20:00 9.4 C 7.51 g/m*3 9.4 C 1.6 km/h
1269 30-10-2013 16:25:00 9.4 C 7.51 g/m*3 9.4 C 1.6 km/h
1270 30-10-2013 16:30:00 9.2 C 7.41 g/m*3 9.2 C 3.2 km/h
1271 30-10-2013 16:35:00 9 C 7.41 g/m*3 9 C 3.2 km/h
1272 30-10-2013 16:40:00 9 C 7.32 g/m*3 9 C 0 km/h
1273 30-10-2013 16:45:00 8.9 C 7.36 g/m*3 8.9 C 1.6 km/h
1274 30-10-2013 16:50:00 8.8 C 7.4 g/m*3 8.8 C 3.2 km/h
1275 30-10-2013 16:55:00 8.8 C 7.4 g/m*3 8.8 C 1.6 km/h
Sensor: Nr:Datum:Temp:Abs-Feuchte:Windchill:Wind:
Aussen-T/F 1276 30-10-2013 17:00:00 8.8 C 7.4 g/m*3 8.8 C 3.2 km/h
1277 30-10-2013 17:05:00 8.4 C 7.3 g/m*3 8.4 C 1.6 km/h
1278 30-10-2013 17:10:00 8.3 C 7.25 g/m*3 8.3 C 1.6 km/h
1279 30-10-2013 17:15:00 8.2 C 7.12 g/m*3 8.2 C 3.2 km/h
1280 30-10-2013 17:20:00 8.3 C 7.16 g/m*3 8.3 C 3.2 km/h
1281 30-10-2013 17:25:00 8.3 C 7.25 g/m*3 8.3 C 3.2 km/h
1282 30-10-2013 17:30:00 8.2 C 7.2 g/m*3 8.2 C 1.6 km/h
1283 30-10-2013 17:35:00 8.1 C 7.16 g/m*3 8.1 C 3.2 km/h
1284 30-10-2013 17:40:00 8 C 7.19 g/m*3 8 C 3.2 km/h
1285 30-10-2013 17:45:00 7.8 C 7.1 g/m*3 7.8 C 3.2 km/h
1286 30-10-2013 17:50:00 7.8 C 7.18 g/m*3 7.8 C 3.2 km/h
1287 30-10-2013 17:55:00 7.7 C 7.14 g/m*3 7.7 C 3.2 km/h
1288 30-10-2013 18:00:00 7.7 C 7.14 g/m*3 7.7 C 1.6 km/h
1289 30-10-2013 18:05:00 7.7 C 7.14 g/m*3 7.7 C 3.2 km/h
1290 30-10-2013 18:10:00 7.7 C 7.14 g/m*3 7.7 C 3.2 km/h
1291 30-10-2013 18:15:00 7.6 C 7.09 g/m*3 7.6 C 3.2 km/h
1292 30-10-2013 18:20:00 7.6 C 7.09 g/m*3 7.6 C 1.6 km/h
1293 30-10-2013 18:25:00 7.7 C 7.14 g/m*3 7.7 C 3.2 km/h
1294 30-10-2013 18:30:00 7.7 C 7.05 g/m*3 7.7 C 3.2 km/h
1295 30-10-2013 18:35:00 7.8 C 7.1 g/m*3 7.8 C 3.2 km/h
1296 30-10-2013 18:40:00 7.7 C 7.05 g/m*3 7.7 C 3.2 km/h
1297 30-10-2013 18:45:00 7.7 C 7.14 g/m*3 7.7 C 3.2 km/h
1298 30-10-2013 18:50:00 7.5 C 7.04 g/m*3 7.5 C 1.6 km/h
1299 30-10-2013 18:55:00 7.3 C 7.03 g/m*3 7.3 C 1.6 km/h
1300 30-10-2013 19:00:00 7.2 C 7.06 g/m*3 7.2 C 3.2 km/h
Sensor: Nr:Datum:Temp:Abs-Feuchte:Windchill:Wind:
Aussen-T/F 1301 30-10-2013 19:05:00 7.1 C 7.02 g/m*3 7.1 C 1.6 km/h
1302 30-10-2013 19:10:00 7.1 C 7.02 g/m*3 7.1 C 3.2 km/h
1303 30-10-2013 19:15:00 7.1 C 7.02 g/m*3 7.1 C 1.6 km/h
1304 30-10-2013 19:20:00 6.9 C 6.93 g/m*3 6.9 C 1.6 km/h
1305 30-10-2013 19:25:00 6.8 C 6.96 g/m*3 6.8 C 3.2 km/h
1306 30-10-2013 19:30:00 6.8 C 6.96 g/m*3 6.8 C 0 km/h
1307 30-10-2013 19:35:00 6.8 C 6.96 g/m*3 6.8 C 1.6 km/h
1308 30-10-2013 19:40:00 6.8 C 6.96 g/m*3 6.8 C 1.6 km/h
1309 30-10-2013 19:45:00 6.8 C 6.96 g/m*3 6.8 C 1.6 km/h
1310 30-10-2013 19:50:00 6.8 C 6.96 g/m*3 6.8 C 0 km/h
1311 30-10-2013 19:55:00 6.8 C 6.96 g/m*3 6.8 C 0 km/h
1312 30-10-2013 20:00:00 6.7 C 6.91 g/m*3 6.7 C 0 km/h
1313 30-10-2013 20:05:00 6.7 C 6.91 g/m*3 6.7 C 0 km/h
1314 30-10-2013 20:10:00 6.7 C 6.99 g/m*3 6.7 C 4.8 km/h
1315 30-10-2013 20:15:00 6.9 C 7.01 g/m*3 6.9 C 1.6 km/h
1316 30-10-2013 20:20:00 7.1 C 7.02 g/m*3 7.1 C 0 km/h
1317 30-10-2013 20:25:00 7.1 C 7.02 g/m*3 7.1 C 0 km/h
1318 30-10-2013 20:30:00 6.9 C 6.93 g/m*3 6.9 C 1.6 km/h
1319 30-10-2013 20:35:00 6.8 C 6.88 g/m*3 6.8 C 1.6 km/h
1320 30-10-2013 20:40:00 6.7 C 6.91 g/m*3 6.7 C 0 km/h
1321 30-10-2013 20:45:00 6.6 C 6.87 g/m*3 6.6 C 3.2 km/h
1322 30-10-2013 20:50:00 6.5 C 6.82 g/m*3 6.5 C 0 km/h
1323 30-10-2013 20:55:00 6.4 C 6.78 g/m*3 6.4 C 0 km/h
1324 30-10-2013 21:00:00 6.4 C 6.78 g/m*3 6.4 C 0 km/h
1325 30-10-2013 21:05:00 6.2 C 6.77 g/m*3 6.2 C 0 km/h
Sensor: Nr:Datum:Temp:Abs-Feuchte:Windchill:Wind:
Aussen-T/F 1326 30-10-2013 21:10:00 6.1 C 6.72 g/m*3 6.1 C 0 km/h
1327 30-10-2013 21:15:00 5.9 C 6.63 g/m*3 5.9 C 0 km/h
1328 30-10-2013 21:20:00 5.9 C 6.71 g/m*3 5.9 C 0 km/h
1329 30-10-2013 21:25:00 5.9 C 6.71 g/m*3 5.9 C 0 km/h
1330 30-10-2013 21:30:00 5.6 C 6.57 g/m*3 5.6 C 0 km/h
1331 30-10-2013 21:35:00 5.6 C 6.57 g/m*3 5.6 C 0 km/h
1332 30-10-2013 21:40:00 5.4 C 6.56 g/m*3 5.4 C 0 km/h
1333 30-10-2013 21:45:00 5.4 C 6.56 g/m*3 5.4 C 0 km/h
1334 30-10-2013 21:50:00 5.4 C 6.56 g/m*3 5.4 C 0 km/h
1335 30-10-2013 21:55:00 5.4 C 6.56 g/m*3 5.4 C 0 km/h
1336 30-10-2013 22:15:00 5.1 C 6.5 g/m*3 5.1 C 0 km/h
1337 30-10-2013 22:20:00 5.1 C 6.5 g/m*3 5.1 C 0 km/h
1338 30-10-2013 22:25:00 5 C 6.46 g/m*3 5 C 0 km/h
1339 30-10-2013 22:30:00 5 C 6.46 g/m*3 5 C 1.6 km/h
1340 30-10-2013 22:35:00 4.9 C 6.41 g/m*3 4.9 C 0 km/h
1341 30-10-2013 22:40:00 4.9 C 6.41 g/m*3 4.9 C 0 km/h
1342 30-10-2013 22:45:00 4.9 C 6.41 g/m*3 4.9 C 0 km/h
1343 30-10-2013 22:50:00 4.8 C 6.37 g/m*3 4.8 C 0 km/h
1344 30-10-2013 22:55:00 4.8 C 6.37 g/m*3 4.8 C 0 km/h
1345 30-10-2013 23:00:00 4.7 C 6.33 g/m*3 4.7 C 0 km/h
1346 30-10-2013 23:05:00 4.6 C 6.29 g/m*3 4.6 C 0 km/h
1347 30-10-2013 23:10:00 4.6 C 6.29 g/m*3 4.6 C 0 km/h
1348 30-10-2013 23:15:00 4.6 C 6.29 g/m*3 4.6 C 0 km/h
1349 30-10-2013 23:20:00 4.6 C 6.29 g/m*3 4.6 C 0 km/h
1350 30-10-2013 23:25:00 4.6 C 6.29 g/m*3 4.6 C 0 km/h
Sensor: Nr:Datum:Temp:Abs-Feuchte:Windchill:Wind:
Aussen-T/F 1351 30-10-2013 23:30:00 4.5 C 6.31 g/m*3 4.5 C 0 km/h
1352 30-10-2013 23:35:00 4.5 C 6.31 g/m*3 4.5 C 0 km/h
1353 30-10-2013 23:40:00 4.6 C 6.35 g/m*3 4.6 C 0 km/h
1354 30-10-2013 23:45:00 4.5 C 6.31 g/m*3 4.5 C 0 km/h
1355 30-10-2013 23:50:00 4.4 C 6.2 g/m*3 4.4 C 0 km/h
1356 30-10-2013 23:55:00 4.4 C 6.2 g/m*3 4.4 C 0 km/h
1357 31-10-2013 00:00:00 4.4 C 6.27 g/m*3 4.4 C 0 km/h
1358 31-10-2013 00:05:00 4.3 C 6.23 g/m*3 4.3 C 0 km/h
1359 31-10-2013 00:10:00 4.3 C 6.23 g/m*3 4.3 C 0 km/h
1360 31-10-2013 00:15:00 4.4 C 6.27 g/m*3 4.4 C 0 km/h
1361 31-10-2013 00:20:00 4.4 C 6.27 g/m*3 4.4 C 0 km/h
1362 31-10-2013 00:25:00 4.3 C 6.23 g/m*3 4.3 C 0 km/h
1363 31-10-2013 00:30:00 4.3 C 6.23 g/m*3 4.3 C 0 km/h
1364 31-10-2013 00:35:00 4.2 C 6.19 g/m*3 4.2 C 0 km/h
1365 31-10-2013 00:40:00 4.1 C 6.14 g/m*3 4.1 C 0 km/h
1366 31-10-2013 00:45:00 4 C 6.1 g/m*3 4 C 0 km/h
1367 31-10-2013 00:50:00 4 C 6.1 g/m*3 4 C 0 km/h
1368 31-10-2013 00:55:00 4.1 C 6.14 g/m*3 4.1 C 0 km/h
1369 31-10-2013 01:00:00 4 C 6.1 g/m*3 4 C 0 km/h
1370 31-10-2013 01:05:00 3.9 C 6.06 g/m*3 3.9 C 0 km/h
1371 31-10-2013 01:10:00 3.8 C 6.02 g/m*3 3.8 C 0 km/h
1372 31-10-2013 01:15:00 3.8 C 6.02 g/m*3 3.8 C 0 km/h
1373 31-10-2013 01:20:00 3.8 C 6.02 g/m*3 3.8 C 0 km/h
1374 31-10-2013 01:25:00 3.7 C 5.98 g/m*3 3.7 C 0 km/h
1375 31-10-2013 01:30:00 3.7 C 5.98 g/m*3 3.7 C 0 km/h
Sensor: Nr:Datum:Temp:Abs-Feuchte:Windchill:Wind:
Aussen-T/F 1376 31-10-2013 01:35:00 3.7 C 5.98 g/m*3 3.7 C 0 km/h
1377 31-10-2013 01:40:00 3.6 C 5.94 g/m*3 3.6 C 0 km/h
1378 31-10-2013 01:45:00 3.6 C 5.94 g/m*3 3.6 C 0 km/h
1379 31-10-2013 01:50:00 3.5 C 5.9 g/m*3 3.5 C 0 km/h
1380 31-10-2013 01:55:00 3.5 C 5.9 g/m*3 3.5 C 0 km/h
1381 31-10-2013 02:00:00 3.5 C 5.9 g/m*3 3.5 C 1.6 km/h
1382 31-10-2013 02:05:00 3.6 C 5.94 g/m*3 3.6 C 0 km/h
1383 31-10-2013 02:10:00 3.6 C 5.94 g/m*3 3.6 C 0 km/h
1384 31-10-2013 02:15:00 3.5 C 5.9 g/m*3 3.5 C 0 km/h
1385 31-10-2013 02:20:00 3.4 C 5.86 g/m*3 3.4 C 0 km/h
1386 31-10-2013 02:25:00 3.3 C 5.82 g/m*3 3.3 C 0 km/h
1387 31-10-2013 02:30:00 3.3 C 5.82 g/m*3 3.3 C 0 km/h
1388 31-10-2013 02:35:00 3.3 C 5.82 g/m*3 3.3 C 0 km/h
1389 31-10-2013 02:40:00 3.3 C 5.82 g/m*3 3.3 C 0 km/h
1390 31-10-2013 02:45:00 3.2 C 5.79 g/m*3 3.2 C 0 km/h
1391 31-10-2013 02:50:00 3.1 C 5.75 g/m*3 3.1 C 0 km/h
1392 31-10-2013 02:55:00 3.1 C 5.75 g/m*3 3.1 C 0 km/h
1393 31-10-2013 03:00:00 3.1 C 5.75 g/m*3 3.1 C 0 km/h
1394 31-10-2013 03:05:00 3.1 C 5.75 g/m*3 3.1 C 0 km/h
1395 31-10-2013 03:10:00 3 C 5.71 g/m*3 3 C 0 km/h
1396 31-10-2013 03:15:00 3 C 5.71 g/m*3 3 C 0 km/h
1397 31-10-2013 03:20:00 2.9 C 5.67 g/m*3 2.9 C 0 km/h
1398 31-10-2013 03:25:00 2.9 C 5.67 g/m*3 2.9 C 0 km/h
1399 31-10-2013 03:30:00 2.9 C 5.73 g/m*3 2.9 C 0 km/h
1400 31-10-2013 03:35:00 3 C 5.77 g/m*3 3 C 0 km/h
Sensor: Nr:Datum:Temp:Abs-Feuchte:Windchill:Wind:
Aussen-T/F 1401 31-10-2013 03:40:00 3 C 5.77 g/m*3 3 C 0 km/h
1402 31-10-2013 03:45:00 3 C 5.77 g/m*3 3 C 0 km/h
1403 31-10-2013 03:50:00 3.1 C 5.81 g/m*3 3.1 C 0 km/h
1404 31-10-2013 03:55:00 3.1 C 5.81 g/m*3 3.1 C 0 km/h
1405 31-10-2013 04:00:00 3.2 C 5.85 g/m*3 3.2 C 1.6 km/h
1406 31-10-2013 04:05:00 3.2 C 5.85 g/m*3 3.2 C 0 km/h
1407 31-10-2013 04:10:00 3.3 C 5.88 g/m*3 3.3 C 0 km/h
1408 31-10-2013 04:15:00 3.3 C 5.88 g/m*3 3.3 C 0 km/h
1409 31-10-2013 04:20:00 3.3 C 5.88 g/m*3 3.3 C 0 km/h
1410 31-10-2013 04:25:00 3.3 C 5.88 g/m*3 3.3 C 0 km/h
1411 31-10-2013 04:30:00 3.3 C 5.88 g/m*3 3.3 C 0 km/h
1412 31-10-2013 04:35:00 3.3 C 5.88 g/m*3 3.3 C 3.2 km/h
1413 31-10-2013 04:40:00 3.3 C 5.88 g/m*3 3.3 C 0 km/h
1414 31-10-2013 04:45:00 3.3 C 5.88 g/m*3 3.3 C 0 km/h
1415 31-10-2013 04:50:00 3.3 C 5.88 g/m*3 3.3 C 3.2 km/h
1416 31-10-2013 04:55:00 3.3 C 5.88 g/m*3 3.3 C 1.6 km/h
1417 31-10-2013 05:00:00 3.2 C 5.85 g/m*3 3.2 C 3.2 km/h
1418 31-10-2013 05:05:00 3.2 C 5.85 g/m*3 3.2 C 1.6 km/h
1419 31-10-2013 05:10:00 3.1 C 5.81 g/m*3 3.1 C 3.2 km/h
1420 31-10-2013 05:15:00 3.1 C 5.81 g/m*3 3.1 C 3.2 km/h
1421 31-10-2013 05:20:00 3.1 C 5.81 g/m*3 3.1 C 1.6 km/h
1422 31-10-2013 05:25:00 3.1 C 5.81 g/m*3 3.1 C 0 km/h
1423 31-10-2013 05:30:00 3.1 C 5.81 g/m*3 3.1 C 0 km/h
1424 31-10-2013 05:35:00 3.1 C 5.81 g/m*3 3.1 C 0 km/h
1425 31-10-2013 05:40:00 3.1 C 5.81 g/m*3 3.1 C 3.2 km/h
Sensor: Nr:Datum:Temp:Abs-Feuchte:Windchill:Wind:
Aussen-T/F 1426 31-10-2013 05:45:00 3.1 C 5.81 g/m*3 3.1 C 0 km/h
1427 31-10-2013 05:50:00 3 C 5.77 g/m*3 3 C 0 km/h
1428 31-10-2013 05:55:00 3 C 5.77 g/m*3 3 C 1.6 km/h
1429 31-10-2013 06:00:00 2.9 C 5.73 g/m*3 2.9 C 1.6 km/h
1430 31-10-2013 06:05:00 2.9 C 5.73 g/m*3 2.9 C 1.6 km/h
1431 31-10-2013 06:10:00 2.8 C 5.69 g/m*3 2.8 C 0 km/h
1432 31-10-2013 06:15:00 2.7 C 5.65 g/m*3 2.7 C 0 km/h
1433 31-10-2013 06:20:00 2.7 C 5.65 g/m*3 2.7 C 0 km/h
1434 31-10-2013 06:25:00 2.7 C 5.65 g/m*3 2.7 C 0 km/h
1435 31-10-2013 06:30:00 2.7 C 5.65 g/m*3 2.7 C 0 km/h
1436 31-10-2013 06:35:00 2.7 C 5.65 g/m*3 2.7 C 0 km/h
1437 31-10-2013 06:40:00 2.7 C 5.65 g/m*3 2.7 C 1.6 km/h
1438 31-10-2013 06:45:00 2.7 C 5.65 g/m*3 2.7 C 3.2 km/h
1439 31-10-2013 06:50:00 2.7 C 5.65 g/m*3 2.7 C 0 km/h
1440 31-10-2013 06:55:00 2.6 C 5.61 g/m*3 2.6 C 1.6 km/h
1441 31-10-2013 07:00:00 2.5 C 5.58 g/m*3 2.5 C 3.2 km/h
1442 31-10-2013 07:05:00 2.4 C 5.54 g/m*3 2.4 C 0 km/h
1443 31-10-2013 07:10:00 2.5 C 5.58 g/m*3 2.5 C 0 km/h
1444 31-10-2013 07:15:00 2.5 C 5.58 g/m*3 2.5 C 0 km/h
1445 31-10-2013 07:20:00 2.5 C 5.58 g/m*3 2.5 C 0 km/h
1446 31-10-2013 07:25:00 2.6 C 5.61 g/m*3 2.6 C 1.6 km/h
1447 31-10-2013 07:30:00 2.6 C 5.61 g/m*3 2.6 C 3.2 km/h
1448 31-10-2013 07:35:00 2.6 C 5.61 g/m*3 2.6 C 3.2 km/h
1449 31-10-2013 07:40:00 2.6 C 5.61 g/m*3 2.6 C 1.6 km/h
1450 31-10-2013 07:45:00 2.6 C 5.61 g/m*3 2.6 C 0 km/h
Sensor: Nr:Datum:Temp:Abs-Feuchte:Windchill:Wind:
Aussen-T/F 1451 31-10-2013 07:50:00 2.6 C 5.61 g/m*3 2.6 C 0 km/h
1452 31-10-2013 07:55:00 2.7 C 5.65 g/m*3 2.7 C 1.6 km/h
1453 31-10-2013 08:00:00 2.7 C 5.65 g/m*3 2.7 C 1.6 km/h
1454 31-10-2013 08:05:00 2.7 C 5.65 g/m*3 2.7 C 0 km/h
1455 31-10-2013 08:10:00 2.7 C 5.71 g/m*3 2.7 C 1.6 km/h
1456 31-10-2013 08:15:00 2.7 C 5.71 g/m*3 2.7 C 0 km/h
1457 31-10-2013 08:20:00 2.7 C 5.65 g/m*3 2.7 C 3.2 km/h
1458 31-10-2013 08:25:00 2.7 C 5.65 g/m*3 2.7 C 1.6 km/h
1459 31-10-2013 08:30:00 2.7 C 5.71 g/m*3 2.7 C 3.2 km/h
1460 31-10-2013 08:35:00 2.7 C 5.71 g/m*3 2.7 C 0 km/h
1461 31-10-2013 08:40:00 2.7 C 5.71 g/m*3 2.7 C 0 km/h
1462 31-10-2013 08:45:00 2.7 C 5.71 g/m*3 2.7 C 0 km/h
1463 31-10-2013 08:50:00 2.7 C 5.71 g/m*3 2.7 C 1.6 km/h
1464 31-10-2013 08:55:00 2.8 C 5.75 g/m*3 2.8 C 0 km/h
1465 31-10-2013 09:00:00 2.9 C 5.79 g/m*3 2.9 C 1.6 km/h
1466 31-10-2013 09:05:00 2.9 C 5.79 g/m*3 2.9 C 1.6 km/h
1467 31-10-2013 09:10:00 2.9 C 5.79 g/m*3 2.9 C 4.8 km/h
1468 31-10-2013 09:15:00 3 C 5.83 g/m*3 3 C 3.2 km/h
1469 31-10-2013 09:20:00 3 C 5.83 g/m*3 3 C 1.6 km/h
1470 31-10-2013 09:25:00 3 C 5.83 g/m*3 3 C 1.6 km/h
1471 31-10-2013 09:30:00 3.1 C 5.87 g/m*3 3.1 C 1.6 km/h
1472 31-10-2013 09:35:00 3.1 C 5.87 g/m*3 3.1 C 1.6 km/h
1473 31-10-2013 09:40:00 3.2 C 5.91 g/m*3 3.2 C 1.6 km/h
1474 31-10-2013 09:45:00 3.2 C 5.91 g/m*3 3.2 C 3.2 km/h
1475 31-10-2013 09:50:00 3.2 C 5.91 g/m*3 3.2 C 0 km/h
Sensor: Nr:Datum:Temp:Abs-Feuchte:Windchill:Wind:
Aussen-T/F 1476 31-10-2013 09:55:00 3.3 C 5.95 g/m*3 3.3 C 1.6 km/h
1477 31-10-2013 10:00:00 3.3 C 5.95 g/m*3 3.3 C 3.2 km/h
1478 31-10-2013 10:05:00 3.3 C 5.95 g/m*3 3.3 C 3.2 km/h
1479 31-10-2013 10:10:00 3.3 C 5.95 g/m*3 3.3 C 1.6 km/h
1480 31-10-2013 10:15:00 3.3 C 5.95 g/m*3 3.3 C 3.2 km/h
1481 31-10-2013 10:20:00 3.3 C 5.95 g/m*3 3.3 C 1.6 km/h
1482 31-10-2013 10:25:00 3.4 C 5.99 g/m*3 3.4 C 0 km/h
1483 31-10-2013 10:30:00 3.5 C 6.03 g/m*3 3.5 C 1.6 km/h
1484 31-10-2013 10:35:00 3.5 C 6.03 g/m*3 3.5 C 3.2 km/h
1485 31-10-2013 10:40:00 3.5 C 6.03 g/m*3 3.5 C 0 km/h
1486 31-10-2013 10:45:00 3.6 C 6.07 g/m*3 3.6 C 1.6 km/h
1487 31-10-2013 10:50:00 3.8 C 6.15 g/m*3 3.8 C 3.2 km/h
1488 31-10-2013 10:55:00 3.8 C 6.15 g/m*3 3.8 C 1.6 km/h
1489 31-10-2013 11:00:00 3.8 C 6.15 g/m*3 3.8 C 1.6 km/h
1490 31-10-2013 11:05:00 3.8 C 6.15 g/m*3 3.8 C 3.2 km/h
1491 31-10-2013 11:10:00 4 C 6.23 g/m*3 4 C 1.6 km/h
1492 31-10-2013 11:15:00 4 C 6.23 g/m*3 4 C 3.2 km/h
1493 31-10-2013 11:20:00 4 C 6.23 g/m*3 4 C 1.6 km/h
1494 31-10-2013 11:25:00 4.1 C 6.27 g/m*3 4.1 C 0 km/h
1495 31-10-2013 11:30:00 4.2 C 6.31 g/m*3 4.2 C 4.8 km/h
1496 31-10-2013 11:35:00 4.3 C 6.36 g/m*3 4.3 C 1.6 km/h
1497 31-10-2013 11:40:00 4.4 C 6.4 g/m*3 4.4 C 3.2 km/h
1498 31-10-2013 11:45:00 4.6 C 6.48 g/m*3 4.6 C 0 km/h
1499 31-10-2013 11:50:00 4.6 C 6.48 g/m*3 4.6 C 1.6 km/h
1500 31-10-2013 11:55:00 4.5 C 6.44 g/m*3 4.5 C 3.2 km/h
Sensor: Nr:Datum:Temp:Abs-Feuchte:Windchill:Wind:
Aussen-T/F 1501 31-10-2013 12:00:00 4.5 C 6.44 g/m*3 4.5 C 0 km/h
1502 31-10-2013 12:05:00 4.6 C 6.48 g/m*3 4.6 C 0 km/h
1503 31-10-2013 12:10:00 4.7 C 6.53 g/m*3 4.7 C 0 km/h
1504 31-10-2013 12:15:00 4.7 C 6.53 g/m*3 4.7 C 0 km/h
1505 31-10-2013 12:20:00 4.8 C 6.57 g/m*3 4.8 C 0 km/h
1506 31-10-2013 12:25:00 4.9 C 6.62 g/m*3 4.9 C 0 km/h
1507 31-10-2013 12:30:00 5 C 6.66 g/m*3 5 C 0 km/h
1508 31-10-2013 12:35:00 5.2 C 6.75 g/m*3 5.2 C 0 km/h
1509 31-10-2013 12:40:00 5.3 C 6.79 g/m*3 5.3 C 0 km/h
1510 31-10-2013 12:45:00 5.6 C 6.93 g/m*3 5.6 C 0 km/h
1511 31-10-2013 12:50:00 5.7 C 6.97 g/m*3 5.7 C 0 km/h
1512 31-10-2013 12:55:00 5.9 C 7.07 g/m*3 5.9 C 0 km/h
1513 31-10-2013 13:00:00 6.1 C 7.16 g/m*3 6.1 C 0 km/h
1514 31-10-2013 13:05:00 6.2 C 7.21 g/m*3 6.2 C 0 km/h
1515 31-10-2013 13:10:00 6.4 C 7.3 g/m*3 6.4 C 1.6 km/h
1516 31-10-2013 13:15:00 6.6 C 7.4 g/m*3 6.6 C 1.6 km/h
1517 31-10-2013 13:20:00 6.8 C 7.5 g/m*3 6.8 C 0 km/h
1518 31-10-2013 13:25:00 7.1 C 7.64 g/m*3 7.1 C 1.6 km/h
1519 31-10-2013 13:30:00 7.3 C 7.74 g/m*3 7.3 C 0 km/h
1520 31-10-2013 13:35:00 7.5 C 7.84 g/m*3 7.5 C 0 km/h
1521 31-10-2013 13:40:00 7.7 C 7.95 g/m*3 7.7 C 0 km/h
1522 31-10-2013 13:45:00 7.9 C 7.97 g/m*3 7.9 C 1.6 km/h
1523 31-10-2013 13:50:00 8.1 C 8.07 g/m*3 8.1 C 1.6 km/h
1524 31-10-2013 13:55:00 8.2 C 8.04 g/m*3 8.2 C 3.2 km/h
1525 31-10-2013 14:00:00 8.3 C 8.09 g/m*3 8.3 C 0 km/h
Sensor: Nr:Datum:Temp:Abs-Feuchte:Windchill:Wind:
Aussen-T/F 1526 31-10-2013 14:05:00 8.4 C 8.06 g/m*3 8.4 C 3.2 km/h
1527 31-10-2013 14:10:00 8.5 C 8.11 g/m*3 8.5 C 3.2 km/h
1528 31-10-2013 14:15:00 8.7 C 8.22 g/m*3 8.7 C 3.2 km/h
1529 31-10-2013 14:20:00 8.8 C 8.18 g/m*3 8.8 C 1.6 km/h
1530 31-10-2013 14:25:00 9 C 8.2 g/m*3 9 C 1.6 km/h
1531 31-10-2013 14:30:00 9.2 C 8.04 g/m*3 8.45 C 6.4 km/h
1532 31-10-2013 14:35:00 9.6 C 7.97 g/m*3 8.91 C 6.4 km/h
1533 31-10-2013 14:40:00 10.1 C 8.04 g/m*3 10.1 C 1.6 km/h
1534 31-10-2013 14:45:00 10.3 C 7.95 g/m*3 10.3 C 1.6 km/h
1535 31-10-2013 14:50:00 10.3 C 7.95 g/m*3 10.3 C 1.6 km/h
1536 31-10-2013 14:55:00 10.1 C 7.85 g/m*3 10.1 C 1.6 km/h
1537 31-10-2013 15:00:00 10.1 C 8.04 g/m*3 10.1 C 1.6 km/h
1538 31-10-2013 15:05:00 10 C 7.99 g/m*3 10 C 3.2 km/h
1539 31-10-2013 15:10:00 9.8 C 7.98 g/m*3 9.8 C 0 km/h
1540 31-10-2013 15:15:00 9.7 C 8.02 g/m*3 9.7 C 3.2 km/h
1541 31-10-2013 15:20:00 9.6 C 7.97 g/m*3 9.6 C 4.8 km/h
1542 31-10-2013 15:25:00 9.6 C 7.97 g/m*3 9.6 C 3.2 km/h
1543 31-10-2013 15:30:00 9.6 C 7.97 g/m*3 9.6 C 1.6 km/h
1544 31-10-2013 15:35:00 9.5 C 7.92 g/m*3 9.5 C 3.2 km/h
1545 31-10-2013 15:40:00 9.5 C 7.92 g/m*3 9.5 C 3.2 km/h
1546 31-10-2013 15:45:00 9.5 C 7.92 g/m*3 9.5 C 0 km/h
1547 31-10-2013 15:50:00 9.5 C 7.92 g/m*3 9.5 C 3.2 km/h
1548 31-10-2013 15:55:00 9.5 C 7.92 g/m*3 9.5 C 3.2 km/h
1549 31-10-2013 16:00:00 9.5 C 7.83 g/m*3 9.5 C 1.6 km/h
1550 31-10-2013 16:05:00 9.5 C 7.83 g/m*3 9.5 C 1.6 km/h
Sensor: Nr:Datum:Temp:Abs-Feuchte:Windchill:Wind:
Aussen-T/F 1551 31-10-2013 16:10:00 9.6 C 7.88 g/m*3 9.6 C 3.2 km/h
1552 31-10-2013 16:15:00 9.4 C 7.78 g/m*3 9.4 C 3.2 km/h
1553 31-10-2013 16:20:00 9.2 C 7.68 g/m*3 9.2 C 3.2 km/h
1554 31-10-2013 16:25:00 9.1 C 7.72 g/m*3 9.1 C 1.6 km/h
1555 31-10-2013 16:30:00 9 C 7.67 g/m*3 9 C 3.2 km/h
1556 31-10-2013 16:35:00 8.8 C 7.57 g/m*3 8.8 C 1.6 km/h
1557 31-10-2013 16:40:00 8.8 C 7.66 g/m*3 8.8 C 1.6 km/h
1558 31-10-2013 16:45:00 8.8 C 7.57 g/m*3 8.8 C 3.2 km/h
1559 31-10-2013 16:50:00 8.8 C 7.66 g/m*3 8.8 C 3.2 km/h
1560 31-10-2013 16:55:00 8.7 C 7.61 g/m*3 8.7 C 1.6 km/h
1561 31-10-2013 17:00:00 8.6 C 7.56 g/m*3 8.6 C 0 km/h
1562 31-10-2013 17:05:00 8.6 C 7.56 g/m*3 8.6 C 3.2 km/h
1563 31-10-2013 17:10:00 8.3 C 7.42 g/m*3 8.3 C 3.2 km/h
1564 31-10-2013 17:15:00 8.2 C 7.45 g/m*3 8.2 C 0 km/h
1565 31-10-2013 17:20:00 8.2 C 7.45 g/m*3 8.2 C 1.6 km/h
1566 31-10-2013 17:25:00 8 C 7.36 g/m*3 8 C 3.2 km/h
1567 31-10-2013 17:30:00 7.8 C 7.35 g/m*3 7.8 C 3.2 km/h
1568 31-10-2013 17:35:00 7.8 C 7.35 g/m*3 7.8 C 1.6 km/h
1569 31-10-2013 17:40:00 7.8 C 7.35 g/m*3 7.8 C 1.6 km/h
1570 31-10-2013 17:45:00 7.9 C 7.31 g/m*3 7.9 C 3.2 km/h
1571 31-10-2013 17:50:00 7.9 C 7.31 g/m*3 7.9 C 1.6 km/h
1572 31-10-2013 17:55:00 7.9 C 7.39 g/m*3 7.9 C 1.6 km/h
1573 31-10-2013 18:00:00 7.8 C 7.35 g/m*3 7.8 C 1.6 km/h
1574 31-10-2013 18:05:00 7.7 C 7.3 g/m*3 7.7 C 1.6 km/h
1575 31-10-2013 18:10:00 7.6 C 7.25 g/m*3 7.6 C 1.6 km/h
Sensor: Nr:Datum:Temp:Abs-Feuchte:Windchill:Wind:
Aussen-T/F 1576 31-10-2013 18:15:00 7.6 C 7.25 g/m*3 7.6 C 1.6 km/h
1577 31-10-2013 18:20:00 7.6 C 7.25 g/m*3 7.6 C 3.2 km/h
1578 31-10-2013 18:25:00 7.6 C 7.25 g/m*3 7.6 C 1.6 km/h
1579 31-10-2013 18:30:00 7.6 C 7.33 g/m*3 7.6 C 3.2 km/h
1580 31-10-2013 18:35:00 7.6 C 7.25 g/m*3 7.6 C 1.6 km/h
1581 31-10-2013 18:40:00 7.5 C 7.2 g/m*3 7.5 C 1.6 km/h
1582 31-10-2013 18:45:00 7.5 C 7.2 g/m*3 7.5 C 1.6 km/h
1583 31-10-2013 18:50:00 7.4 C 7.24 g/m*3 7.4 C 1.6 km/h
1584 31-10-2013 18:55:00 7.3 C 7.19 g/m*3 7.3 C 1.6 km/h
1585 31-10-2013 19:00:00 7.3 C 7.19 g/m*3 7.3 C 0 km/h
1586 31-10-2013 19:05:00 7.3 C 7.19 g/m*3 7.3 C 0 km/h
1587 31-10-2013 19:10:00 7.3 C 7.19 g/m*3 7.3 C 1.6 km/h
1588 31-10-2013 19:15:00 7.2 C 7.22 g/m*3 7.2 C 3.2 km/h
1589 31-10-2013 19:20:00 7.2 C 7.14 g/m*3 7.2 C 3.2 km/h
1590 31-10-2013 19:25:00 7.2 C 7.14 g/m*3 7.2 C 0 km/h
1591 31-10-2013 19:30:00 7.2 C 7.06 g/m*3 7.2 C 1.6 km/h
1592 31-10-2013 19:35:00 7.1 C 7.1 g/m*3 7.1 C 0 km/h
1593 31-10-2013 19:40:00 6.9 C 7.01 g/m*3 6.9 C 0 km/h
1594 31-10-2013 19:45:00 6.8 C 6.88 g/m*3 6.8 C 0 km/h
1595 31-10-2013 19:50:00 6.7 C 6.91 g/m*3 6.7 C 0 km/h
1596 31-10-2013 19:55:00 6.6 C 6.87 g/m*3 6.6 C 0 km/h
1597 31-10-2013 20:00:00 6.5 C 6.82 g/m*3 6.5 C 0 km/h
1598 31-10-2013 20:05:00 6.4 C 6.78 g/m*3 6.4 C 0 km/h
1599 31-10-2013 20:10:00 6.3 C 6.81 g/m*3 6.3 C 0 km/h
1600 31-10-2013 20:15:00 6.2 C 6.77 g/m*3 6.2 C 0 km/h
Sensor: Nr:Datum:Temp:Abs-Feuchte:Windchill:Wind:
Aussen-T/F 1601 31-10-2013 20:20:00 6.1 C 6.72 g/m*3 6.1 C 0 km/h
1602 31-10-2013 20:25:00 6.1 C 6.72 g/m*3 6.1 C 0 km/h
1603 31-10-2013 20:30:00 6 C 6.75 g/m*3 6 C 0 km/h
1604 31-10-2013 20:35:00 6 C 6.75 g/m*3 6 C 0 km/h
1605 31-10-2013 20:40:00 6.1 C 6.79 g/m*3 6.1 C 0 km/h
1606 31-10-2013 20:45:00 6.2 C 6.84 g/m*3 6.2 C 1.6 km/h
1607 31-10-2013 20:50:00 6.4 C 6.85 g/m*3 6.4 C 1.6 km/h
1608 31-10-2013 20:55:00 6.4 C 6.85 g/m*3 6.4 C 0 km/h
1609 31-10-2013 21:00:00 6.4 C 6.78 g/m*3 6.4 C 0 km/h
1610 31-10-2013 21:05:00 6.3 C 6.74 g/m*3 6.3 C 1.6 km/h
1611 31-10-2013 21:10:00 6.2 C 6.69 g/m*3 6.2 C 0 km/h
1612 31-10-2013 21:15:00 6.2 C 6.69 g/m*3 6.2 C 0 km/h
1613 31-10-2013 21:20:00 6.1 C 6.72 g/m*3 6.1 C 0 km/h
1614 31-10-2013 21:25:00 6 C 6.68 g/m*3 6 C 0 km/h
1615 31-10-2013 21:30:00 5.9 C 6.63 g/m*3 5.9 C 0 km/h
1616 31-10-2013 21:35:00 5.9 C 6.71 g/m*3 5.9 C 0 km/h
1617 31-10-2013 21:40:00 5.8 C 6.66 g/m*3 5.8 C 0 km/h
1618 31-10-2013 21:45:00 5.8 C 6.66 g/m*3 5.8 C 0 km/h
1619 31-10-2013 21:50:00 5.7 C 6.62 g/m*3 5.7 C 0 km/h
1620 31-10-2013 21:55:00 5.7 C 6.62 g/m*3 5.7 C 0 km/h
1621 31-10-2013 22:00:00 5.7 C 6.62 g/m*3 5.7 C 0 km/h
1622 31-10-2013 22:05:00 5.7 C 6.62 g/m*3 5.7 C 0 km/h
1623 31-10-2013 22:10:00 5.7 C 6.69 g/m*3 5.7 C 0 km/h
1624 31-10-2013 22:15:00 5.6 C 6.65 g/m*3 5.6 C 0 km/h
1625 31-10-2013 22:20:00 5.6 C 6.65 g/m*3 5.6 C 1.6 km/h
Sensor: Nr:Datum:Temp:Abs-Feuchte:Windchill:Wind:
Aussen-T/F 1626 31-10-2013 22:25:00 5.7 C 6.69 g/m*3 5.7 C 0 km/h
1627 31-10-2013 22:30:00 5.7 C 6.69 g/m*3 5.7 C 0 km/h
1628 31-10-2013 22:35:00 5.7 C 6.69 g/m*3 5.7 C 0 km/h
1629 31-10-2013 22:40:00 5.7 C 6.69 g/m*3 5.7 C 0 km/h
1630 31-10-2013 22:45:00 5.8 C 6.73 g/m*3 5.8 C 0 km/h
1631 31-10-2013 22:50:00 5.8 C 6.73 g/m*3 5.8 C 0 km/h
1632 31-10-2013 22:55:00 5.8 C 6.73 g/m*3 5.8 C 0 km/h
1633 31-10-2013 23:00:00 5.9 C 6.78 g/m*3 5.9 C 0 km/h
1634 31-10-2013 23:05:00 5.9 C 6.78 g/m*3 5.9 C 0 km/h
1635 31-10-2013 23:10:00 6 C 6.82 g/m*3 6 C 1.6 km/h
1636 31-10-2013 23:15:00 6.1 C 6.87 g/m*3 6.1 C 0 km/h
1637 31-10-2013 23:20:00 6.2 C 6.91 g/m*3 6.2 C 0 km/h
1638 31-10-2013 23:25:00 6.3 C 6.96 g/m*3 6.3 C 0 km/h
1639 31-10-2013 23:30:00 6.3 C 6.96 g/m*3 6.3 C 1.6 km/h
1640 31-10-2013 23:35:00 6.4 C 7 g/m*3 6.4 C 1.6 km/h
1641 31-10-2013 23:40:00 6.6 C 7.1 g/m*3 6.6 C 1.6 km/h
1642 31-10-2013 23:45:00 6.6 C 7.02 g/m*3 6.6 C 0 km/h
1643 31-10-2013 23:50:00 6.7 C 7.07 g/m*3 6.7 C 0 km/h
1644 31-10-2013 23:55:00 6.8 C 7.11 g/m*3 6.8 C 1.6 km/h
1645 01-11-2013 00:00:00 6.9 C 7.08 g/m*3 6.9 C 1.6 km/h
1646 01-11-2013 00:05:00 7.1 C 7.18 g/m*3 7.1 C 1.6 km/h
1647 01-11-2013 00:10:00 7.2 C 7.14 g/m*3 7.2 C 0 km/h
1648 01-11-2013 00:15:00 7.2 C 7.22 g/m*3 7.2 C 0 km/h
1649 01-11-2013 00:20:00 7.3 C 7.27 g/m*3 7.3 C 0 km/h
1650 01-11-2013 00:25:00 7.3 C 7.27 g/m*3 7.3 C 3.2 km/h
Sensor: Nr:Datum:Temp:Abs-Feuchte:Windchill:Wind:
Aussen-T/F 1651 01-11-2013 00:30:00 7.3 C 7.27 g/m*3 7.3 C 3.2 km/h
1652 01-11-2013 00:35:00 7.3 C 7.27 g/m*3 7.3 C 1.6 km/h
1653 01-11-2013 00:40:00 7.3 C 7.27 g/m*3 7.3 C 3.2 km/h
1654 01-11-2013 00:45:00 7.4 C 7.4 g/m*3 7.4 C 0 km/h
1655 01-11-2013 00:50:00 7.6 C 7.25 g/m*3 7.6 C 4.8 km/h
1656 01-11-2013 00:55:00 8.2 C 7.2 g/m*3 8.2 C 4.8 km/h
1657 01-11-2013 01:00:00 8.6 C 7.3 g/m*3 8.6 C 3.2 km/h
1658 01-11-2013 01:05:00 8.7 C 7.26 g/m*3 8.7 C 4.8 km/h
1659 01-11-2013 01:10:00 8.8 C 7.49 g/m*3 8.8 C 0 km/h
1660 01-11-2013 01:15:00 8.7 C 7.52 g/m*3 8.7 C 1.6 km/h
1661 01-11-2013 01:20:00 8.6 C 7.48 g/m*3 7.75 C 6.4 km/h
1662 01-11-2013 01:25:00 8.6 C 7.3 g/m*3 8.6 C 1.6 km/h
1663 01-11-2013 01:30:00 8.7 C 7.26 g/m*3 8.7 C 1.6 km/h
1664 01-11-2013 01:35:00 8.7 C 7.18 g/m*3 8.7 C 3.2 km/h
1665 01-11-2013 01:40:00 8.8 C 7.14 g/m*3 8.8 C 1.6 km/h
1666 01-11-2013 01:45:00 8.9 C 7.18 g/m*3 8.9 C 1.6 km/h
1667 01-11-2013 01:50:00 8.9 C 7.18 g/m*3 8.9 C 4.8 km/h
1668 01-11-2013 01:55:00 8.9 C 7.27 g/m*3 8.9 C 0 km/h
1669 01-11-2013 02:00:00 8.9 C 7.45 g/m*3 8.9 C 0 km/h
1670 01-11-2013 02:05:00 8.8 C 7.49 g/m*3 8.8 C 0 km/h
1671 01-11-2013 02:10:00 8.7 C 7.52 g/m*3 8.7 C 0 km/h
1672 01-11-2013 02:15:00 8.6 C 7.39 g/m*3 8.6 C 0 km/h
1673 01-11-2013 02:20:00 8.5 C 7.26 g/m*3 8.5 C 0 km/h
1674 01-11-2013 02:25:00 8.6 C 7.48 g/m*3 8.6 C 0 km/h
1675 01-11-2013 02:30:00 8.6 C 7.48 g/m*3 8.6 C 0 km/h
Sensor: Nr:Datum:Temp:Abs-Feuchte:Windchill:Wind:
Aussen-T/F 1676 01-11-2013 02:35:00 8.6 C 7.39 g/m*3 8.6 C 3.2 km/h
1677 01-11-2013 02:40:00 8.6 C 7.48 g/m*3 8.6 C 0 km/h
1678 01-11-2013 02:45:00 8.6 C 7.48 g/m*3 8.6 C 0 km/h
1679 01-11-2013 02:50:00 8.7 C 7.61 g/m*3 8.7 C 0 km/h
1680 01-11-2013 02:55:00 8.6 C 7.56 g/m*3 8.6 C 0 km/h
1681 01-11-2013 03:00:00 8.6 C 7.56 g/m*3 8.6 C 0 km/h
1682 01-11-2013 03:05:00 8.6 C 7.56 g/m*3 8.6 C 0 km/h
1683 01-11-2013 03:10:00 8.6 C 7.56 g/m*3 8.6 C 0 km/h
1684 01-11-2013 03:15:00 8.6 C 7.56 g/m*3 8.6 C 0 km/h
1685 01-11-2013 03:20:00 8.6 C 7.48 g/m*3 8.6 C 0 km/h
1686 01-11-2013 03:25:00 8.6 C 7.56 g/m*3 8.6 C 0 km/h
1687 01-11-2013 03:30:00 8.6 C 7.48 g/m*3 8.6 C 0 km/h
1688 01-11-2013 03:35:00 8.7 C 7.44 g/m*3 8.7 C 1.6 km/h
1689 01-11-2013 03:40:00 8.8 C 7.49 g/m*3 8.8 C 0 km/h
1690 01-11-2013 03:45:00 8.8 C 7.49 g/m*3 8.8 C 0 km/h
1691 01-11-2013 03:50:00 8.8 C 7.49 g/m*3 8.8 C 0 km/h
1692 01-11-2013 03:55:00 8.9 C 7.45 g/m*3 8.9 C 4.8 km/h
1693 01-11-2013 04:00:00 9 C 7.49 g/m*3 9 C 1.6 km/h
1694 01-11-2013 04:05:00 9.1 C 7.45 g/m*3 9.1 C 1.6 km/h
1695 01-11-2013 04:10:00 9.2 C 7.5 g/m*3 9.2 C 1.6 km/h
1696 01-11-2013 04:15:00 9.3 C 7.55 g/m*3 9.3 C 0 km/h
1697 01-11-2013 04:20:00 9.3 C 7.73 g/m*3 9.3 C 0 km/h
1698 01-11-2013 04:25:00 9.2 C 7.77 g/m*3 9.2 C 0 km/h
1699 01-11-2013 04:30:00 9.1 C 7.72 g/m*3 9.1 C 0 km/h
1700 01-11-2013 04:35:00 9.1 C 7.63 g/m*3 9.1 C 1.6 km/h
Sensor: Nr:Datum:Temp:Abs-Feuchte:Windchill:Wind:
Aussen-T/F 1701 01-11-2013 04:40:00 9.2 C 7.77 g/m*3 9.2 C 0 km/h
1702 01-11-2013 04:45:00 9.1 C 7.81 g/m*3 9.1 C 0 km/h
1703 01-11-2013 04:50:00 9.1 C 7.9 g/m*3 9.1 C 0 km/h
1704 01-11-2013 04:55:00 9.1 C 7.81 g/m*3 9.1 C 0 km/h
1705 01-11-2013 05:00:00 9.1 C 7.9 g/m*3 9.1 C 0 km/h
1706 01-11-2013 05:05:00 9 C 7.85 g/m*3 9 C 0 km/h
1707 01-11-2013 05:10:00 8.9 C 7.8 g/m*3 8.9 C 0 km/h
1708 01-11-2013 05:15:00 8.9 C 7.8 g/m*3 8.9 C 0 km/h
1709 01-11-2013 05:20:00 8.9 C 7.8 g/m*3 8.9 C 0 km/h
1710 01-11-2013 05:25:00 8.9 C 7.88 g/m*3 8.9 C 0 km/h
1711 01-11-2013 05:30:00 8.9 C 7.88 g/m*3 8.9 C 0 km/h
1712 01-11-2013 05:35:00 8.9 C 7.88 g/m*3 8.9 C 0 km/h
1713 01-11-2013 05:40:00 8.9 C 7.88 g/m*3 8.9 C 0 km/h
1714 01-11-2013 05:45:00 8.9 C 7.88 g/m*3 8.9 C 0 km/h
1715 01-11-2013 05:50:00 8.8 C 7.83 g/m*3 8.8 C 0 km/h
1716 01-11-2013 05:55:00 8.8 C 7.83 g/m*3 8.8 C 0 km/h
1717 01-11-2013 06:00:00 8.8 C 7.83 g/m*3 8.8 C 0 km/h
1718 01-11-2013 06:05:00 8.8 C 7.83 g/m*3 8.8 C 0 km/h
1719 01-11-2013 06:10:00 8.7 C 7.78 g/m*3 8.7 C 0 km/h
1720 01-11-2013 06:15:00 8.6 C 7.73 g/m*3 8.6 C 0 km/h
1721 01-11-2013 06:20:00 8.6 C 7.82 g/m*3 8.6 C 0 km/h
1722 01-11-2013 06:25:00 8.6 C 7.73 g/m*3 8.6 C 0 km/h
1723 01-11-2013 06:30:00 8.6 C 7.82 g/m*3 8.6 C 0 km/h
1724 01-11-2013 06:35:00 8.6 C 7.82 g/m*3 8.6 C 0 km/h
1725 01-11-2013 06:40:00 8.6 C 7.82 g/m*3 8.6 C 0 km/h
Sensor: Nr:Datum:Temp:Abs-Feuchte:Windchill:Wind:
Aussen-T/F 1726 01-11-2013 06:45:00 8.6 C 7.82 g/m*3 8.6 C 0 km/h
1727 01-11-2013 06:50:00 8.6 C 7.82 g/m*3 8.6 C 0 km/h
1728 01-11-2013 06:55:00 8.7 C 7.96 g/m*3 8.7 C 0 km/h
1729 01-11-2013 07:00:00 8.7 C 7.96 g/m*3 8.7 C 0 km/h
1730 01-11-2013 07:05:00 8.7 C 7.96 g/m*3 8.7 C 0 km/h
1731 01-11-2013 07:10:00 8.7 C 7.96 g/m*3 8.7 C 0 km/h
1732 01-11-2013 07:15:00 8.7 C 7.96 g/m*3 8.7 C 0 km/h
1733 01-11-2013 07:20:00 8.7 C 7.96 g/m*3 8.7 C 0 km/h
1734 01-11-2013 07:25:00 8.7 C 7.96 g/m*3 8.7 C 0 km/h
1735 01-11-2013 07:30:00 8.7 C 7.96 g/m*3 8.7 C 0 km/h
1736 01-11-2013 07:35:00 8.7 C 7.96 g/m*3 8.7 C 0 km/h
1737 01-11-2013 07:40:00 8.7 C 7.87 g/m*3 8.7 C 0 km/h
1738 01-11-2013 07:45:00 8.8 C 7.92 g/m*3 8.8 C 0 km/h
1739 01-11-2013 07:50:00 8.8 C 7.92 g/m*3 8.8 C 0 km/h
1740 01-11-2013 07:55:00 8.8 C 7.92 g/m*3 8.8 C 0 km/h
1741 01-11-2013 08:00:00 8.8 C 7.92 g/m*3 8.8 C 0 km/h
1742 01-11-2013 08:05:00 8.8 C 7.92 g/m*3 8.8 C 0 km/h
1743 01-11-2013 08:10:00 8.8 C 7.92 g/m*3 8.8 C 0 km/h
1744 01-11-2013 08:15:00 8.8 C 7.92 g/m*3 8.8 C 0 km/h
1745 01-11-2013 08:20:00 8.9 C 7.97 g/m*3 8.9 C 0 km/h
1746 01-11-2013 08:25:00 8.9 C 7.97 g/m*3 8.9 C 0 km/h
1747 01-11-2013 08:30:00 8.9 C 7.97 g/m*3 8.9 C 0 km/h
1748 01-11-2013 08:35:00 9 C 8.02 g/m*3 9 C 0 km/h
1749 01-11-2013 08:40:00 9.1 C 8.07 g/m*3 9.1 C 0 km/h
1750 01-11-2013 08:45:00 9.1 C 8.07 g/m*3 9.1 C 0 km/h
Sensor: Nr:Datum:Temp:Abs-Feuchte:Windchill:Wind:
Aussen-T/F 1751 01-11-2013 08:50:00 9.2 C 8.13 g/m*3 9.2 C 0 km/h
1752 01-11-2013 08:55:00 9.2 C 8.13 g/m*3 9.2 C 1.6 km/h
1753 01-11-2013 09:00:00 9.2 C 8.04 g/m*3 9.2 C 0 km/h
1754 01-11-2013 09:05:00 9.3 C 8 g/m*3 9.3 C 0 km/h
1755 01-11-2013 09:10:00 9.4 C 7.78 g/m*3 9.4 C 1.6 km/h
1756 01-11-2013 09:15:00 9.6 C 7.79 g/m*3 9.6 C 0 km/h
1757 01-11-2013 09:20:00 9.8 C 7.89 g/m*3 9.8 C 1.6 km/h
1758 01-11-2013 09:25:00 9.9 C 7.84 g/m*3 9.9 C 0 km/h
1759 01-11-2013 09:30:00 10.1 C 7.94 g/m*3 10.1 C 1.6 km/h
1760 01-11-2013 09:35:00 10.2 C 8.09 g/m*3 10.2 C 0 km/h
1761 01-11-2013 09:40:00 10.3 C 8.33 g/m*3 10.3 C 0 km/h
1762 01-11-2013 09:45:00 10.3 C 8.14 g/m*3 10.3 C 0 km/h
1763 01-11-2013 09:50:00 10.4 C 8.19 g/m*3 10.4 C 3.2 km/h
1764 01-11-2013 09:55:00 10.4 C 8 g/m*3 10.4 C 1.6 km/h
1765 01-11-2013 10:00:00 10.5 C 8.15 g/m*3 10.5 C 0 km/h
1766 01-11-2013 10:05:00 10.6 C 8.1 g/m*3 10.6 C 0 km/h
1767 01-11-2013 10:10:00 10.7 C 8.05 g/m*3 10.7 C 0 km/h
1768 01-11-2013 10:15:00 10.7 C 8.15 g/m*3 10.7 C 0 km/h
1769 01-11-2013 10:20:00 10.7 C 8.15 g/m*3 10.7 C 0 km/h
1770 01-11-2013 10:25:00 10.8 C 8.3 g/m*3 10.8 C 1.6 km/h
1771 01-11-2013 10:30:00 10.8 C 8.01 g/m*3 10.8 C 1.6 km/h
1772 01-11-2013 10:35:00 10.9 C 7.96 g/m*3 10.9 C 4.8 km/h
1773 01-11-2013 10:40:00 10.9 C 7.96 g/m*3 10.41 C 6.4 km/h
1774 01-11-2013 10:45:00 10.9 C 7.96 g/m*3 10.9 C 3.2 km/h
1775 01-11-2013 10:50:00 10.9 C 8.06 g/m*3 10.41 C 6.4 km/h
Sensor: Nr:Datum:Temp:Abs-Feuchte:Windchill:Wind:
Aussen-T/F 1776 01-11-2013 10:55:00 11.1 C 8.16 g/m*3 11.1 C 4.8 km/h
1777 01-11-2013 11:00:00 11.1 C 8.16 g/m*3 11.1 C 1.6 km/h
1778 01-11-2013 11:05:00 11.1 C 8.16 g/m*3 11.1 C 3.2 km/h
1779 01-11-2013 11:10:00 11.2 C 8.31 g/m*3 11.2 C 1.6 km/h
1780 01-11-2013 11:15:00 11.3 C 8.36 g/m*3 11.3 C 1.6 km/h
1781 01-11-2013 11:20:00 11.3 C 8.26 g/m*3 11.3 C 6.4 km/h
1782 01-11-2013 11:25:00 11.4 C 8.21 g/m*3 11.4 C 8.1 km/h
1783 01-11-2013 11:30:00 11.5 C 8.26 g/m*3 11.5 C 8.1 km/h
1784 01-11-2013 11:35:00 11.5 C 8.26 g/m*3 11.5 C 6.4 km/h
1785 01-11-2013 11:40:00 11.6 C 8.32 g/m*3 11.6 C 6.4 km/h
1786 01-11-2013 11:45:00 11.7 C 8.37 g/m*3 11.7 C 4.8 km/h
1787 01-11-2013 11:50:00 11.8 C 8.42 g/m*3 11.8 C 4.8 km/h
1788 01-11-2013 11:55:00 11.9 C 8.37 g/m*3 11.9 C 4.8 km/h
1789 01-11-2013 12:00:00 12.1 C 8.58 g/m*3 12.1 C 6.4 km/h
1790 01-11-2013 12:05:00 12.1 C 8.47 g/m*3 12.1 C 8.1 km/h
1791 01-11-2013 12:10:00 12.1 C 8.47 g/m*3 12.1 C 3.2 km/h
1792 01-11-2013 12:15:00 12.1 C 8.47 g/m*3 12.1 C 4.8 km/h
1793 01-11-2013 12:20:00 12.2 C 8.63 g/m*3 12.2 C 4.8 km/h
1794 01-11-2013 12:25:00 12.2 C 8.63 g/m*3 12.2 C 4.8 km/h
1795 01-11-2013 12:30:00 12.2 C 8.52 g/m*3 12.2 C 6.4 km/h
1796 01-11-2013 12:35:00 12.2 C 8.52 g/m*3 12.2 C 4.8 km/h
1797 01-11-2013 12:40:00 12.2 C 8.52 g/m*3 12.2 C 4.8 km/h
1798 01-11-2013 12:45:00 12.2 C 8.52 g/m*3 12.2 C 4.8 km/h
1799 01-11-2013 12:50:00 12.2 C 8.63 g/m*3 12.2 C 3.2 km/h
1800 01-11-2013 12:55:00 12.2 C 8.52 g/m*3 12.2 C 3.2 km/h
Sensor: Nr:Datum:Temp:Abs-Feuchte:Windchill:Wind:
Aussen-T/F 1801 01-11-2013 13:00:00 12.2 C 9.06 g/m*3 12.2 C 0 km/h
1802 01-11-2013 13:05:00 12.1 C 8.9 g/m*3 12.1 C 0 km/h
1803 01-11-2013 13:10:00 12.1 C 9.12 g/m*3 12.1 C 0 km/h
1804 01-11-2013 13:15:00 11.9 C 8.9 g/m*3 11.9 C 0 km/h
1805 01-11-2013 13:20:00 11.7 C 8.99 g/m*3 11.7 C 0 km/h
1806 01-11-2013 13:25:00 11.6 C 9.15 g/m*3 11.6 C 0 km/h
1807 01-11-2013 13:30:00 11.5 C 9.19 g/m*3 11.5 C 0 km/h
1808 01-11-2013 13:35:00 11.4 C 9.24 g/m*3 11.4 C 0 km/h
1809 01-11-2013 13:40:00 11.3 C 9.28 g/m*3 11.3 C 0 km/h
1810 01-11-2013 13:45:00 11.2 C 9.33 g/m*3 11.2 C 0 km/h
1811 01-11-2013 13:50:00 11.2 C 9.33 g/m*3 11.2 C 0 km/h
1812 01-11-2013 13:55:00 11.2 C 9.43 g/m*3 11.2 C 0 km/h
1813 01-11-2013 14:00:00 11.2 C 9.33 g/m*3 11.2 C 0 km/h
1814 01-11-2013 14:05:00 11.2 C 9.33 g/m*3 11.2 C 0 km/h
1815 01-11-2013 14:10:00 11.2 C 9.33 g/m*3 11.2 C 0 km/h
1816 01-11-2013 14:15:00 11.1 C 9.07 g/m*3 11.1 C 0 km/h
1817 01-11-2013 14:20:00 11.2 C 9.22 g/m*3 11.2 C 0 km/h
1818 01-11-2013 14:25:00 11.2 C 9.12 g/m*3 11.2 C 0 km/h
1819 01-11-2013 14:30:00 11.2 C 9.12 g/m*3 11.2 C 0 km/h
1820 01-11-2013 14:35:00 11.3 C 9.28 g/m*3 11.3 C 0 km/h
1821 01-11-2013 14:40:00 11.3 C 9.28 g/m*3 11.3 C 0 km/h
1822 01-11-2013 14:45:00 11.4 C 9.34 g/m*3 11.4 C 0 km/h
1823 01-11-2013 14:50:00 11.4 C 9.14 g/m*3 11.4 C 1.6 km/h
1824 01-11-2013 14:55:00 11.4 C 9.14 g/m*3 11.4 C 3.2 km/h
1825 01-11-2013 15:00:00 11.4 C 9.03 g/m*3 11.4 C 0 km/h
Sensor: Nr:Datum:Temp:Abs-Feuchte:Windchill:Wind:
Aussen-T/F 1826 01-11-2013 15:05:00 11.3 C 9.08 g/m*3 11.3 C 0 km/h
1827 01-11-2013 15:10:00 11.3 C 9.08 g/m*3 11.3 C 0 km/h
1828 01-11-2013 15:15:00 11.3 C 8.87 g/m*3 11.3 C 0 km/h
1829 01-11-2013 15:20:00 11.3 C 8.98 g/m*3 11.3 C 0 km/h
1830 01-11-2013 15:25:00 11.2 C 8.72 g/m*3 11.2 C 0 km/h
1831 01-11-2013 15:30:00 11.2 C 8.82 g/m*3 11.2 C 0 km/h
1832 01-11-2013 15:35:00 11.1 C 8.56 g/m*3 11.1 C 0 km/h
1833 01-11-2013 15:40:00 11.1 C 8.76 g/m*3 11.1 C 0 km/h
1834 01-11-2013 15:45:00 11.1 C 8.86 g/m*3 11.1 C 0 km/h
1835 01-11-2013 15:50:00 10.9 C 8.75 g/m*3 10.9 C 0 km/h
1836 01-11-2013 15:55:00 10.8 C 8.4 g/m*3 10.8 C 0 km/h
1837 01-11-2013 16:00:00 10.8 C 8.6 g/m*3 10.8 C 0 km/h
1838 01-11-2013 16:05:00 10.7 C 8.45 g/m*3 10.7 C 0 km/h
1839 01-11-2013 16:10:00 10.7 C 8.64 g/m*3 10.7 C 0 km/h
1840 01-11-2013 16:15:00 10.6 C 8.69 g/m*3 10.6 C 0 km/h
1841 01-11-2013 16:20:00 10.5 C 8.53 g/m*3 10.5 C 0 km/h
1842 01-11-2013 16:25:00 10.4 C 8.58 g/m*3 10.4 C 0 km/h
1843 01-11-2013 16:30:00 10.3 C 8.52 g/m*3 10.3 C 0 km/h
1844 01-11-2013 16:35:00 10.2 C 8.56 g/m*3 10.2 C 0 km/h
1845 01-11-2013 16:40:00 10.2 C 8.56 g/m*3 10.2 C 0 km/h
1846 01-11-2013 16:45:00 10.1 C 8.51 g/m*3 10.1 C 0 km/h
1847 01-11-2013 16:50:00 9.9 C 8.4 g/m*3 9.9 C 0 km/h
1848 01-11-2013 16:55:00 9.8 C 8.35 g/m*3 9.8 C 0 km/h
1849 01-11-2013 17:00:00 9.8 C 8.35 g/m*3 9.8 C 0 km/h
1850 01-11-2013 17:05:00 9.7 C 8.39 g/m*3 9.7 C 0 km/h
Sensor: Nr:Datum:Temp:Abs-Feuchte:Windchill:Wind:
Aussen-T/F 1851 01-11-2013 17:10:00 9.6 C 8.34 g/m*3 9.6 C 0 km/h
1852 01-11-2013 17:15:00 9.6 C 8.34 g/m*3 9.6 C 0 km/h
1853 01-11-2013 17:20:00 9.5 C 8.28 g/m*3 9.5 C 0 km/h
1854 01-11-2013 17:25:00 9.5 C 8.28 g/m*3 9.5 C 0 km/h
1855 01-11-2013 17:30:00 9.5 C 8.37 g/m*3 9.5 C 0 km/h
1856 01-11-2013 17:35:00 9.4 C 8.32 g/m*3 9.4 C 0 km/h
1857 01-11-2013 17:40:00 9.3 C 8.36 g/m*3 9.3 C 0 km/h
1858 01-11-2013 17:45:00 9.3 C 8.36 g/m*3 9.3 C 0 km/h
1859 01-11-2013 17:50:00 9.2 C 8.3 g/m*3 9.2 C 0 km/h
1860 01-11-2013 17:55:00 9.1 C 8.34 g/m*3 9.1 C 0 km/h
1861 01-11-2013 18:00:00 9.1 C 8.34 g/m*3 9.1 C 0 km/h
1862 01-11-2013 18:05:00 8.9 C 8.23 g/m*3 8.9 C 0 km/h
1863 01-11-2013 18:10:00 8.9 C 8.32 g/m*3 8.9 C 0 km/h
1864 01-11-2013 18:15:00 8.8 C 8.27 g/m*3 8.8 C 0 km/h
1865 01-11-2013 18:20:00 8.8 C 8.27 g/m*3 8.8 C 0 km/h
1866 01-11-2013 18:25:00 8.8 C 8.27 g/m*3 8.8 C 0 km/h
1867 01-11-2013 18:30:00 8.7 C 8.22 g/m*3 8.7 C 0 km/h
1868 01-11-2013 18:35:00 8.7 C 8.22 g/m*3 8.7 C 0 km/h
1869 01-11-2013 18:40:00 8.7 C 8.22 g/m*3 8.7 C 0 km/h
1870 01-11-2013 18:45:00 8.7 C 8.22 g/m*3 8.7 C 0 km/h
1871 01-11-2013 18:50:00 8.7 C 8.22 g/m*3 8.7 C 0 km/h
1872 01-11-2013 18:55:00 8.6 C 8.16 g/m*3 8.6 C 0 km/h
1873 01-11-2013 19:00:00 8.6 C 8.16 g/m*3 8.6 C 0 km/h
1874 01-11-2013 19:05:00 8.6 C 8.16 g/m*3 8.6 C 0 km/h
1875 01-11-2013 19:10:00 8.6 C 8.16 g/m*3 8.6 C 0 km/h
Sensor: Nr:Datum:Temp:Abs-Feuchte:Windchill:Wind:
Aussen-T/F 1876 01-11-2013 19:15:00 8.6 C 8.25 g/m*3 8.6 C 0 km/h
1877 01-11-2013 19:20:00 8.6 C 8.25 g/m*3 8.6 C 0 km/h
1878 01-11-2013 19:25:00 8.6 C 8.25 g/m*3 8.6 C 0 km/h
1879 01-11-2013 19:30:00 8.6 C 8.25 g/m*3 8.6 C 0 km/h
1880 01-11-2013 19:35:00 8.6 C 8.25 g/m*3 8.6 C 0 km/h
1881 01-11-2013 19:40:00 8.6 C 8.25 g/m*3 8.6 C 0 km/h
1882 01-11-2013 19:45:00 8.6 C 8.25 g/m*3 8.6 C 0 km/h
1883 01-11-2013 19:50:00 8.5 C 8.2 g/m*3 8.5 C 0 km/h
1884 01-11-2013 19:55:00 8.5 C 8.2 g/m*3 8.5 C 0 km/h
1885 01-11-2013 20:00:00 8.4 C 8.14 g/m*3 8.4 C 0 km/h
1886 01-11-2013 20:05:00 8.4 C 8.14 g/m*3 8.4 C 0 km/h
1887 01-11-2013 20:10:00 8.4 C 8.14 g/m*3 8.4 C 0 km/h
1888 01-11-2013 20:15:00 8.4 C 8.14 g/m*3 8.4 C 0 km/h
1889 01-11-2013 20:20:00 8.4 C 8.14 g/m*3 8.4 C 0 km/h
1890 01-11-2013 20:25:00 8.4 C 8.14 g/m*3 8.4 C 0 km/h
1891 01-11-2013 20:30:00 8.4 C 8.14 g/m*3 8.4 C 3.2 km/h
1892 01-11-2013 20:35:00 8.4 C 8.14 g/m*3 8.4 C 0 km/h
1893 01-11-2013 20:40:00 8.4 C 8.14 g/m*3 8.4 C 0 km/h
1894 01-11-2013 20:45:00 8.4 C 8.23 g/m*3 8.4 C 0 km/h
1895 01-11-2013 20:50:00 8.4 C 8.23 g/m*3 8.4 C 0 km/h
1896 01-11-2013 20:55:00 8.4 C 8.23 g/m*3 8.4 C 0 km/h
1897 01-11-2013 21:00:00 8.4 C 8.23 g/m*3 8.4 C 1.6 km/h
1898 01-11-2013 21:05:00 8.3 C 8.18 g/m*3 8.3 C 3.2 km/h
1899 01-11-2013 21:10:00 8.3 C 8.09 g/m*3 8.3 C 1.6 km/h
1900 01-11-2013 21:15:00 8.3 C 8.09 g/m*3 8.3 C 1.6 km/h
Sensor: Nr:Datum:Temp:Abs-Feuchte:Windchill:Wind:
Aussen-T/F 1901 01-11-2013 21:20:00 8.3 C 8.09 g/m*3 8.3 C 0 km/h
1902 01-11-2013 21:25:00 8.3 C 8.09 g/m*3 8.3 C 0 km/h
1903 01-11-2013 21:30:00 8.3 C 8.09 g/m*3 8.3 C 0 km/h
1904 01-11-2013 21:35:00 8.3 C 8.09 g/m*3 8.3 C 0 km/h
1905 01-11-2013 21:40:00 8.3 C 8.09 g/m*3 8.3 C 0 km/h
1906 01-11-2013 21:45:00 8.3 C 8.09 g/m*3 8.3 C 0 km/h
1907 01-11-2013 21:50:00 8.3 C 8.09 g/m*3 8.3 C 0 km/h
1908 01-11-2013 21:55:00 8.3 C 8.09 g/m*3 8.3 C 0 km/h
1909 01-11-2013 22:00:00 8.3 C 8.09 g/m*3 8.3 C 0 km/h
1910 01-11-2013 22:05:00 8.3 C 8.09 g/m*3 8.3 C 0 km/h
1911 01-11-2013 22:10:00 8.2 C 8.04 g/m*3 8.2 C 0 km/h
1912 01-11-2013 22:15:00 8.2 C 8.04 g/m*3 8.2 C 0 km/h
1913 01-11-2013 22:20:00 8.2 C 8.04 g/m*3 8.2 C 0 km/h
1914 01-11-2013 22:25:00 8.2 C 8.04 g/m*3 8.2 C 0 km/h
1915 01-11-2013 22:30:00 8.2 C 8.04 g/m*3 8.2 C 1.6 km/h
1916 01-11-2013 22:35:00 8.2 C 8.04 g/m*3 8.2 C 0 km/h
1917 01-11-2013 22:40:00 8.2 C 8.12 g/m*3 8.2 C 0 km/h
1918 01-11-2013 22:45:00 8.1 C 8.07 g/m*3 8.1 C 0 km/h
1919 01-11-2013 22:50:00 8.1 C 8.07 g/m*3 8.1 C 0 km/h
1920 01-11-2013 22:55:00 8.1 C 8.07 g/m*3 8.1 C 0 km/h
1921 01-11-2013 23:00:00 8.1 C 8.07 g/m*3 8.1 C 0 km/h
1922 01-11-2013 23:05:00 8.1 C 8.07 g/m*3 8.1 C 0 km/h
1923 01-11-2013 23:10:00 8.1 C 8.07 g/m*3 8.1 C 0 km/h
1924 01-11-2013 23:15:00 8.1 C 8.07 g/m*3 8.1 C 0 km/h
1925 01-11-2013 23:20:00 8.1 C 8.07 g/m*3 8.1 C 0 km/h
Sensor: Nr:Datum:Temp:Abs-Feuchte:Windchill:Wind:
Aussen-T/F 1926 01-11-2013 23:25:00 8.1 C 8.07 g/m*3 8.1 C 3.2 km/h
1927 01-11-2013 23:30:00 8.1 C 8.07 g/m*3 8.1 C 0 km/h
1928 01-11-2013 23:35:00 8.1 C 8.07 g/m*3 8.1 C 0 km/h
1929 01-11-2013 23:40:00 8.1 C 8.07 g/m*3 8.1 C 1.6 km/h
1930 01-11-2013 23:45:00 8.1 C 8.07 g/m*3 8.1 C 0 km/h
1931 01-11-2013 23:50:00 8.2 C 8.12 g/m*3 8.2 C 0 km/h
1932 01-11-2013 23:55:00 8.2 C 8.12 g/m*3 8.2 C 0 km/h
1933 02-11-2013 00:00:00 8.2 C 8.12 g/m*3 8.2 C 0 km/h
1934 02-11-2013 00:05:00 8.2 C 8.12 g/m*3 8.2 C 0 km/h
1935 02-11-2013 00:10:00 8.2 C 8.12 g/m*3 8.2 C 0 km/h
1936 02-11-2013 00:15:00 8.2 C 8.12 g/m*3 8.2 C 0 km/h
1937 02-11-2013 00:20:00 8.2 C 8.12 g/m*3 8.2 C 0 km/h
1938 02-11-2013 00:25:00 8.3 C 8.18 g/m*3 8.3 C 0 km/h
1939 02-11-2013 00:30:00 8.3 C 8.18 g/m*3 8.3 C 0 km/h
1940 02-11-2013 00:35:00 8.3 C 8.18 g/m*3 8.3 C 0 km/h
1941 02-11-2013 00:40:00 8.4 C 8.23 g/m*3 8.4 C 0 km/h
1942 02-11-2013 00:45:00 8.4 C 8.23 g/m*3 8.4 C 0 km/h
1943 02-11-2013 00:50:00 8.4 C 8.23 g/m*3 8.4 C 0 km/h
1944 02-11-2013 00:55:00 8.4 C 8.23 g/m*3 8.4 C 0 km/h
1945 02-11-2013 01:00:00 8.5 C 8.28 g/m*3 8.5 C 0 km/h
1946 02-11-2013 01:05:00 8.5 C 8.28 g/m*3 8.5 C 0 km/h
1947 02-11-2013 01:10:00 8.5 C 8.28 g/m*3 8.5 C 0 km/h
1948 02-11-2013 01:15:00 8.5 C 8.28 g/m*3 8.5 C 0 km/h
1949 02-11-2013 01:20:00 8.6 C 8.34 g/m*3 8.6 C 0 km/h
1950 02-11-2013 01:25:00 8.6 C 8.34 g/m*3 8.6 C 0 km/h
Sensor: Nr:Datum:Temp:Abs-Feuchte:Windchill:Wind:
Aussen-T/F 1951 02-11-2013 01:30:00 8.6 C 8.34 g/m*3 8.6 C 0 km/h
1952 02-11-2013 01:35:00 8.6 C 8.34 g/m*3 8.6 C 0 km/h
1953 02-11-2013 01:40:00 8.6 C 8.42 g/m*3 8.6 C 0 km/h
1954 02-11-2013 01:45:00 8.6 C 8.42 g/m*3 8.6 C 0 km/h
1955 02-11-2013 01:50:00 8.6 C 8.34 g/m*3 8.6 C 0 km/h
1956 02-11-2013 01:55:00 8.6 C 8.42 g/m*3 8.6 C 0 km/h
1957 02-11-2013 02:00:00 8.7 C 8.48 g/m*3 8.7 C 0 km/h
1958 02-11-2013 02:05:00 8.7 C 8.48 g/m*3 8.7 C 0 km/h
1959 02-11-2013 02:10:00 8.7 C 8.48 g/m*3 8.7 C 0 km/h
1960 02-11-2013 02:15:00 8.7 C 8.39 g/m*3 8.7 C 0 km/h
1961 02-11-2013 02:20:00 8.7 C 8.39 g/m*3 8.7 C 0 km/h
1962 02-11-2013 02:25:00 8.7 C 8.39 g/m*3 8.7 C 0 km/h
1963 02-11-2013 02:30:00 8.7 C 8.39 g/m*3 8.7 C 0 km/h
1964 02-11-2013 02:35:00 8.7 C 8.39 g/m*3 8.7 C 0 km/h
1965 02-11-2013 02:40:00 8.7 C 8.39 g/m*3 8.7 C 0 km/h
1966 02-11-2013 02:45:00 8.7 C 8.39 g/m*3 8.7 C 0 km/h
1967 02-11-2013 02:50:00 8.7 C 8.39 g/m*3 8.7 C 0 km/h
1968 02-11-2013 02:55:00 8.7 C 8.39 g/m*3 8.7 C 0 km/h
1969 02-11-2013 03:00:00 8.7 C 8.39 g/m*3 8.7 C 1.6 km/h
1970 02-11-2013 03:05:00 8.8 C 8.53 g/m*3 8.8 C 3.2 km/h
1971 02-11-2013 03:10:00 8.9 C 8.58 g/m*3 8.9 C 0 km/h
1972 02-11-2013 03:15:00 9 C 8.64 g/m*3 9 C 0 km/h
1973 02-11-2013 03:20:00 9.2 C 8.75 g/m*3 9.2 C 0 km/h
1974 02-11-2013 03:25:00 9.2 C 8.75 g/m*3 9.2 C 0 km/h
1975 02-11-2013 03:30:00 9.3 C 8.81 g/m*3 9.3 C 0 km/h
Sensor: Nr:Datum:Temp:Abs-Feuchte:Windchill:Wind:
Aussen-T/F 1976 02-11-2013 03:35:00 9.3 C 8.81 g/m*3 9.3 C 0 km/h
1977 02-11-2013 03:40:00 9.3 C 8.81 g/m*3 9.3 C 0 km/h
1978 02-11-2013 03:45:00 9.3 C 8.81 g/m*3 9.3 C 1.6 km/h
1979 02-11-2013 03:50:00 9.3 C 8.81 g/m*3 9.3 C 0 km/h
1980 02-11-2013 03:55:00 9.4 C 8.86 g/m*3 9.4 C 0 km/h
1981 02-11-2013 04:00:00 9.4 C 8.86 g/m*3 9.4 C 0 km/h
1982 02-11-2013 04:05:00 9.4 C 8.86 g/m*3 9.4 C 0 km/h
1983 02-11-2013 04:10:00 9.4 C 8.86 g/m*3 9.4 C 1.6 km/h
1984 02-11-2013 04:15:00 9.4 C 8.86 g/m*3 9.4 C 0 km/h
1985 02-11-2013 04:20:00 9.4 C 8.86 g/m*3 9.4 C 3.2 km/h
1986 02-11-2013 04:25:00 9.4 C 8.86 g/m*3 9.4 C 0 km/h
1987 02-11-2013 04:30:00 9.4 C 8.86 g/m*3 9.4 C 0 km/h
1988 02-11-2013 04:35:00 9.4 C 8.86 g/m*3 9.4 C 3.2 km/h
1989 02-11-2013 04:40:00 9.4 C 8.86 g/m*3 9.4 C 1.6 km/h
1990 02-11-2013 04:45:00 9.4 C 8.86 g/m*3 9.4 C 0 km/h
1991 02-11-2013 04:50:00 9.4 C 8.86 g/m*3 9.4 C 0 km/h
1992 02-11-2013 04:55:00 9.4 C 8.86 g/m*3 9.4 C 0 km/h
1993 02-11-2013 06:25:00 10 C 9.4 g/m*3 10 C 4.8 km/h
1994 02-11-2013 06:30:00 10.1 C 9.27 g/m*3 10.1 C 0 km/h
1995 02-11-2013 06:35:00 10.1 C 9.27 g/m*3 10.1 C 0 km/h
1996 02-11-2013 06:40:00 10.1 C 9.27 g/m*3 10.1 C 0 km/h
1997 02-11-2013 06:45:00 10 C 9.21 g/m*3 10 C 0 km/h
1998 02-11-2013 06:50:00 10.1 C 9.27 g/m*3 10.1 C 3.2 km/h
1999 02-11-2013 06:55:00 10.2 C 9.33 g/m*3 10.2 C 1.6 km/h
2000 02-11-2013 07:00:00 10.2 C 9.33 g/m*3 10.2 C 1.6 km/h
Sensor: Nr:Datum:Temp:Abs-Feuchte:Windchill:Wind:
Aussen-T/F 2001 02-11-2013 07:05:00 10.3 C 9.39 g/m*3 10.3 C 3.2 km/h
2002 02-11-2013 07:10:00 10.4 C 9.44 g/m*3 10.4 C 0 km/h
2003 02-11-2013 07:15:00 10.4 C 9.44 g/m*3 10.4 C 1.6 km/h
2004 02-11-2013 07:20:00 10.5 C 9.5 g/m*3 9.95 C 6.4 km/h
2005 02-11-2013 07:25:00 10.7 C 9.63 g/m*3 10.7 C 0 km/h
2006 02-11-2013 07:30:00 10.7 C 9.63 g/m*3 10.7 C 3.2 km/h
2007 02-11-2013 07:35:00 10.8 C 9.69 g/m*3 10.8 C 1.6 km/h
2008 02-11-2013 07:40:00 10.8 C 9.69 g/m*3 10.8 C 4.8 km/h
2009 02-11-2013 07:45:00 10.9 C 9.75 g/m*3 10.9 C 3.2 km/h
2010 02-11-2013 07:50:00 11 C 9.81 g/m*3 11 C 1.6 km/h
2011 02-11-2013 07:55:00 11.1 C 9.87 g/m*3 11.1 C 4.8 km/h
2012 02-11-2013 08:00:00 11.1 C 9.87 g/m*3 11.1 C 4.8 km/h
2013 02-11-2013 08:05:00 11.2 C 9.93 g/m*3 11.2 C 3.2 km/h
2014 02-11-2013 08:10:00 11.3 C 10 g/m*3 11.3 C 6.4 km/h
2015 02-11-2013 08:15:00 11.3 C 10 g/m*3 11.3 C 4.8 km/h
2016 02-11-2013 08:20:00 11.4 C 10.06 g/m*3 11.4 C 1.6 km/h
2017 02-11-2013 08:25:00 11.4 C 10.06 g/m*3 11.4 C 6.4 km/h
2018 02-11-2013 08:30:00 11.5 C 10.12 g/m*3 11.5 C 1.6 km/h
2019 02-11-2013 08:35:00 11.5 C 10.12 g/m*3 11.5 C 4.8 km/h
2020 02-11-2013 08:40:00 11.6 C 10.19 g/m*3 11.6 C 3.2 km/h
2021 02-11-2013 08:45:00 11.7 C 10.25 g/m*3 11.7 C 8.1 km/h
2022 02-11-2013 08:50:00 11.9 C 10.38 g/m*3 11.9 C 6.4 km/h
2023 02-11-2013 08:55:00 12 C 10.44 g/m*3 12 C 8.1 km/h
2024 02-11-2013 09:00:00 12.1 C 10.51 g/m*3 12.1 C 8.1 km/h
2025 02-11-2013 09:05:00 12.2 C 10.47 g/m*3 12.2 C 4.8 km/h
Sensor: Nr:Datum:Temp:Abs-Feuchte:Windchill:Wind:
Aussen-T/F 2026 02-11-2013 09:10:00 12.3 C 10.53 g/m*3 12.3 C 4.8 km/h
2027 02-11-2013 09:15:00 12.4 C 10.6 g/m*3 12.4 C 4.8 km/h
2028 02-11-2013 09:20:00 12.4 C 10.6 g/m*3 12.4 C 8.1 km/h
2029 02-11-2013 09:25:00 12.5 C 10.55 g/m*3 12.5 C 3.2 km/h
2030 02-11-2013 09:30:00 12.6 C 10.62 g/m*3 12.6 C 3.2 km/h
2031 02-11-2013 09:35:00 12.8 C 10.75 g/m*3 12.8 C 3.2 km/h
2032 02-11-2013 09:40:00 12.9 C 10.71 g/m*3 12.9 C 11.3 km/h
2033 02-11-2013 09:45:00 13.2 C 10.91 g/m*3 13.2 C 6.4 km/h
2034 02-11-2013 09:50:00 13.3 C 10.98 g/m*3 13.3 C 3.2 km/h
2035 02-11-2013 09:55:00 13.3 C 10.86 g/m*3 13.3 C 1.6 km/h
2036 02-11-2013 10:00:00 13.3 C 10.86 g/m*3 13.3 C 3.2 km/h
2037 02-11-2013 10:05:00 13.4 C 10.93 g/m*3 13.4 C 4.8 km/h
2038 02-11-2013 10:10:00 13.6 C 11.06 g/m*3 13.6 C 14.5 km/h
2039 02-11-2013 10:15:00 13.7 C 11.01 g/m*3 13.7 C 4.8 km/h
2040 02-11-2013 10:20:00 13.8 C 11.08 g/m*3 13.8 C 4.8 km/h
2041 02-11-2013 10:25:00 13.8 C 11.08 g/m*3 13.8 C 6.4 km/h
2042 02-11-2013 10:30:00 13.9 C 11.03 g/m*3 13.9 C 11.3 km/h
2043 02-11-2013 10:35:00 14.1 C 11.17 g/m*3 14.1 C 8.1 km/h
2044 02-11-2013 10:40:00 14.1 C 11.04 g/m*3 14.1 C 6.4 km/h
2045 02-11-2013 10:45:00 14.1 C 11.17 g/m*3 14.1 C 11.3 km/h
2046 02-11-2013 10:50:00 14.2 C 11.23 g/m*3 14.2 C 11.3 km/h
2047 02-11-2013 10:55:00 14.1 C 11.17 g/m*3 14.1 C 14.5 km/h
2048 02-11-2013 11:00:00 14.2 C 11.23 g/m*3 14.2 C 14.5 km/h
2049 02-11-2013 11:05:00 14.3 C 11.3 g/m*3 14.3 C 16.1 km/h
2050 02-11-2013 11:10:00 14.4 C 11.37 g/m*3 14.4 C 11.3 km/h
Sensor: Nr:Datum:Temp:Abs-Feuchte:Windchill:Wind:
Aussen-T/F 2051 02-11-2013 11:15:00 14.7 C 11.58 g/m*3 14.7 C 12.9 km/h
2052 02-11-2013 11:20:00 14.8 C 11.4 g/m*3 14.8 C 14.5 km/h
2053 02-11-2013 11:25:00 14.9 C 11.47 g/m*3 14.9 C 17.7 km/h
2054 02-11-2013 11:30:00 14.9 C 11.47 g/m*3 14.9 C 14.5 km/h
2055 02-11-2013 11:35:00 15 C 11.54 g/m*3 15 C 19.3 km/h
2056 02-11-2013 11:40:00 15.1 C 11.48 g/m*3 15.1 C 25.7 km/h
2057 02-11-2013 11:45:00 15.2 C 11.55 g/m*3 15.2 C 19.3 km/h
2058 02-11-2013 11:50:00 15.3 C 11.49 g/m*3 15.3 C 17.7 km/h
2059 02-11-2013 11:55:00 15.4 C 11.56 g/m*3 15.4 C 19.3 km/h
2060 02-11-2013 12:00:00 15.4 C 11.56 g/m*3 15.4 C 19.3 km/h
2061 02-11-2013 12:05:00 15.5 C 11.63 g/m*3 15.5 C 14.5 km/h
2062 02-11-2013 12:10:00 15.6 C 11.7 g/m*3 15.6 C 17.7 km/h
2063 02-11-2013 12:15:00 15.6 C 11.7 g/m*3 15.6 C 14.5 km/h
2064 02-11-2013 12:20:00 15.6 C 11.7 g/m*3 15.6 C 11.3 km/h
2065 02-11-2013 12:25:00 15.6 C 11.7 g/m*3 15.6 C 9.7 km/h
2066 02-11-2013 12:30:00 15.6 C 11.84 g/m*3 15.6 C 14.5 km/h
2067 02-11-2013 12:35:00 15.6 C 11.7 g/m*3 15.6 C 20.9 km/h
2068 02-11-2013 12:40:00 15.4 C 11.69 g/m*3 15.4 C 16.1 km/h
2069 02-11-2013 12:45:00 15.3 C 11.62 g/m*3 15.3 C 12.9 km/h
2070 02-11-2013 12:50:00 15.3 C 11.75 g/m*3 15.3 C 17.7 km/h
2071 02-11-2013 12:55:00 15.2 C 11.68 g/m*3 15.2 C 12.9 km/h
2072 02-11-2013 13:00:00 15.3 C 11.88 g/m*3 15.3 C 14.5 km/h
2073 02-11-2013 13:05:00 15.4 C 11.82 g/m*3 15.4 C 16.1 km/h
2074 02-11-2013 13:10:00 15.6 C 11.84 g/m*3 15.6 C 14.5 km/h
2075 02-11-2013 13:15:00 15.7 C 11.91 g/m*3 15.7 C 16.1 km/h
Sensor: Nr:Datum:Temp:Abs-Feuchte:Windchill:Wind:
Aussen-T/F 2076 02-11-2013 13:20:00 15.7 C 11.77 g/m*3 15.7 C 16.1 km/h
2077 02-11-2013 13:25:00 15.8 C 11.85 g/m*3 15.8 C 25.7 km/h
2078 02-11-2013 13:30:00 15.8 C 11.85 g/m*3 15.8 C 17.7 km/h
2079 02-11-2013 13:35:00 15.8 C 11.85 g/m*3 15.8 C 14.5 km/h
2080 02-11-2013 13:40:00 15.9 C 11.92 g/m*3 15.9 C 22.5 km/h
2081 02-11-2013 13:45:00 15.9 C 11.92 g/m*3 15.9 C 12.9 km/h
2082 02-11-2013 13:50:00 16 C 11.99 g/m*3 16 C 14.5 km/h
2083 02-11-2013 13:55:00 16.1 C 11.93 g/m*3 16.1 C 19.3 km/h
2084 02-11-2013 14:00:00 16.1 C 11.93 g/m*3 16.1 C 19.3 km/h
2085 02-11-2013 14:05:00 16.1 C 11.93 g/m*3 16.1 C 20.9 km/h
2086 02-11-2013 14:10:00 16.1 C 11.93 g/m*3 16.1 C 16.1 km/h
2087 02-11-2013 14:15:00 16.1 C 11.93 g/m*3 16.1 C 22.5 km/h
2088 02-11-2013 14:20:00 16.1 C 11.93 g/m*3 16.1 C 20.9 km/h
2089 02-11-2013 14:25:00 16.1 C 12.06 g/m*3 16.1 C 25.7 km/h
2090 02-11-2013 14:30:00 16 C 11.99 g/m*3 16 C 19.3 km/h
2091 02-11-2013 14:35:00 16 C 11.99 g/m*3 16 C 19.3 km/h
2092 02-11-2013 14:40:00 16.1 C 11.93 g/m*3 16.1 C 24.1 km/h
2093 02-11-2013 14:45:00 16.1 C 11.93 g/m*3 16.1 C 20.9 km/h
2094 02-11-2013 14:50:00 16.2 C 12 g/m*3 16.2 C 22.5 km/h
2095 02-11-2013 14:55:00 16.2 C 12 g/m*3 16.2 C 16.1 km/h
2096 02-11-2013 15:00:00 16.3 C 11.93 g/m*3 16.3 C 14.5 km/h
2097 02-11-2013 15:05:00 16.3 C 11.93 g/m*3 16.3 C 14.5 km/h
2098 02-11-2013 15:10:00 16.3 C 11.79 g/m*3 16.3 C 14.5 km/h
2099 02-11-2013 15:15:00 16.3 C 11.79 g/m*3 16.3 C 12.9 km/h
2100 02-11-2013 15:20:00 16.3 C 11.79 g/m*3 16.3 C 12.9 km/h
Sensor: Nr:Datum:Temp:Abs-Feuchte:Windchill:Wind:
Aussen-T/F 2101 02-11-2013 15:25:00 16.3 C 11.79 g/m*3 16.3 C 17.7 km/h
2102 02-11-2013 15:30:00 16.3 C 11.79 g/m*3 16.3 C 14.5 km/h
2103 02-11-2013 15:35:00 16.3 C 11.79 g/m*3 16.3 C 17.7 km/h
2104 02-11-2013 15:40:00 16.3 C 11.93 g/m*3 16.3 C 19.3 km/h
2105 02-11-2013 15:45:00 16.2 C 11.72 g/m*3 16.2 C 19.3 km/h
2106 02-11-2013 15:50:00 16.3 C 11.79 g/m*3 16.3 C 20.9 km/h
2107 02-11-2013 15:55:00 16.3 C 11.79 g/m*3 16.3 C 16.1 km/h
2108 02-11-2013 16:00:00 16.3 C 11.65 g/m*3 16.3 C 12.9 km/h
2109 02-11-2013 16:05:00 16.3 C 11.65 g/m*3 16.3 C 14.5 km/h
2110 02-11-2013 16:10:00 16.2 C 11.45 g/m*3 16.2 C 29 km/h
2111 02-11-2013 16:15:00 16.2 C 11.31 g/m*3 16.2 C 29 km/h
2112 02-11-2013 16:20:00 16.2 C 11.31 g/m*3 16.2 C 12.9 km/h
2113 02-11-2013 16:25:00 16.1 C 11.24 g/m*3 16.1 C 14.5 km/h
2114 02-11-2013 16:30:00 16.1 C 11.1 g/m*3 16.1 C 17.7 km/h
2115 02-11-2013 16:35:00 16 C 11.04 g/m*3 16 C 17.7 km/h
2116 02-11-2013 16:40:00 15.9 C 10.83 g/m*3 15.9 C 16.1 km/h
2117 02-11-2013 16:45:00 15.8 C 10.77 g/m*3 15.8 C 11.3 km/h
2118 02-11-2013 16:50:00 15.7 C 10.7 g/m*3 15.7 C 11.3 km/h
2119 02-11-2013 16:55:00 15.7 C 10.7 g/m*3 15.7 C 12.9 km/h
2120 02-11-2013 17:00:00 15.6 C 10.77 g/m*3 15.6 C 8.1 km/h
2121 02-11-2013 17:05:00 15.4 C 10.64 g/m*3 15.4 C 12.9 km/h
2122 02-11-2013 17:10:00 15.4 C 10.64 g/m*3 15.4 C 11.3 km/h
2123 02-11-2013 17:15:00 15.3 C 10.58 g/m*3 15.3 C 6.4 km/h
2124 02-11-2013 17:20:00 15.3 C 10.58 g/m*3 15.3 C 12.9 km/h
2125 02-11-2013 17:25:00 15.3 C 10.58 g/m*3 15.3 C 16.1 km/h
Sensor: Nr:Datum:Temp:Abs-Feuchte:Windchill:Wind:
Aussen-T/F 2126 02-11-2013 17:30:00 15.3 C 10.58 g/m*3 15.3 C 11.3 km/h
2127 02-11-2013 17:35:00 15.2 C 10.51 g/m*3 15.2 C 14.5 km/h
2128 02-11-2013 17:40:00 15.1 C 10.45 g/m*3 15.1 C 8.1 km/h
2129 02-11-2013 17:45:00 15.1 C 10.58 g/m*3 15.1 C 6.4 km/h
2130 02-11-2013 17:50:00 15 C 10.39 g/m*3 15 C 14.5 km/h
2131 02-11-2013 17:55:00 14.9 C 10.2 g/m*3 14.9 C 16.1 km/h
2132 02-11-2013 18:00:00 14.9 C 10.32 g/m*3 14.9 C 12.9 km/h
2133 02-11-2013 18:05:00 14.8 C 10.26 g/m*3 14.8 C 8.1 km/h
2134 02-11-2013 18:10:00 14.8 C 10.13 g/m*3 14.8 C 12.9 km/h
2135 02-11-2013 18:15:00 14.7 C 10.2 g/m*3 14.7 C 4.8 km/h
2136 02-11-2013 18:20:00 14.6 C 10.14 g/m*3 14.6 C 11.3 km/h
2137 02-11-2013 18:25:00 14.5 C 10.07 g/m*3 14.5 C 9.7 km/h
2138 02-11-2013 18:30:00 14.4 C 9.89 g/m*3 14.4 C 12.9 km/h
2139 02-11-2013 18:35:00 14.3 C 9.95 g/m*3 14.3 C 9.7 km/h
2140 02-11-2013 18:40:00 14.2 C 9.89 g/m*3 14.2 C 8.1 km/h
2141 02-11-2013 18:45:00 13.9 C 9.83 g/m*3 13.9 C 3.2 km/h
2142 02-11-2013 18:50:00 13.8 C 9.89 g/m*3 13.8 C 6.4 km/h
2143 02-11-2013 18:55:00 13.7 C 9.83 g/m*3 13.7 C 3.2 km/h
2144 02-11-2013 19:00:00 13.6 C 9.89 g/m*3 13.6 C 4.8 km/h
2145 02-11-2013 19:05:00 13.6 C 9.89 g/m*3 13.6 C 3.2 km/h
2146 02-11-2013 19:10:00 13.4 C 9.88 g/m*3 13.4 C 3.2 km/h
2147 02-11-2013 19:15:00 13.4 C 9.88 g/m*3 13.4 C 11.3 km/h
2148 02-11-2013 19:20:00 13.5 C 9.83 g/m*3 13.5 C 11.3 km/h
2149 02-11-2013 19:25:00 13.5 C 9.83 g/m*3 13.5 C 8.1 km/h
2150 02-11-2013 19:30:00 13.4 C 9.88 g/m*3 13.4 C 3.2 km/h
Sensor: Nr:Datum:Temp:Abs-Feuchte:Windchill:Wind:
Aussen-T/F 2151 02-11-2013 19:35:00 13.3 C 9.94 g/m*3 13.3 C 1.6 km/h
2152 02-11-2013 19:40:00 13 C 9.87 g/m*3 13 C 0 km/h
2153 02-11-2013 19:45:00 12.8 C 9.86 g/m*3 12.8 C 1.6 km/h
2154 02-11-2013 19:50:00 12.6 C 9.74 g/m*3 12.6 C 3.2 km/h
2155 02-11-2013 19:55:00 12.6 C 9.85 g/m*3 12.6 C 1.6 km/h
2156 02-11-2013 20:00:00 12.6 C 9.85 g/m*3 12.6 C 1.6 km/h
2157 02-11-2013 20:05:00 12.6 C 9.85 g/m*3 12.6 C 1.6 km/h
2158 02-11-2013 20:10:00 12.4 C 9.83 g/m*3 12.4 C 0 km/h
2159 02-11-2013 20:15:00 12.4 C 9.83 g/m*3 12.4 C 0 km/h
2160 02-11-2013 20:20:00 12.3 C 9.77 g/m*3 12.3 C 0 km/h
2161 02-11-2013 20:25:00 12.4 C 9.94 g/m*3 12.4 C 0 km/h
2162 02-11-2013 20:30:00 12.4 C 9.94 g/m*3 12.4 C 0 km/h
2163 02-11-2013 20:35:00 12.4 C 9.94 g/m*3 12.4 C 4.8 km/h
2164 02-11-2013 20:40:00 12.8 C 9.97 g/m*3 12.8 C 8.1 km/h
2165 02-11-2013 20:45:00 13.1 C 10.04 g/m*3 13.1 C 6.4 km/h
2166 02-11-2013 20:50:00 13.3 C 9.94 g/m*3 13.3 C 6.4 km/h
2167 02-11-2013 20:55:00 13.7 C 10.07 g/m*3 13.7 C 16.1 km/h
2168 02-11-2013 21:00:00 13.9 C 9.95 g/m*3 13.9 C 11.3 km/h
2169 02-11-2013 21:05:00 14.1 C 9.95 g/m*3 14.1 C 9.7 km/h
2170 02-11-2013 21:10:00 14.2 C 10.01 g/m*3 14.2 C 9.7 km/h
2171 02-11-2013 21:15:00 14.2 C 9.89 g/m*3 14.2 C 11.3 km/h
2172 02-11-2013 21:20:00 14.2 C 9.89 g/m*3 14.2 C 19.3 km/h
2173 02-11-2013 21:25:00 14.1 C 9.83 g/m*3 14.1 C 12.9 km/h
2174 02-11-2013 21:30:00 14.1 C 9.83 g/m*3 14.1 C 4.8 km/h
2175 02-11-2013 21:35:00 13.9 C 9.83 g/m*3 13.9 C 4.8 km/h
Sensor: Nr:Datum:Temp:Abs-Feuchte:Windchill:Wind:
Aussen-T/F 2176 02-11-2013 21:40:00 13.8 C 9.77 g/m*3 13.8 C 8.1 km/h
2177 02-11-2013 21:45:00 13.8 C 9.89 g/m*3 13.8 C 1.6 km/h
2178 02-11-2013 21:50:00 13.6 C 9.77 g/m*3 13.6 C 4.8 km/h
2179 02-11-2013 21:55:00 13.6 C 9.77 g/m*3 13.6 C 3.2 km/h
2180 02-11-2013 22:00:00 13.5 C 9.71 g/m*3 13.5 C 11.3 km/h
2181 02-11-2013 22:05:00 13.4 C 9.88 g/m*3 13.4 C 1.6 km/h
2182 02-11-2013 22:10:00 13.4 C 9.88 g/m*3 13.4 C 1.6 km/h
2183 02-11-2013 22:15:00 13.3 C 9.82 g/m*3 13.3 C 0 km/h
2184 02-11-2013 22:20:00 13.3 C 9.82 g/m*3 13.3 C 6.4 km/h
2185 02-11-2013 22:25:00 13.4 C 9.88 g/m*3 13.4 C 1.6 km/h
2186 02-11-2013 22:30:00 13.3 C 9.94 g/m*3 13.3 C 3.2 km/h
2187 02-11-2013 22:35:00 13.3 C 9.82 g/m*3 13.3 C 3.2 km/h
2188 02-11-2013 22:40:00 13.3 C 9.82 g/m*3 13.3 C 4.8 km/h
2189 02-11-2013 22:45:00 13.3 C 9.94 g/m*3 13.3 C 3.2 km/h
2190 02-11-2013 22:50:00 13.2 C 9.87 g/m*3 13.2 C 1.6 km/h
2191 02-11-2013 22:55:00 13.3 C 9.82 g/m*3 13.3 C 3.2 km/h
2192 02-11-2013 23:00:00 13.4 C 9.76 g/m*3 13.4 C 4.8 km/h
2193 02-11-2013 23:05:00 13.4 C 9.88 g/m*3 13.4 C 1.6 km/h
2194 02-11-2013 23:10:00 13.3 C 9.94 g/m*3 13.3 C 0 km/h
2195 02-11-2013 23:15:00 13.3 C 9.94 g/m*3 13.3 C 3.2 km/h
2196 02-11-2013 23:20:00 13.2 C 9.99 g/m*3 13.2 C 0 km/h
2197 02-11-2013 23:25:00 13 C 9.87 g/m*3 13 C 4.8 km/h
2198 02-11-2013 23:30:00 13 C 9.87 g/m*3 13 C 3.2 km/h
2199 02-11-2013 23:35:00 12.9 C 9.92 g/m*3 12.9 C 1.6 km/h
2200 02-11-2013 23:40:00 12.9 C 10.03 g/m*3 12.9 C 0 km/h
Sensor: Nr:Datum:Temp:Abs-Feuchte:Windchill:Wind:
Aussen-T/F 2201 02-11-2013 23:45:00 12.8 C 9.97 g/m*3 12.8 C 0 km/h
2202 02-11-2013 23:50:00 12.8 C 10.08 g/m*3 12.8 C 0 km/h
2203 02-11-2013 23:55:00 12.7 C 10.02 g/m*3 12.7 C 1.6 km/h
2204 03-11-2013 00:00:00 12.7 C 9.91 g/m*3 12.7 C 0 km/h
2205 03-11-2013 00:05:00 12.7 C 9.91 g/m*3 12.7 C 3.2 km/h
2206 03-11-2013 00:10:00 12.7 C 9.91 g/m*3 12.7 C 3.2 km/h
2207 03-11-2013 00:15:00 12.7 C 9.91 g/m*3 12.7 C 0 km/h
2208 03-11-2013 00:20:00 12.7 C 9.91 g/m*3 12.7 C 1.6 km/h
2209 03-11-2013 00:25:00 12.6 C 9.85 g/m*3 12.6 C 3.2 km/h
2210 03-11-2013 00:30:00 12.6 C 9.96 g/m*3 12.6 C 0 km/h
2211 03-11-2013 00:35:00 12.6 C 9.85 g/m*3 12.6 C 3.2 km/h
2212 03-11-2013 00:40:00 12.6 C 9.85 g/m*3 12.6 C 0 km/h
2213 03-11-2013 00:45:00 12.7 C 9.91 g/m*3 12.7 C 0 km/h
2214 03-11-2013 00:50:00 12.7 C 9.91 g/m*3 12.7 C 1.6 km/h
2215 03-11-2013 00:55:00 12.7 C 9.8 g/m*3 12.7 C 1.6 km/h
2216 03-11-2013 01:00:00 12.8 C 9.74 g/m*3 12.8 C 3.2 km/h
2217 03-11-2013 01:05:00 12.9 C 9.92 g/m*3 12.9 C 3.2 km/h
2218 03-11-2013 01:10:00 13 C 9.64 g/m*3 13 C 1.6 km/h
2219 03-11-2013 01:15:00 13.2 C 9.87 g/m*3 13.2 C 3.2 km/h
2220 03-11-2013 01:20:00 13.2 C 9.87 g/m*3 13.2 C 0 km/h
2221 03-11-2013 01:25:00 13.2 C 9.87 g/m*3 13.2 C 1.6 km/h
2222 03-11-2013 01:30:00 13.1 C 9.93 g/m*3 13.1 C 0 km/h
2223 03-11-2013 01:35:00 13.1 C 9.81 g/m*3 13.1 C 1.6 km/h
2224 03-11-2013 01:40:00 13.1 C 9.93 g/m*3 13.1 C 1.6 km/h
2225 03-11-2013 01:45:00 13 C 9.98 g/m*3 13 C 0 km/h
Sensor: Nr:Datum:Temp:Abs-Feuchte:Windchill:Wind:
Aussen-T/F 2226 03-11-2013 01:50:00 12.9 C 10.03 g/m*3 12.9 C 3.2 km/h
2227 03-11-2013 01:55:00 12.8 C 9.86 g/m*3 12.8 C 1.6 km/h
2228 03-11-2013 02:00:00 12.8 C 9.86 g/m*3 12.8 C 1.6 km/h
2229 03-11-2013 02:05:00 12.9 C 9.92 g/m*3 12.9 C 3.2 km/h
2230 03-11-2013 02:10:00 13 C 9.87 g/m*3 13 C 1.6 km/h
2231 03-11-2013 02:15:00 13.2 C 9.99 g/m*3 13.2 C 17.7 km/h
2232 03-11-2013 02:20:00 13.5 C 10.18 g/m*3 13.5 C 17.7 km/h
2233 03-11-2013 02:25:00 13.3 C 10.28 g/m*3 13.3 C 9.7 km/h
2234 03-11-2013 02:30:00 13.1 C 10.16 g/m*3 13.1 C 12.9 km/h
2235 03-11-2013 02:35:00 12.8 C 9.97 g/m*3 12.8 C 12.9 km/h
2236 03-11-2013 02:40:00 12.4 C 9.51 g/m*3 12.4 C 11.3 km/h
2237 03-11-2013 02:45:00 12.2 C 9.39 g/m*3 12.2 C 14.5 km/h
2238 03-11-2013 02:50:00 11.8 C 9.26 g/m*3 11.8 C 6.4 km/h
2239 03-11-2013 02:55:00 11.5 C 9.3 g/m*3 11.5 C 4.8 km/h
2240 03-11-2013 03:00:00 11.3 C 9.08 g/m*3 11.3 C 6.4 km/h
2241 03-11-2013 03:05:00 11.2 C 9.12 g/m*3 11.2 C 4.8 km/h
2242 03-11-2013 03:10:00 11.1 C 9.17 g/m*3 11.1 C 8.1 km/h
2243 03-11-2013 03:15:00 10.9 C 8.95 g/m*3 8.9 C 16.1 km/h
2244 03-11-2013 03:20:00 10.8 C 8.9 g/m*3 10.8 C 3.2 km/h
2245 03-11-2013 03:25:00 10.7 C 8.94 g/m*3 10.7 C 4.8 km/h
2246 03-11-2013 03:30:00 10.6 C 8.78 g/m*3 10.6 C 4.8 km/h
2247 03-11-2013 03:35:00 10.4 C 8.67 g/m*3 9.83 C 6.4 km/h
2248 03-11-2013 03:40:00 10.3 C 8.62 g/m*3 10.3 C 3.2 km/h
2249 03-11-2013 03:45:00 10.3 C 8.62 g/m*3 8.55 C 12.9 km/h
2250 03-11-2013 03:50:00 10.2 C 8.56 g/m*3 9.6 C 6.4 km/h
Sensor: Nr:Datum:Temp:Abs-Feuchte:Windchill:Wind:
Aussen-T/F 2251 03-11-2013 03:55:00 10.2 C 8.56 g/m*3 9.22 C 8.1 km/h
2252 03-11-2013 04:00:00 10.1 C 8.51 g/m*3 10.1 C 3.2 km/h
2253 03-11-2013 04:05:00 10 C 8.55 g/m*3 10 C 3.2 km/h
2254 03-11-2013 04:10:00 10.1 C 8.61 g/m*3 10.1 C 3.2 km/h
2255 03-11-2013 04:15:00 10.1 C 8.61 g/m*3 10.1 C 1.6 km/h
2256 03-11-2013 04:20:00 10 C 8.64 g/m*3 8.68 C 9.7 km/h
2257 03-11-2013 04:25:00 10 C 8.55 g/m*3 8.19 C 12.9 km/h
2258 03-11-2013 04:30:00 10.1 C 8.51 g/m*3 9.48 C 6.4 km/h
2259 03-11-2013 04:35:00 10.1 C 8.61 g/m*3 10.1 C 3.2 km/h
2260 03-11-2013 04:40:00 10.1 C 8.61 g/m*3 10.1 C 1.6 km/h
2261 03-11-2013 04:45:00 10 C 8.55 g/m*3 8.99 C 8.1 km/h
2262 03-11-2013 04:50:00 10 C 8.46 g/m*3 10 C 3.2 km/h
2263 03-11-2013 04:55:00 10 C 8.46 g/m*3 10 C 3.2 km/h
2264 03-11-2013 05:00:00 9.9 C 8.5 g/m*3 9.9 C 3.2 km/h
2265 03-11-2013 05:05:00 9.8 C 8.35 g/m*3 9.8 C 4.8 km/h
2266 03-11-2013 05:10:00 9.8 C 8.35 g/m*3 8.75 C 8.1 km/h
2267 03-11-2013 05:15:00 9.8 C 8.26 g/m*3 9.8 C 4.8 km/h
2268 03-11-2013 05:20:00 9.8 C 8.26 g/m*3 9.14 C 6.4 km/h
2269 03-11-2013 05:25:00 9.8 C 8.26 g/m*3 9.8 C 3.2 km/h
2270 03-11-2013 05:30:00 9.8 C 8.35 g/m*3 9.8 C 4.8 km/h
2271 03-11-2013 05:35:00 9.7 C 8.2 g/m*3 9.7 C 3.2 km/h
2272 03-11-2013 05:40:00 9.7 C 8.2 g/m*3 9.02 C 6.4 km/h
2273 03-11-2013 05:45:00 9.7 C 8.2 g/m*3 9.7 C 3.2 km/h
2274 03-11-2013 05:50:00 9.8 C 8.16 g/m*3 8.18 C 11.3 km/h
2275 03-11-2013 05:55:00 9.8 C 8.07 g/m*3 8.75 C 8.1 km/h
Sensor: Nr:Datum:Temp:Abs-Feuchte:Windchill:Wind:
Aussen-T/F 2276 03-11-2013 06:00:00 9.9 C 8.12 g/m*3 8.3 C 11.3 km/h
2277 03-11-2013 06:05:00 9.9 C 8.12 g/m*3 9.25 C 6.4 km/h
2278 03-11-2013 06:10:00 9.9 C 8.12 g/m*3 9.9 C 3.2 km/h
2279 03-11-2013 06:15:00 9.8 C 8.07 g/m*3 9.14 C 6.4 km/h
2280 03-11-2013 06:20:00 9.8 C 8.07 g/m*3 8.75 C 8.1 km/h
2281 03-11-2013 06:25:00 9.8 C 8.07 g/m*3 8.75 C 8.1 km/h
2282 03-11-2013 06:30:00 9.8 C 8.07 g/m*3 9.14 C 6.4 km/h
2283 03-11-2013 06:35:00 9.9 C 8.03 g/m*3 8.56 C 9.7 km/h
2284 03-11-2013 06:40:00 9.9 C 8.03 g/m*3 8.56 C 9.7 km/h
2285 03-11-2013 06:45:00 10 C 8.08 g/m*3 8.19 C 12.9 km/h
2286 03-11-2013 06:50:00 9.9 C 8.12 g/m*3 9.25 C 6.4 km/h
2287 03-11-2013 06:55:00 9.9 C 8.12 g/m*3 8.06 C 12.9 km/h
2288 03-11-2013 07:00:00 10 C 8.08 g/m*3 8.42 C 11.3 km/h
2289 03-11-2013 07:05:00 10 C 8.08 g/m*3 9.37 C 6.4 km/h
2290 03-11-2013 07:10:00 10.1 C 8.04 g/m*3 9.48 C 6.4 km/h
2291 03-11-2013 07:15:00 10.2 C 8.09 g/m*3 8.92 C 9.7 km/h
2292 03-11-2013 07:20:00 10.2 C 7.99 g/m*3 7.86 C 17.7 km/h
2293 03-11-2013 07:25:00 10.2 C 7.99 g/m*3 9.6 C 6.4 km/h
2294 03-11-2013 07:30:00 10.2 C 8.09 g/m*3 9.22 C 8.1 km/h
2295 03-11-2013 07:35:00 10.2 C 8.09 g/m*3 9.22 C 8.1 km/h
2296 03-11-2013 07:40:00 10.1 C 8.13 g/m*3 10.1 C 4.8 km/h
2297 03-11-2013 07:45:00 9.9 C 8.03 g/m*3 8.87 C 8.1 km/h
2298 03-11-2013 07:50:00 9.9 C 8.03 g/m*3 9.9 C 1.6 km/h
2299 03-11-2013 07:55:00 9.7 C 8.02 g/m*3 9.7 C 4.8 km/h
2300 03-11-2013 08:00:00 9.7 C 8.02 g/m*3 9.7 C 4.8 km/h
Sensor: Nr:Datum:Temp:Abs-Feuchte:Windchill:Wind:
Aussen-T/F 2301 03-11-2013 08:05:00 9.6 C 8.06 g/m*3 9.6 C 0 km/h
2302 03-11-2013 08:10:00 9.6 C 8.06 g/m*3 9.6 C 1.6 km/h
2303 03-11-2013 08:15:00 9.6 C 8.06 g/m*3 9.6 C 1.6 km/h
2304 03-11-2013 08:20:00 9.7 C 7.93 g/m*3 8.33 C 9.7 km/h
2305 03-11-2013 08:25:00 9.7 C 7.84 g/m*3 9.7 C 4.8 km/h
2306 03-11-2013 08:30:00 9.7 C 7.74 g/m*3 9.02 C 6.4 km/h
2307 03-11-2013 08:35:00 9.8 C 7.7 g/m*3 8.45 C 9.7 km/h
2308 03-11-2013 08:40:00 9.8 C 7.7 g/m*3 8.75 C 8.1 km/h
2309 03-11-2013 08:45:00 9.8 C 7.7 g/m*3 9.14 C 6.4 km/h
2310 03-11-2013 08:50:00 9.8 C 7.7 g/m*3 8.45 C 9.7 km/h
2311 03-11-2013 08:55:00 9.8 C 7.7 g/m*3 7.73 C 14.5 km/h
2312 03-11-2013 09:00:00 9.8 C 7.7 g/m*3 7.36 C 17.7 km/h
2313 03-11-2013 09:05:00 9.8 C 7.61 g/m*3 8.18 C 11.3 km/h
2314 03-11-2013 09:10:00 9.8 C 7.7 g/m*3 8.45 C 9.7 km/h
2315 03-11-2013 09:15:00 9.8 C 7.61 g/m*3 7.54 C 16.1 km/h
2316 03-11-2013 09:20:00 9.8 C 7.61 g/m*3 8.18 C 11.3 km/h
2317 03-11-2013 09:25:00 9.9 C 7.66 g/m*3 8.56 C 9.7 km/h
2318 03-11-2013 09:30:00 9.8 C 7.79 g/m*3 8.75 C 8.1 km/h
2319 03-11-2013 09:35:00 9.7 C 7.93 g/m*3 8.33 C 9.7 km/h
2320 03-11-2013 09:40:00 9.5 C 7.92 g/m*3 9.5 C 4.8 km/h
2321 03-11-2013 09:45:00 9.3 C 7.73 g/m*3 8.16 C 8.1 km/h
2322 03-11-2013 09:50:00 9.2 C 7.59 g/m*3 8.05 C 8.1 km/h
2323 03-11-2013 09:55:00 9.1 C 7.36 g/m*3 6.87 C 14.5 km/h
2324 03-11-2013 10:00:00 9 C 7.32 g/m*3 6.97 C 12.9 km/h
2325 03-11-2013 10:05:00 9.1 C 7.45 g/m*3 7.09 C 12.9 km/h
Sensor: Nr:Datum:Temp:Abs-Feuchte:Windchill:Wind:
Aussen-T/F 2326 03-11-2013 10:10:00 9.2 C 7.41 g/m*3 7.73 C 9.7 km/h
2327 03-11-2013 10:15:00 9.2 C 7.41 g/m*3 7.73 C 9.7 km/h
2328 03-11-2013 10:20:00 9.3 C 7.46 g/m*3 7.85 C 9.7 km/h
2329 03-11-2013 10:25:00 9.4 C 7.42 g/m*3 7.24 C 14.5 km/h
2330 03-11-2013 10:30:00 9.4 C 7.42 g/m*3 7.7 C 11.3 km/h
2331 03-11-2013 10:35:00 9.3 C 7.37 g/m*3 9.3 C 4.8 km/h
2332 03-11-2013 10:40:00 9.3 C 7.37 g/m*3 8.16 C 8.1 km/h
2333 03-11-2013 10:45:00 9.3 C 7.28 g/m*3 7.85 C 9.7 km/h
2334 03-11-2013 10:50:00 9.4 C 7.33 g/m*3 7.24 C 14.5 km/h
2335 03-11-2013 10:55:00 9.6 C 7.42 g/m*3 7.48 C 14.5 km/h
2336 03-11-2013 11:00:00 9.8 C 7.61 g/m*3 7.54 C 16.1 km/h
2337 03-11-2013 11:05:00 9.7 C 7.56 g/m*3 7.23 C 17.7 km/h
2338 03-11-2013 11:10:00 9.3 C 7.46 g/m*3 6.73 C 17.7 km/h
2339 03-11-2013 11:15:00 9 C 7.41 g/m*3 6.19 C 19.3 km/h
2340 03-11-2013 11:20:00 8.8 C 7.31 g/m*3 6.3 C 16.1 km/h
2341 03-11-2013 11:25:00 8.8 C 7.31 g/m*3 7.98 C 6.4 km/h
2342 03-11-2013 11:30:00 8.9 C 7.27 g/m*3 7.09 C 11.3 km/h
2343 03-11-2013 11:35:00 9.1 C 7.36 g/m*3 6.31 C 19.3 km/h
2344 03-11-2013 11:40:00 9.3 C 7.37 g/m*3 7.33 C 12.9 km/h
2345 03-11-2013 11:45:00 9.6 C 7.51 g/m*3 7.29 C 16.1 km/h
2346 03-11-2013 11:50:00 9.8 C 7.61 g/m*3 7.94 C 12.9 km/h
2347 03-11-2013 11:55:00 10.1 C 7.56 g/m*3 7.57 C 19.3 km/h
2348 03-11-2013 12:00:00 10.2 C 7.71 g/m*3 8.03 C 16.1 km/h
2349 03-11-2013 12:05:00 10.3 C 7.57 g/m*3 8.34 C 14.5 km/h
2350 03-11-2013 12:10:00 10.5 C 7.47 g/m*3 8.07 C 19.3 km/h
Sensor: Nr:Datum:Temp:Abs-Feuchte:Windchill:Wind:
Aussen-T/F 2351 03-11-2013 12:15:00 10.6 C 7.52 g/m*3 8.53 C 16.1 km/h
2352 03-11-2013 12:20:00 10.7 C 7.37 g/m*3 8.48 C 17.7 km/h
2353 03-11-2013 12:25:00 10.7 C 7.37 g/m*3 8.32 C 19.3 km/h
2354 03-11-2013 12:30:00 10.8 C 7.41 g/m*3 8.78 C 16.1 km/h
2355 03-11-2013 12:35:00 10.8 C 7.31 g/m*3 8.45 C 19.3 km/h
2356 03-11-2013 12:40:00 10.8 C 7.22 g/m*3 8.61 C 17.7 km/h
2357 03-11-2013 12:45:00 10.8 C 7.22 g/m*3 8.61 C 17.7 km/h
2358 03-11-2013 12:50:00 10.6 C 7.22 g/m*3 8.2 C 19.3 km/h
2359 03-11-2013 12:55:00 10.6 C 7.42 g/m*3 7.78 C 24.1 km/h
2360 03-11-2013 13:00:00 10.5 C 7.37 g/m*3 8.07 C 19.3 km/h
2361 03-11-2013 13:05:00 10.6 C 7.32 g/m*3 8.53 C 16.1 km/h
2362 03-11-2013 13:10:00 10.5 C 7.37 g/m*3 7.92 C 20.9 km/h
2363 03-11-2013 13:15:00 10.5 C 7.27 g/m*3 7.92 C 20.9 km/h
2364 03-11-2013 13:20:00 10.5 C 7.37 g/m*3 8.59 C 14.5 km/h
2365 03-11-2013 13:25:00 10.6 C 7.42 g/m*3 9.4 C 9.7 km/h
2366 03-11-2013 13:30:00 10.7 C 7.37 g/m*3 8.65 C 16.1 km/h
2367 03-11-2013 13:35:00 10.8 C 7.51 g/m*3 8.04 C 24.1 km/h
2368 03-11-2013 13:40:00 10.7 C 7.27 g/m*3 8.48 C 17.7 km/h
2369 03-11-2013 13:45:00 10.6 C 7.32 g/m*3 8.71 C 14.5 km/h
2370 03-11-2013 13:50:00 10.5 C 7.27 g/m*3 8.23 C 17.7 km/h
2371 03-11-2013 13:55:00 10.4 C 7.13 g/m*3 8.28 C 16.1 km/h
2372 03-11-2013 14:00:00 10.4 C 7.23 g/m*3 8.9 C 11.3 km/h
2373 03-11-2013 14:05:00 10.4 C 7.23 g/m*3 8.47 C 14.5 km/h
2374 03-11-2013 14:10:00 10.4 C 7.23 g/m*3 8.28 C 16.1 km/h
2375 03-11-2013 14:15:00 10.4 C 7.23 g/m*3 8.9 C 11.3 km/h
Sensor: Nr:Datum:Temp:Abs-Feuchte:Windchill:Wind:
Aussen-T/F 2376 03-11-2013 14:20:00 10.4 C 7.23 g/m*3 8.47 C 14.5 km/h
2377 03-11-2013 14:25:00 10.4 C 7.23 g/m*3 8.67 C 12.9 km/h
2378 03-11-2013 14:30:00 10.4 C 7.23 g/m*3 8.28 C 16.1 km/h
2379 03-11-2013 14:35:00 10.4 C 7.23 g/m*3 8.47 C 14.5 km/h
2380 03-11-2013 14:40:00 10.4 C 7.32 g/m*3 8.9 C 11.3 km/h
2381 03-11-2013 14:45:00 10.4 C 7.23 g/m*3 7.8 C 20.9 km/h
2382 03-11-2013 14:50:00 10.4 C 7.23 g/m*3 7.95 C 19.3 km/h
2383 03-11-2013 14:55:00 10.4 C 7.32 g/m*3 7.95 C 19.3 km/h
2384 03-11-2013 15:00:00 10.4 C 7.23 g/m*3 8.47 C 14.5 km/h
2385 03-11-2013 15:05:00 10.4 C 7.23 g/m*3 8.28 C 16.1 km/h
2386 03-11-2013 15:10:00 10.4 C 7.32 g/m*3 8.67 C 12.9 km/h
2387 03-11-2013 15:15:00 10.3 C 7.28 g/m*3 8.55 C 12.9 km/h
2388 03-11-2013 15:20:00 10.3 C 7.18 g/m*3 8.78 C 11.3 km/h
2389 03-11-2013 15:25:00 10.3 C 7.18 g/m*3 8.34 C 14.5 km/h
2390 03-11-2013 15:30:00 10.4 C 7.13 g/m*3 8.11 C 17.7 km/h
2391 03-11-2013 15:35:00 10.4 C 7.04 g/m*3 8.67 C 12.9 km/h
2392 03-11-2013 15:40:00 10.4 C 7.04 g/m*3 9.16 C 9.7 km/h
2393 03-11-2013 15:45:00 10.4 C 7.04 g/m*3 8.9 C 11.3 km/h
2394 03-11-2013 15:50:00 10.3 C 6.99 g/m*3 8.34 C 14.5 km/h
2395 03-11-2013 15:55:00 10.3 C 7.09 g/m*3 9.04 C 9.7 km/h
2396 03-11-2013 16:00:00 10.3 C 7.18 g/m*3 7.82 C 19.3 km/h
2397 03-11-2013 16:05:00 10.2 C 7.04 g/m*3 7.7 C 19.3 km/h
2398 03-11-2013 16:10:00 10.1 C 7.09 g/m*3 8.54 C 11.3 km/h
2399 03-11-2013 16:15:00 9.9 C 7 g/m*3 7.85 C 14.5 km/h
2400 03-11-2013 16:20:00 9.9 C 7.1 g/m*3 7.66 C 16.1 km/h
Sensor: Nr:Datum:Temp:Abs-Feuchte:Windchill:Wind:
Aussen-T/F 2401 03-11-2013 16:25:00 9.8 C 7.05 g/m*3 8.18 C 11.3 km/h
2402 03-11-2013 16:30:00 9.8 C 7.05 g/m*3 7.94 C 12.9 km/h
2403 03-11-2013 16:35:00 9.9 C 7.1 g/m*3 8.56 C 9.7 km/h
2404 03-11-2013 16:40:00 9.8 C 7.05 g/m*3 8.18 C 11.3 km/h
2405 03-11-2013 16:45:00 9.9 C 7.1 g/m*3 7.48 C 17.7 km/h
2406 03-11-2013 16:50:00 9.9 C 7.1 g/m*3 7.66 C 16.1 km/h
2407 03-11-2013 16:55:00 9.9 C 7.1 g/m*3 8.3 C 11.3 km/h
2408 03-11-2013 17:00:00 9.9 C 7.1 g/m*3 8.3 C 11.3 km/h
2409 03-11-2013 17:05:00 9.8 C 7.14 g/m*3 7.73 C 14.5 km/h
2410 03-11-2013 17:10:00 9.8 C 7.14 g/m*3 8.18 C 11.3 km/h
2411 03-11-2013 17:15:00 9.7 C 7.1 g/m*3 8.63 C 8.1 km/h
2412 03-11-2013 17:20:00 9.7 C 7.1 g/m*3 7.07 C 19.3 km/h
2413 03-11-2013 17:25:00 9.7 C 7.1 g/m*3 7.82 C 12.9 km/h
2414 03-11-2013 17:30:00 9.7 C 7.1 g/m*3 7.23 C 17.7 km/h
2415 03-11-2013 17:35:00 9.7 C 7.1 g/m*3 7.41 C 16.1 km/h
2416 03-11-2013 17:40:00 9.7 C 7.01 g/m*3 7.23 C 17.7 km/h
2417 03-11-2013 17:45:00 9.8 C 7.05 g/m*3 7.36 C 17.7 km/h
2418 03-11-2013 17:50:00 9.7 C 7.1 g/m*3 7.61 C 14.5 km/h
2419 03-11-2013 17:55:00 9.7 C 7.19 g/m*3 6.5 C 25.7 km/h
2420 03-11-2013 18:00:00 9.5 C 7.37 g/m*3 5.99 C 29 km/h
2421 03-11-2013 18:05:00 9.1 C 7.45 g/m*3 5.47 C 29 km/h
2422 03-11-2013 18:10:00 8.7 C 7.35 g/m*3 5.07 C 27.4 km/h
2423 03-11-2013 18:15:00 8.4 C 7.38 g/m*3 5.8 C 16.1 km/h
2424 03-11-2013 18:20:00 8.3 C 7.33 g/m*3 5.31 C 19.3 km/h
2425 03-11-2013 18:25:00 8.3 C 7.42 g/m*3 5.68 C 16.1 km/h
Sensor: Nr:Datum:Temp:Abs-Feuchte:Windchill:Wind:
Aussen-T/F 2426 03-11-2013 18:30:00 8.3 C 7.42 g/m*3 5.68 C 16.1 km/h
2427 03-11-2013 18:35:00 8.3 C 7.33 g/m*3 6.37 C 11.3 km/h
2428 03-11-2013 18:40:00 8.4 C 7.47 g/m*3 5.8 C 16.1 km/h
2429 03-11-2013 18:45:00 8.3 C 7.42 g/m*3 5.48 C 17.7 km/h
2430 03-11-2013 18:50:00 8.3 C 7.42 g/m*3 6.37 C 11.3 km/h
2431 03-11-2013 18:55:00 8.3 C 7.42 g/m*3 5.68 C 16.1 km/h
2432 03-11-2013 19:00:00 8.3 C 7.42 g/m*3 6.66 C 9.7 km/h
2433 03-11-2013 19:05:00 8.2 C 7.54 g/m*3 7.29 C 6.4 km/h
2434 03-11-2013 19:10:00 8.1 C 7.57 g/m*3 8.1 C 3.2 km/h
2435 03-11-2013 19:15:00 8 C 7.61 g/m*3 8 C 3.2 km/h
2436 03-11-2013 19:20:00 7.9 C 7.56 g/m*3 7.9 C 4.8 km/h
2437 03-11-2013 19:25:00 7.8 C 7.51 g/m*3 6.4 C 8.1 km/h
2438 03-11-2013 19:30:00 7.8 C 7.51 g/m*3 7.8 C 1.6 km/h
2439 03-11-2013 19:35:00 7.7 C 7.54 g/m*3 7.7 C 1.6 km/h
2440 03-11-2013 19:40:00 7.7 C 7.54 g/m*3 7.7 C 1.6 km/h
2441 03-11-2013 19:45:00 7.6 C 7.57 g/m*3 7.6 C 4.8 km/h
2442 03-11-2013 19:50:00 7.7 C 7.54 g/m*3 4.55 C 19.3 km/h
2443 03-11-2013 19:55:00 7.9 C 7.56 g/m*3 6.52 C 8.1 km/h
2444 03-11-2013 20:00:00 8.1 C 7.49 g/m*3 6.42 C 9.7 km/h
2445 03-11-2013 20:05:00 8.1 C 7.49 g/m*3 5.43 C 16.1 km/h
2446 03-11-2013 20:10:00 8 C 7.36 g/m*3 5.52 C 14.5 km/h
2447 03-11-2013 20:15:00 8 C 7.36 g/m*3 6.64 C 8.1 km/h
2448 03-11-2013 20:20:00 7.9 C 7.31 g/m*3 6.52 C 8.1 km/h
2449 03-11-2013 20:25:00 7.9 C 7.31 g/m*3 5.89 C 11.3 km/h
2450 03-11-2013 20:30:00 7.9 C 7.31 g/m*3 5.39 C 14.5 km/h
Sensor: Nr:Datum:Temp:Abs-Feuchte:Windchill:Wind:
Aussen-T/F 2451 03-11-2013 20:35:00 8 C 7.28 g/m*3 6.3 C 9.7 km/h
2452 03-11-2013 20:40:00 8 C 7.28 g/m*3 6.01 C 11.3 km/h
2453 03-11-2013 20:45:00 8.1 C 7.32 g/m*3 6.13 C 11.3 km/h
2454 03-11-2013 20:50:00 7.9 C 7.23 g/m*3 6.18 C 9.7 km/h
2455 03-11-2013 20:55:00 7.9 C 7.23 g/m*3 6.94 C 6.4 km/h
2456 03-11-2013 21:00:00 7.9 C 7.23 g/m*3 5.89 C 11.3 km/h
2457 03-11-2013 21:05:00 7.9 C 7.15 g/m*3 6.18 C 9.7 km/h
2458 03-11-2013 21:10:00 8.1 C 7.24 g/m*3 5.87 C 12.9 km/h
2459 03-11-2013 21:15:00 8.1 C 7.16 g/m*3 5.64 C 14.5 km/h
2460 03-11-2013 21:20:00 8.2 C 7.12 g/m*3 5.99 C 12.9 km/h
2461 03-11-2013 21:25:00 8.3 C 7.16 g/m*3 6.37 C 11.3 km/h
2462 03-11-2013 21:30:00 8.4 C 7.21 g/m*3 6.24 C 12.9 km/h
2463 03-11-2013 21:35:00 8.4 C 7.13 g/m*3 5.8 C 16.1 km/h
2464 03-11-2013 21:40:00 8.6 C 7.22 g/m*3 6.05 C 16.1 km/h
2465 03-11-2013 21:45:00 8.7 C 7.18 g/m*3 5.49 C 22.5 km/h
2466 03-11-2013 21:50:00 8.8 C 7.14 g/m*3 5.93 C 19.3 km/h
2467 03-11-2013 21:55:00 8.8 C 7.14 g/m*3 6.97 C 11.3 km/h
2468 03-11-2013 22:00:00 8.8 C 7.14 g/m*3 5.93 C 19.3 km/h
2469 03-11-2013 22:05:00 8.8 C 7.05 g/m*3 5.62 C 22.5 km/h
2470 03-11-2013 22:10:00 8.9 C 7.1 g/m*3 6.23 C 17.7 km/h
2471 03-11-2013 22:15:00 9 C 7.05 g/m*3 6.03 C 20.9 km/h
2472 03-11-2013 22:20:00 9.1 C 7.1 g/m*3 6 C 22.5 km/h
2473 03-11-2013 22:25:00 9.1 C 7.1 g/m*3 6.67 C 16.1 km/h
2474 03-11-2013 22:30:00 9.1 C 7.19 g/m*3 7.09 C 12.9 km/h
2475 03-11-2013 22:35:00 9.1 C 7.19 g/m*3 6.48 C 17.7 km/h
Sensor: Nr:Datum:Temp:Abs-Feuchte:Windchill:Wind:
Aussen-T/F 2476 03-11-2013 22:40:00 9.1 C 7.1 g/m*3 7.33 C 11.3 km/h
2477 03-11-2013 22:45:00 9.1 C 7.01 g/m*3 6.48 C 17.7 km/h
2478 03-11-2013 22:50:00 9.1 C 7.01 g/m*3 7.33 C 11.3 km/h
2479 03-11-2013 22:55:00 9 C 7.05 g/m*3 7.21 C 11.3 km/h
2480 03-11-2013 23:00:00 8.8 C 6.96 g/m*3 6.3 C 16.1 km/h
2481 03-11-2013 23:05:00 8.8 C 6.96 g/m*3 5.77 C 20.9 km/h
2482 03-11-2013 23:10:00 8.8 C 6.96 g/m*3 7.25 C 9.7 km/h
2483 03-11-2013 23:15:00 8.8 C 7.05 g/m*3 8.8 C 4.8 km/h
2484 03-11-2013 23:20:00 8.6 C 6.96 g/m*3 7.34 C 8.1 km/h
2485 03-11-2013 23:25:00 8.4 C 6.87 g/m*3 8.4 C 0 km/h
2486 03-11-2013 23:30:00 8.2 C 7.03 g/m*3 8.2 C 0 km/h
2487 03-11-2013 23:35:00 8 C 6.94 g/m*3 8 C 4.8 km/h
2488 03-11-2013 23:40:00 7.9 C 6.98 g/m*3 7.9 C 3.2 km/h
2489 03-11-2013 23:45:00 7.7 C 6.97 g/m*3 7.7 C 3.2 km/h
2490 03-11-2013 23:50:00 7.6 C 7.01 g/m*3 7.6 C 1.6 km/h
2491 03-11-2013 23:55:00 7.4 C 7 g/m*3 7.4 C 1.6 km/h
2492 04-11-2013 00:00:00 7.2 C 6.91 g/m*3 7.2 C 3.2 km/h
2493 04-11-2013 00:05:00 7.1 C 6.86 g/m*3 7.1 C 3.2 km/h
2494 04-11-2013 00:10:00 7 C 6.9 g/m*3 7 C 3.2 km/h
2495 04-11-2013 00:15:00 6.9 C 6.93 g/m*3 6.9 C 4.8 km/h
2496 04-11-2013 00:20:00 6.9 C 7.01 g/m*3 6.9 C 1.6 km/h
2497 04-11-2013 00:25:00 6.8 C 6.96 g/m*3 6.8 C 1.6 km/h
2498 04-11-2013 00:30:00 6.8 C 6.96 g/m*3 6.8 C 1.6 km/h
2499 04-11-2013 00:35:00 6.9 C 7.08 g/m*3 6.9 C 1.6 km/h
2500 04-11-2013 00:40:00 7 C 7.13 g/m*3 7 C 0 km/h
Sensor: Nr:Datum:Temp:Abs-Feuchte:Windchill:Wind:
Aussen-T/F 2501 04-11-2013 00:45:00 7.2 C 7.14 g/m*3 7.2 C 4.8 km/h
2502 04-11-2013 00:50:00 7.4 C 7.16 g/m*3 7.4 C 1.6 km/h
2503 04-11-2013 00:55:00 7.6 C 7.17 g/m*3 7.6 C 1.6 km/h
2504 04-11-2013 01:00:00 7.6 C 7.17 g/m*3 7.6 C 4.8 km/h
2505 04-11-2013 01:05:00 7.7 C 7.05 g/m*3 5.94 C 9.7 km/h
2506 04-11-2013 01:10:00 7.9 C 7.15 g/m*3 6.94 C 6.4 km/h
2507 04-11-2013 01:15:00 7.9 C 7.23 g/m*3 7.9 C 4.8 km/h
2508 04-11-2013 01:20:00 7.9 C 7.15 g/m*3 6.52 C 8.1 km/h
2509 04-11-2013 01:25:00 8.1 C 7.32 g/m*3 8.1 C 4.8 km/h
2510 04-11-2013 01:30:00 8.1 C 7.24 g/m*3 8.1 C 3.2 km/h
2511 04-11-2013 01:35:00 8.2 C 7.29 g/m*3 8.2 C 3.2 km/h
2512 04-11-2013 01:40:00 8.2 C 7.37 g/m*3 8.2 C 3.2 km/h
2513 04-11-2013 01:45:00 8.2 C 7.29 g/m*3 8.2 C 3.2 km/h
2514 04-11-2013 01:50:00 8.2 C 7.37 g/m*3 8.2 C 1.6 km/h
2515 04-11-2013 01:55:00 8.3 C 7.25 g/m*3 8.3 C 3.2 km/h
2516 04-11-2013 02:00:00 8.3 C 7.25 g/m*3 8.3 C 1.6 km/h
2517 04-11-2013 02:05:00 8.4 C 7.38 g/m*3 8.4 C 3.2 km/h
2518 04-11-2013 02:10:00 8.4 C 7.3 g/m*3 6.24 C 12.9 km/h
2519 04-11-2013 02:15:00 8.6 C 7.3 g/m*3 6.48 C 12.9 km/h
2520 04-11-2013 02:20:00 8.7 C 7.35 g/m*3 7.87 C 6.4 km/h
2521 04-11-2013 02:25:00 8.7 C 7.35 g/m*3 8.7 C 4.8 km/h
2522 04-11-2013 02:30:00 8.7 C 7.35 g/m*3 8.7 C 4.8 km/h
2523 04-11-2013 02:35:00 8.7 C 7.35 g/m*3 7.13 C 9.7 km/h
2524 04-11-2013 02:40:00 8.7 C 7.35 g/m*3 8.7 C 1.6 km/h
2525 04-11-2013 02:45:00 8.8 C 7.31 g/m*3 8.8 C 4.8 km/h
Sensor: Nr:Datum:Temp:Abs-Feuchte:Windchill:Wind:
Aussen-T/F 2526 04-11-2013 02:50:00 8.8 C 7.49 g/m*3 8.8 C 4.8 km/h
2527 04-11-2013 02:55:00 8.7 C 7.52 g/m*3 8.7 C 4.8 km/h
2528 04-11-2013 03:00:00 8.6 C 7.39 g/m*3 7.01 C 9.7 km/h
2529 04-11-2013 03:05:00 8.7 C 7.52 g/m*3 7.87 C 6.4 km/h
2530 04-11-2013 03:10:00 8.6 C 7.56 g/m*3 7.34 C 8.1 km/h
2531 04-11-2013 03:15:00 8.5 C 7.34 g/m*3 8.5 C 3.2 km/h
2532 04-11-2013 03:20:00 8.6 C 7.39 g/m*3 7.75 C 6.4 km/h
2533 04-11-2013 03:25:00 8.6 C 7.48 g/m*3 7.75 C 6.4 km/h
2534 04-11-2013 03:30:00 8.6 C 7.48 g/m*3 8.6 C 4.8 km/h
2535 04-11-2013 03:35:00 8.6 C 7.56 g/m*3 7.34 C 8.1 km/h
2536 04-11-2013 03:40:00 8.7 C 7.52 g/m*3 7.46 C 8.1 km/h
2537 04-11-2013 03:45:00 8.7 C 7.52 g/m*3 6.6 C 12.9 km/h
2538 04-11-2013 03:50:00 8.8 C 7.66 g/m*3 8.8 C 4.8 km/h
2539 04-11-2013 03:55:00 8.8 C 7.66 g/m*3 8.8 C 3.2 km/h
2540 04-11-2013 04:00:00 8.7 C 7.7 g/m*3 8.7 C 3.2 km/h
2541 04-11-2013 04:05:00 8.6 C 7.73 g/m*3 8.6 C 3.2 km/h
2542 04-11-2013 04:10:00 8.5 C 7.68 g/m*3 7.64 C 6.4 km/h
2543 04-11-2013 04:15:00 8.5 C 7.68 g/m*3 8.5 C 3.2 km/h
2544 04-11-2013 04:20:00 8.5 C 7.68 g/m*3 6.61 C 11.3 km/h
2545 04-11-2013 04:25:00 8.5 C 7.68 g/m*3 8.5 C 4.8 km/h
2546 04-11-2013 04:30:00 8.5 C 7.77 g/m*3 8.5 C 3.2 km/h
2547 04-11-2013 04:35:00 8.4 C 7.72 g/m*3 7.11 C 8.1 km/h
2548 04-11-2013 04:40:00 8.5 C 7.68 g/m*3 6.9 C 9.7 km/h
2549 04-11-2013 04:45:00 8.6 C 7.82 g/m*3 7.34 C 8.1 km/h
2550 04-11-2013 04:50:00 8.6 C 7.73 g/m*3 7.01 C 9.7 km/h
Sensor: Nr:Datum:Temp:Abs-Feuchte:Windchill:Wind:
Aussen-T/F 2551 04-11-2013 04:55:00 8.7 C 7.78 g/m*3 7.87 C 6.4 km/h
2552 04-11-2013 05:00:00 8.8 C 7.83 g/m*3 6.97 C 11.3 km/h
2553 04-11-2013 05:05:00 8.8 C 7.83 g/m*3 8.8 C 4.8 km/h
2554 04-11-2013 05:10:00 8.9 C 7.88 g/m*3 8.9 C 3.2 km/h
2555 04-11-2013 05:15:00 8.9 C 7.88 g/m*3 7.37 C 9.7 km/h
2556 04-11-2013 05:20:00 9.1 C 7.99 g/m*3 7.93 C 8.1 km/h
2557 04-11-2013 05:25:00 9.2 C 8.04 g/m*3 9.2 C 3.2 km/h
2558 04-11-2013 05:30:00 9.2 C 7.95 g/m*3 7.46 C 11.3 km/h
2559 04-11-2013 05:35:00 9.3 C 8.09 g/m*3 9.3 C 1.6 km/h
2560 04-11-2013 05:40:00 9.3 C 8 g/m*3 7.58 C 11.3 km/h
2561 04-11-2013 05:45:00 9.4 C 8.05 g/m*3 7.97 C 9.7 km/h
2562 04-11-2013 05:50:00 9.5 C 8.1 g/m*3 8.09 C 9.7 km/h
2563 04-11-2013 05:55:00 9.6 C 8.15 g/m*3 8.52 C 8.1 km/h
2564 04-11-2013 06:00:00 9.6 C 8.06 g/m*3 9.6 C 1.6 km/h
2565 04-11-2013 06:05:00 9.7 C 8.11 g/m*3 9.02 C 6.4 km/h
2566 04-11-2013 06:10:00 9.7 C 8.11 g/m*3 9.7 C 4.8 km/h
2567 04-11-2013 06:15:00 9.8 C 8.16 g/m*3 8.45 C 9.7 km/h
2568 04-11-2013 06:20:00 9.9 C 8.22 g/m*3 8.06 C 12.9 km/h
2569 04-11-2013 06:25:00 10 C 8.17 g/m*3 10 C 4.8 km/h
2570 04-11-2013 06:30:00 10.1 C 8.23 g/m*3 10.1 C 4.8 km/h
2571 04-11-2013 06:35:00 10.2 C 8.28 g/m*3 8.92 C 9.7 km/h
2572 04-11-2013 06:40:00 10.2 C 8.28 g/m*3 9.6 C 6.4 km/h
2573 04-11-2013 06:45:00 10.3 C 8.33 g/m*3 10.3 C 3.2 km/h
2574 04-11-2013 06:50:00 10.3 C 8.33 g/m*3 10.3 C 4.8 km/h
2575 04-11-2013 06:55:00 10.4 C 8.29 g/m*3 8.9 C 11.3 km/h
Sensor: Nr:Datum:Temp:Abs-Feuchte:Windchill:Wind:
Aussen-T/F 2576 04-11-2013 07:00:00 10.6 C 8.39 g/m*3 9.69 C 8.1 km/h
2577 04-11-2013 07:05:00 10.7 C 8.45 g/m*3 10.7 C 4.8 km/h
2578 04-11-2013 07:10:00 10.7 C 8.55 g/m*3 10.7 C 3.2 km/h
2579 04-11-2013 07:15:00 10.8 C 8.5 g/m*3 9.38 C 11.3 km/h
2580 04-11-2013 07:20:00 10.9 C 8.55 g/m*3 9.51 C 11.3 km/h
2581 04-11-2013 07:25:00 10.9 C 8.55 g/m*3 9.76 C 9.7 km/h
2582 04-11-2013 07:30:00 10.9 C 8.55 g/m*3 10.9 C 4.8 km/h
2583 04-11-2013 07:35:00 10.9 C 8.65 g/m*3 10.9 C 4.8 km/h
2584 04-11-2013 07:40:00 10.8 C 8.6 g/m*3 9.64 C 9.7 km/h
2585 04-11-2013 07:45:00 10.9 C 8.55 g/m*3 9.28 C 12.9 km/h
2586 04-11-2013 07:50:00 11.1 C 8.56 g/m*3 11.1 C 11.3 km/h
2587 04-11-2013 07:55:00 11.2 C 8.62 g/m*3 11.2 C 4.8 km/h
2588 04-11-2013 08:00:00 11.3 C 8.67 g/m*3 11.3 C 6.4 km/h
2589 04-11-2013 08:05:00 11.3 C 8.57 g/m*3 11.3 C 9.7 km/h
2590 04-11-2013 08:10:00 11.4 C 8.62 g/m*3 11.4 C 6.4 km/h
2591 04-11-2013 08:15:00 11.4 C 8.62 g/m*3 11.4 C 8.1 km/h
2592 04-11-2013 08:20:00 11.4 C 8.62 g/m*3 11.4 C 11.3 km/h
2593 04-11-2013 08:40:00 11.8 C 10.52 g/m*3 11.8 C 19.3 km/h
2594 04-11-2013 08:45:00 11.9 C 8.68 g/m*3 11.9 C 12.9 km/h
2595 04-11-2013 08:50:00 11.9 C 8.68 g/m*3 11.9 C 22.5 km/h
2596 04-11-2013 08:55:00 11.9 C 8.68 g/m*3 11.9 C 14.5 km/h
2597 04-11-2013 09:00:00 11.9 C 8.68 g/m*3 11.9 C 12.9 km/h
2598 04-11-2013 09:05:00 11.9 C 8.68 g/m*3 11.9 C 17.7 km/h
2599 04-11-2013 09:10:00 11.9 C 8.68 g/m*3 11.9 C 12.9 km/h
2600 04-11-2013 09:15:00 11.9 C 8.79 g/m*3 11.9 C 11.3 km/h
Sensor: Nr:Datum:Temp:Abs-Feuchte:Windchill:Wind:
Aussen-T/F 2601 04-11-2013 09:20:00 12 C 8.85 g/m*3 12 C 22.5 km/h
2602 04-11-2013 09:25:00 12 C 8.85 g/m*3 12 C 14.5 km/h
2603 04-11-2013 09:30:00 12.1 C 8.9 g/m*3 12.1 C 20.9 km/h
2604 04-11-2013 09:35:00 12.1 C 8.79 g/m*3 12.1 C 8.1 km/h
2605 04-11-2013 09:40:00 12.1 C 8.79 g/m*3 12.1 C 14.5 km/h
2606 04-11-2013 09:45:00 12.2 C 8.85 g/m*3 12.2 C 14.5 km/h
2607 04-11-2013 09:50:00 12.2 C 8.85 g/m*3 12.2 C 20.9 km/h
2608 04-11-2013 09:55:00 12.2 C 8.85 g/m*3 12.2 C 22.5 km/h
2609 04-11-2013 10:00:00 12.3 C 8.9 g/m*3 12.3 C 8.1 km/h
2610 04-11-2013 10:05:00 12.3 C 8.9 g/m*3 12.3 C 17.7 km/h
2611 04-11-2013 10:10:00 12.3 C 8.9 g/m*3 12.3 C 12.9 km/h
2612 04-11-2013 10:15:00 12.3 C 8.9 g/m*3 12.3 C 6.4 km/h
2613 04-11-2013 10:20:00 12.3 C 8.8 g/m*3 12.3 C 12.9 km/h
2614 04-11-2013 10:25:00 12.4 C 8.85 g/m*3 12.4 C 11.3 km/h
2615 04-11-2013 10:30:00 12.5 C 8.91 g/m*3 12.5 C 22.5 km/h
2616 04-11-2013 10:35:00 12.6 C 8.96 g/m*3 12.6 C 17.7 km/h
2617 04-11-2013 10:40:00 12.7 C 9.02 g/m*3 12.7 C 14.5 km/h
2618 04-11-2013 10:45:00 12.7 C 9.02 g/m*3 12.7 C 16.1 km/h
2619 04-11-2013 10:50:00 12.7 C 9.13 g/m*3 12.7 C 12.9 km/h
2620 04-11-2013 10:55:00 12.7 C 9.13 g/m*3 12.7 C 16.1 km/h
2621 04-11-2013 11:00:00 12.7 C 9.13 g/m*3 12.7 C 14.5 km/h
2622 04-11-2013 11:05:00 12.7 C 9.13 g/m*3 12.7 C 16.1 km/h
2623 04-11-2013 11:10:00 12.7 C 9.24 g/m*3 12.7 C 20.9 km/h
2624 04-11-2013 11:15:00 12.7 C 9.13 g/m*3 12.7 C 19.3 km/h
2625 04-11-2013 11:20:00 12.7 C 9.13 g/m*3 12.7 C 24.1 km/h
Sensor: Nr:Datum:Temp:Abs-Feuchte:Windchill:Wind:
Aussen-T/F 2626 04-11-2013 11:25:00 12.7 C 9.13 g/m*3 12.7 C 16.1 km/h
2627 04-11-2013 11:30:00 12.8 C 9.07 g/m*3 12.8 C 19.3 km/h
2628 04-11-2013 11:35:00 12.9 C 9.13 g/m*3 12.9 C 24.1 km/h
2629 04-11-2013 11:40:00 12.9 C 9.02 g/m*3 12.9 C 29 km/h
2630 04-11-2013 11:45:00 12.9 C 9.02 g/m*3 12.9 C 25.7 km/h
2631 04-11-2013 11:50:00 12.9 C 9.13 g/m*3 12.9 C 17.7 km/h
2632 04-11-2013 11:55:00 13 C 9.07 g/m*3 13 C 20.9 km/h
2633 04-11-2013 12:00:00 13.1 C 9.13 g/m*3 13.1 C 20.9 km/h
2634 04-11-2013 12:05:00 13.2 C 9.19 g/m*3 13.2 C 14.5 km/h
2635 04-11-2013 12:10:00 13.2 C 9.07 g/m*3 13.2 C 17.7 km/h
2636 04-11-2013 12:15:00 13.1 C 9.13 g/m*3 13.1 C 24.1 km/h
2637 04-11-2013 12:20:00 13.1 C 9.13 g/m*3 13.1 C 14.5 km/h
2638 04-11-2013 12:25:00 13 C 9.07 g/m*3 13 C 20.9 km/h
2639 04-11-2013 12:30:00 13 C 9.07 g/m*3 13 C 22.5 km/h
2640 04-11-2013 12:35:00 13.1 C 9.13 g/m*3 13.1 C 22.5 km/h
2641 04-11-2013 12:40:00 13.1 C 9.13 g/m*3 13.1 C 25.7 km/h
2642 04-11-2013 12:45:00 13.2 C 9.19 g/m*3 13.2 C 16.1 km/h
2643 04-11-2013 12:50:00 13.2 C 9.19 g/m*3 13.2 C 17.7 km/h
2644 04-11-2013 12:55:00 13.2 C 9.07 g/m*3 13.2 C 16.1 km/h
2645 04-11-2013 13:00:00 13.2 C 9.19 g/m*3 13.2 C 17.7 km/h
2646 04-11-2013 13:05:00 13.3 C 9.24 g/m*3 13.3 C 19.3 km/h
2647 04-11-2013 13:10:00 13.3 C 9.13 g/m*3 13.3 C 17.7 km/h
2648 04-11-2013 13:15:00 13.4 C 9.18 g/m*3 13.4 C 14.5 km/h
2649 04-11-2013 13:20:00 13.4 C 9.18 g/m*3 13.4 C 20.9 km/h
2650 04-11-2013 13:25:00 13.3 C 9.36 g/m*3 13.3 C 17.7 km/h
Sensor: Nr:Datum:Temp:Abs-Feuchte:Windchill:Wind:
Aussen-T/F 2651 04-11-2013 13:30:00 13.3 C 9.36 g/m*3 13.3 C 16.1 km/h
2652 04-11-2013 13:35:00 12.7 C 9.02 g/m*3 12.7 C 12.9 km/h
2653 04-11-2013 13:40:00 12.4 C 9.62 g/m*3 12.4 C 4.8 km/h
2654 04-11-2013 13:45:00 12.2 C 9.6 g/m*3 12.2 C 4.8 km/h
2655 04-11-2013 13:50:00 12.1 C 9.65 g/m*3 12.1 C 3.2 km/h
2656 04-11-2013 13:55:00 11.9 C 9.64 g/m*3 11.9 C 1.6 km/h
2657 04-11-2013 14:00:00 11.9 C 9.64 g/m*3 11.9 C 4.8 km/h
2658 04-11-2013 14:05:00 11.9 C 9.64 g/m*3 11.9 C 8.1 km/h
2659 04-11-2013 14:10:00 12 C 9.59 g/m*3 12 C 14.5 km/h
2660 04-11-2013 14:15:00 12.2 C 9.71 g/m*3 12.2 C 14.5 km/h
2661 04-11-2013 14:20:00 12.3 C 9.66 g/m*3 12.3 C 11.3 km/h
2662 04-11-2013 14:25:00 12.3 C 9.66 g/m*3 12.3 C 19.3 km/h
2663 04-11-2013 14:30:00 12.3 C 9.66 g/m*3 12.3 C 17.7 km/h
2664 04-11-2013 14:35:00 12.4 C 9.62 g/m*3 12.4 C 12.9 km/h
2665 04-11-2013 14:40:00 12.4 C 9.72 g/m*3 12.4 C 8.1 km/h
2666 04-11-2013 14:45:00 12.6 C 9.96 g/m*3 12.6 C 4.8 km/h
2667 04-11-2013 14:50:00 12.6 C 9.96 g/m*3 12.6 C 9.7 km/h
2668 04-11-2013 14:55:00 12.7 C 9.8 g/m*3 12.7 C 12.9 km/h
2669 04-11-2013 15:00:00 12.7 C 9.8 g/m*3 12.7 C 9.7 km/h
2670 04-11-2013 15:05:00 12.7 C 9.91 g/m*3 12.7 C 4.8 km/h
2671 04-11-2013 15:10:00 12.6 C 9.62 g/m*3 12.6 C 6.4 km/h
2672 04-11-2013 15:15:00 12.6 C 9.62 g/m*3 12.6 C 9.7 km/h
2673 04-11-2013 15:20:00 12.6 C 9.62 g/m*3 12.6 C 6.4 km/h
2674 04-11-2013 15:25:00 12.5 C 9.46 g/m*3 12.5 C 8.1 km/h
2675 04-11-2013 15:30:00 12.5 C 9.57 g/m*3 12.5 C 8.1 km/h
Sensor: Nr:Datum:Temp:Abs-Feuchte:Windchill:Wind:
Aussen-T/F 2676 04-11-2013 15:35:00 12.5 C 9.57 g/m*3 12.5 C 6.4 km/h
2677 04-11-2013 15:40:00 12.5 C 9.57 g/m*3 12.5 C 11.3 km/h
2678 04-11-2013 15:45:00 12.5 C 9.46 g/m*3 12.5 C 4.8 km/h
2679 04-11-2013 15:50:00 12.6 C 9.4 g/m*3 12.6 C 11.3 km/h
2680 04-11-2013 15:55:00 12.6 C 9.4 g/m*3 12.6 C 14.5 km/h
2681 04-11-2013 16:00:00 12.6 C 9.4 g/m*3 12.6 C 8.1 km/h
2682 04-11-2013 16:05:00 12.6 C 9.4 g/m*3 12.6 C 4.8 km/h
2683 04-11-2013 16:10:00 12.6 C 9.4 g/m*3 12.6 C 8.1 km/h
2684 04-11-2013 16:15:00 12.6 C 9.4 g/m*3 12.6 C 8.1 km/h
2685 04-11-2013 16:20:00 12.6 C 9.51 g/m*3 12.6 C 6.4 km/h
2686 04-11-2013 16:25:00 12.4 C 9.4 g/m*3 12.4 C 8.1 km/h
2687 04-11-2013 16:30:00 12.3 C 9.45 g/m*3 12.3 C 8.1 km/h
2688 04-11-2013 16:35:00 12.3 C 9.45 g/m*3 12.3 C 16.1 km/h
2689 04-11-2013 16:40:00 12.1 C 9.54 g/m*3 12.1 C 16.1 km/h
2690 04-11-2013 16:45:00 11.9 C 9.53 g/m*3 11.9 C 14.5 km/h
2691 04-11-2013 16:50:00 11.8 C 9.58 g/m*3 11.8 C 4.8 km/h
2692 04-11-2013 16:55:00 11.7 C 9.62 g/m*3 11.7 C 6.4 km/h
2693 04-11-2013 17:00:00 11.6 C 9.56 g/m*3 11.6 C 22.5 km/h
2694 04-11-2013 17:05:00 11.6 C 9.56 g/m*3 11.6 C 8.1 km/h
2695 04-11-2013 17:10:00 11.5 C 9.5 g/m*3 11.5 C 9.7 km/h
2696 04-11-2013 17:15:00 11.4 C 9.55 g/m*3 11.4 C 12.9 km/h
2697 04-11-2013 17:20:00 11.4 C 9.44 g/m*3 11.4 C 22.5 km/h
2698 04-11-2013 17:25:00 10.4 C 8.48 g/m*3 7.95 C 19.3 km/h
2699 04-11-2013 17:30:00 9.7 C 8.11 g/m*3 7.41 C 16.1 km/h
2700 04-11-2013 17:35:00 9.3 C 8.09 g/m*3 6.41 C 20.9 km/h
Sensor: Nr:Datum:Temp:Abs-Feuchte:Windchill:Wind:
Aussen-T/F 2701 04-11-2013 17:40:00 9.2 C 8.13 g/m*3 6.99 C 14.5 km/h
2702 04-11-2013 17:45:00 8.9 C 7.88 g/m*3 6.85 C 12.9 km/h
2703 04-11-2013 17:50:00 8.8 C 7.92 g/m*3 6.72 C 12.9 km/h
2704 04-11-2013 17:55:00 8.6 C 7.82 g/m*3 5.37 C 22.5 km/h
2705 04-11-2013 18:00:00 8.4 C 7.72 g/m*3 7.11 C 8.1 km/h
2706 04-11-2013 18:05:00 8.3 C 7.67 g/m*3 6.12 C 12.9 km/h
2707 04-11-2013 18:10:00 8.3 C 7.75 g/m*3 8.3 C 4.8 km/h
2708 04-11-2013 18:15:00 8.2 C 7.7 g/m*3 6.25 C 11.3 km/h
2709 04-11-2013 18:20:00 8.2 C 7.7 g/m*3 6.87 C 8.1 km/h
2710 04-11-2013 18:25:00 8.1 C 7.57 g/m*3 5.87 C 12.9 km/h
2711 04-11-2013 18:30:00 8.1 C 7.57 g/m*3 6.13 C 11.3 km/h
2712 04-11-2013 18:35:00 8.1 C 7.57 g/m*3 6.75 C 8.1 km/h
2713 04-11-2013 18:40:00 8 C 7.52 g/m*3 6.3 C 9.7 km/h
2714 04-11-2013 18:45:00 8 C 7.44 g/m*3 6.3 C 9.7 km/h
2715 04-11-2013 18:50:00 7.9 C 7.39 g/m*3 5.89 C 11.3 km/h
2716 04-11-2013 18:55:00 7.9 C 7.39 g/m*3 5.63 C 12.9 km/h
2717 04-11-2013 19:00:00 7.9 C 7.31 g/m*3 5.63 C 12.9 km/h
2718 04-11-2013 19:05:00 7.9 C 7.31 g/m*3 5.39 C 14.5 km/h
2719 04-11-2013 19:10:00 7.9 C 7.31 g/m*3 5.18 C 16.1 km/h
2720 04-11-2013 19:15:00 7.9 C 7.39 g/m*3 5.63 C 12.9 km/h
2721 04-11-2013 19:20:00 7.8 C 7.35 g/m*3 6.83 C 6.4 km/h
2722 04-11-2013 19:25:00 7.8 C 7.35 g/m*3 6.83 C 6.4 km/h
2723 04-11-2013 19:30:00 7.8 C 7.35 g/m*3 7.8 C 4.8 km/h
2724 04-11-2013 19:35:00 7.8 C 7.35 g/m*3 6.4 C 8.1 km/h
2725 04-11-2013 19:40:00 7.7 C 7.3 g/m*3 5.38 C 12.9 km/h
Sensor: Nr:Datum:Temp:Abs-Feuchte:Windchill:Wind:
Aussen-T/F 2726 04-11-2013 19:45:00 7.6 C 7.17 g/m*3 5.53 C 11.3 km/h
2727 04-11-2013 19:50:00 7.6 C 7.17 g/m*3 6.6 C 6.4 km/h
2728 04-11-2013 19:55:00 7.6 C 7.25 g/m*3 6.6 C 6.4 km/h
2729 04-11-2013 20:00:00 7.6 C 7.17 g/m*3 6.16 C 8.1 km/h
2730 04-11-2013 20:05:00 7.7 C 7.22 g/m*3 7.7 C 3.2 km/h
2731 04-11-2013 20:10:00 7.6 C 7.17 g/m*3 7.6 C 3.2 km/h
2732 04-11-2013 20:15:00 7.7 C 7.14 g/m*3 5.94 C 9.7 km/h
2733 04-11-2013 20:20:00 7.7 C 7.05 g/m*3 5.94 C 9.7 km/h
2734 04-11-2013 20:25:00 7.7 C 7.14 g/m*3 7.7 C 4.8 km/h
2735 04-11-2013 20:30:00 7.7 C 7.05 g/m*3 5.65 C 11.3 km/h
2736 04-11-2013 20:35:00 7.7 C 7.05 g/m*3 5.94 C 9.7 km/h
2737 04-11-2013 20:40:00 7.7 C 6.97 g/m*3 5.94 C 9.7 km/h
2738 04-11-2013 20:45:00 7.7 C 6.97 g/m*3 6.28 C 8.1 km/h
2739 04-11-2013 20:50:00 7.7 C 6.89 g/m*3 5.65 C 11.3 km/h
2740 04-11-2013 20:55:00 7.8 C 6.94 g/m*3 7.8 C 4.8 km/h
2741 04-11-2013 21:00:00 7.6 C 6.93 g/m*3 5.82 C 9.7 km/h
2742 04-11-2013 21:05:00 7.5 C 6.88 g/m*3 6.48 C 6.4 km/h
2743 04-11-2013 21:10:00 7.4 C 6.84 g/m*3 5.93 C 8.1 km/h
2744 04-11-2013 21:15:00 7.3 C 6.87 g/m*3 7.3 C 1.6 km/h
2745 04-11-2013 21:20:00 7.1 C 6.86 g/m*3 7.1 C 1.6 km/h
2746 04-11-2013 21:25:00 7 C 6.82 g/m*3 7 C 1.6 km/h
2747 04-11-2013 21:30:00 6.8 C 6.88 g/m*3 6.8 C 1.6 km/h
2748 04-11-2013 21:35:00 6.6 C 6.79 g/m*3 6.6 C 3.2 km/h
2749 04-11-2013 21:40:00 6.6 C 6.87 g/m*3 6.6 C 1.6 km/h
2750 04-11-2013 21:45:00 6.4 C 6.78 g/m*3 6.4 C 3.2 km/h
Sensor: Nr:Datum:Temp:Abs-Feuchte:Windchill:Wind:
Aussen-T/F 2751 04-11-2013 21:50:00 6.4 C 6.78 g/m*3 6.4 C 3.2 km/h
2752 04-11-2013 21:55:00 6.3 C 6.74 g/m*3 6.3 C 3.2 km/h
2753 04-11-2013 22:00:00 6.3 C 6.74 g/m*3 6.3 C 1.6 km/h
2754 04-11-2013 22:05:00 6.3 C 6.74 g/m*3 6.3 C 3.2 km/h
2755 04-11-2013 22:10:00 6.2 C 6.77 g/m*3 6.2 C 3.2 km/h
2756 04-11-2013 22:15:00 6.2 C 6.69 g/m*3 6.2 C 3.2 km/h
2757 04-11-2013 22:20:00 6.2 C 6.69 g/m*3 6.2 C 3.2 km/h
2758 04-11-2013 22:25:00 6.1 C 6.72 g/m*3 6.1 C 1.6 km/h
2759 04-11-2013 22:30:00 6.1 C 6.65 g/m*3 6.1 C 3.2 km/h
2760 04-11-2013 22:35:00 6.2 C 6.69 g/m*3 6.2 C 4.8 km/h
2761 04-11-2013 22:40:00 6.1 C 6.65 g/m*3 6.1 C 3.2 km/h
2762 04-11-2013 22:45:00 6.1 C 6.65 g/m*3 6.1 C 3.2 km/h
2763 04-11-2013 22:50:00 6 C 6.6 g/m*3 6 C 1.6 km/h
2764 04-11-2013 22:55:00 5.9 C 6.63 g/m*3 5.9 C 1.6 km/h
2765 04-11-2013 23:00:00 5.9 C 6.63 g/m*3 5.9 C 3.2 km/h
2766 04-11-2013 23:05:00 6.1 C 6.58 g/m*3 6.1 C 4.8 km/h
2767 04-11-2013 23:10:00 6.1 C 6.58 g/m*3 6.1 C 3.2 km/h
2768 04-11-2013 23:15:00 6.1 C 6.58 g/m*3 6.1 C 3.2 km/h
2769 04-11-2013 23:20:00 6.2 C 6.55 g/m*3 6.2 C 4.8 km/h
2770 04-11-2013 23:25:00 6.2 C 6.62 g/m*3 6.2 C 0 km/h
2771 04-11-2013 23:30:00 5.9 C 6.56 g/m*3 5.9 C 1.6 km/h
2772 04-11-2013 23:35:00 5.8 C 6.52 g/m*3 5.8 C 1.6 km/h
2773 04-11-2013 23:40:00 5.6 C 6.43 g/m*3 5.6 C 4.8 km/h
2774 04-11-2013 23:45:00 5.6 C 6.5 g/m*3 5.6 C 3.2 km/h
2775 04-11-2013 23:50:00 5.5 C 6.46 g/m*3 5.5 C 4.8 km/h
Sensor: Nr:Datum:Temp:Abs-Feuchte:Windchill:Wind:
Aussen-T/F 2776 04-11-2013 23:55:00 5.5 C 6.46 g/m*3 5.5 C 4.8 km/h
2777 05-11-2013 00:00:00 5.4 C 6.42 g/m*3 5.4 C 3.2 km/h
2778 05-11-2013 00:05:00 5.4 C 6.42 g/m*3 5.4 C 1.6 km/h
2779 05-11-2013 00:10:00 5.3 C 6.38 g/m*3 5.3 C 1.6 km/h
2780 05-11-2013 00:15:00 5.3 C 6.38 g/m*3 5.3 C 3.2 km/h
2781 05-11-2013 00:20:00 5.2 C 6.4 g/m*3 5.2 C 1.6 km/h
2782 05-11-2013 00:25:00 5.1 C 6.36 g/m*3 5.1 C 1.6 km/h
2783 05-11-2013 00:30:00 5.1 C 6.36 g/m*3 5.1 C 1.6 km/h
2784 05-11-2013 00:35:00 5 C 6.32 g/m*3 5 C 1.6 km/h
2785 05-11-2013 00:40:00 5 C 6.32 g/m*3 5 C 3.2 km/h
2786 05-11-2013 00:45:00 5 C 6.32 g/m*3 5 C 3.2 km/h
2787 05-11-2013 00:50:00 5.1 C 6.36 g/m*3 5.1 C 4.8 km/h
2788 05-11-2013 00:55:00 5.2 C 6.4 g/m*3 2.63 C 11.3 km/h
2789 05-11-2013 01:00:00 5.4 C 6.42 g/m*3 2.87 C 11.3 km/h
2790 05-11-2013 01:05:00 5.6 C 6.43 g/m*3 4.29 C 6.4 km/h
2791 05-11-2013 01:10:00 5.8 C 6.45 g/m*3 5.8 C 4.8 km/h
2792 05-11-2013 01:15:00 5.8 C 6.45 g/m*3 3.68 C 9.7 km/h
2793 05-11-2013 01:20:00 5.8 C 6.45 g/m*3 3.68 C 9.7 km/h
2794 05-11-2013 01:25:00 5.8 C 6.45 g/m*3 5.8 C 4.8 km/h
2795 05-11-2013 01:30:00 5.9 C 6.42 g/m*3 4.17 C 8.1 km/h
2796 05-11-2013 01:35:00 6.1 C 6.5 g/m*3 3.72 C 11.3 km/h
2797 05-11-2013 01:40:00 6.3 C 6.51 g/m*3 5.1 C 6.4 km/h
2798 05-11-2013 01:45:00 6.3 C 6.51 g/m*3 5.1 C 6.4 km/h
2799 05-11-2013 01:50:00 6.3 C 6.51 g/m*3 4.27 C 9.7 km/h
2800 05-11-2013 01:55:00 6.2 C 6.55 g/m*3 4.15 C 9.7 km/h
Sensor: Nr:Datum:Temp:Abs-Feuchte:Windchill:Wind:
Aussen-T/F 2801 05-11-2013 02:00:00 6.1 C 6.5 g/m*3 4.4 C 8.1 km/h
2802 05-11-2013 02:05:00 6.1 C 6.5 g/m*3 4.04 C 9.7 km/h
2803 05-11-2013 02:10:00 6.1 C 6.5 g/m*3 4.4 C 8.1 km/h
2804 05-11-2013 02:15:00 6.2 C 6.55 g/m*3 4.98 C 6.4 km/h
2805 05-11-2013 02:20:00 6.2 C 6.47 g/m*3 4.52 C 8.1 km/h
2806 05-11-2013 02:25:00 6.3 C 6.51 g/m*3 5.1 C 6.4 km/h
2807 05-11-2013 02:30:00 6.3 C 6.51 g/m*3 4.27 C 9.7 km/h
2808 05-11-2013 02:35:00 6.3 C 6.51 g/m*3 6.3 C 4.8 km/h
2809 05-11-2013 02:40:00 6.3 C 6.44 g/m*3 4.27 C 9.7 km/h
2810 05-11-2013 02:45:00 6.4 C 6.56 g/m*3 6.4 C 3.2 km/h
2811 05-11-2013 02:50:00 6.4 C 6.48 g/m*3 4.39 C 9.7 km/h
2812 05-11-2013 02:55:00 6.4 C 6.48 g/m*3 4.75 C 8.1 km/h
2813 05-11-2013 03:00:00 6.4 C 6.48 g/m*3 5.21 C 6.4 km/h
2814 05-11-2013 03:05:00 6.4 C 6.48 g/m*3 6.4 C 4.8 km/h
2815 05-11-2013 03:10:00 6.4 C 6.48 g/m*3 5.21 C 6.4 km/h
2816 05-11-2013 03:15:00 6.4 C 6.48 g/m*3 5.21 C 6.4 km/h
2817 05-11-2013 03:20:00 6.3 C 6.51 g/m*3 5.1 C 6.4 km/h
2818 05-11-2013 03:25:00 6.3 C 6.44 g/m*3 4.64 C 8.1 km/h
2819 05-11-2013 03:30:00 6.3 C 6.51 g/m*3 4.27 C 9.7 km/h
2820 05-11-2013 03:35:00 6.4 C 6.48 g/m*3 3.8 C 12.9 km/h
2821 05-11-2013 03:40:00 6.5 C 6.52 g/m*3 5.33 C 6.4 km/h
2822 05-11-2013 03:45:00 6.6 C 6.49 g/m*3 6.6 C 4.8 km/h
2823 05-11-2013 03:50:00 6.6 C 6.49 g/m*3 4.63 C 9.7 km/h
2824 05-11-2013 03:55:00 6.6 C 6.49 g/m*3 5.44 C 6.4 km/h
2825 05-11-2013 04:00:00 6.6 C 6.49 g/m*3 6.6 C 4.8 km/h
Sensor: Nr:Datum:Temp:Abs-Feuchte:Windchill:Wind:
Aussen-T/F 2826 05-11-2013 04:05:00 6.6 C 6.49 g/m*3 5.44 C 6.4 km/h
2827 05-11-2013 04:10:00 6.6 C 6.49 g/m*3 3.79 C 14.5 km/h
2828 05-11-2013 04:15:00 6.6 C 6.49 g/m*3 3.79 C 14.5 km/h
2829 05-11-2013 04:20:00 6.6 C 6.49 g/m*3 4.32 C 11.3 km/h
2830 05-11-2013 04:25:00 6.6 C 6.57 g/m*3 4.99 C 8.1 km/h
2831 05-11-2013 04:30:00 6.5 C 6.6 g/m*3 5.33 C 6.4 km/h
2832 05-11-2013 04:35:00 6.4 C 6.56 g/m*3 4.08 C 11.3 km/h
2833 05-11-2013 04:40:00 6.3 C 6.51 g/m*3 4.64 C 8.1 km/h
2834 05-11-2013 04:45:00 6.3 C 6.59 g/m*3 4.27 C 9.7 km/h
2835 05-11-2013 04:50:00 6.2 C 6.55 g/m*3 4.98 C 6.4 km/h
2836 05-11-2013 04:55:00 6.2 C 6.47 g/m*3 4.52 C 8.1 km/h
2837 05-11-2013 05:00:00 6.3 C 6.44 g/m*3 2.98 C 17.7 km/h
2838 05-11-2013 05:05:00 6.4 C 6.48 g/m*3 3.11 C 17.7 km/h
2839 05-11-2013 05:10:00 6.4 C 6.41 g/m*3 4.08 C 11.3 km/h
2840 05-11-2013 05:15:00 6.5 C 6.45 g/m*3 4.87 C 8.1 km/h
2841 05-11-2013 05:20:00 6.4 C 6.41 g/m*3 5.21 C 6.4 km/h
2842 05-11-2013 05:25:00 6.4 C 6.41 g/m*3 4.39 C 9.7 km/h
2843 05-11-2013 05:30:00 6.5 C 6.45 g/m*3 3.23 C 17.7 km/h
2844 05-11-2013 05:35:00 6.5 C 6.45 g/m*3 4.2 C 11.3 km/h
2845 05-11-2013 05:40:00 6.5 C 6.52 g/m*3 4.87 C 8.1 km/h
2846 05-11-2013 05:45:00 6.5 C 6.45 g/m*3 3.04 C 19.3 km/h
2847 05-11-2013 05:50:00 6.6 C 6.42 g/m*3 4.32 C 11.3 km/h
2848 05-11-2013 05:55:00 6.6 C 6.42 g/m*3 5.44 C 6.4 km/h
2849 05-11-2013 06:00:00 6.6 C 6.42 g/m*3 4.63 C 9.7 km/h
2850 05-11-2013 06:05:00 6.5 C 6.37 g/m*3 6.5 C 4.8 km/h
Sensor: Nr:Datum:Temp:Abs-Feuchte:Windchill:Wind:
Aussen-T/F 2851 05-11-2013 06:10:00 6.4 C 6.41 g/m*3 5.21 C 6.4 km/h
2852 05-11-2013 06:15:00 6.3 C 6.37 g/m*3 5.1 C 6.4 km/h
2853 05-11-2013 06:20:00 6.3 C 6.37 g/m*3 4.64 C 8.1 km/h
2854 05-11-2013 06:25:00 6.2 C 6.32 g/m*3 6.2 C 4.8 km/h
2855 05-11-2013 06:30:00 6.2 C 6.32 g/m*3 4.15 C 9.7 km/h
2856 05-11-2013 06:35:00 6.2 C 6.32 g/m*3 4.98 C 6.4 km/h
2857 05-11-2013 06:40:00 6.2 C 6.32 g/m*3 4.98 C 6.4 km/h
2858 05-11-2013 06:45:00 6.2 C 6.32 g/m*3 4.98 C 6.4 km/h
2859 05-11-2013 06:50:00 6.2 C 6.32 g/m*3 4.52 C 8.1 km/h
2860 05-11-2013 06:55:00 6.2 C 6.32 g/m*3 4.15 C 9.7 km/h
2861 05-11-2013 07:00:00 6.1 C 6.28 g/m*3 4.04 C 9.7 km/h
2862 05-11-2013 07:05:00 6.1 C 6.36 g/m*3 6.1 C 4.8 km/h
2863 05-11-2013 07:10:00 6.1 C 6.36 g/m*3 4.86 C 6.4 km/h
2864 05-11-2013 07:15:00 6.1 C 6.36 g/m*3 4.4 C 8.1 km/h
2865 05-11-2013 07:20:00 6.1 C 6.28 g/m*3 4.4 C 8.1 km/h
2866 05-11-2013 07:25:00 6.1 C 6.28 g/m*3 4.04 C 9.7 km/h
2867 05-11-2013 07:30:00 6.1 C 6.36 g/m*3 6.1 C 3.2 km/h
2868 05-11-2013 07:35:00 6 C 6.31 g/m*3 4.28 C 8.1 km/h
2869 05-11-2013 07:40:00 6 C 6.31 g/m*3 6 C 4.8 km/h
2870 05-11-2013 07:45:00 5.9 C 6.27 g/m*3 4.63 C 6.4 km/h
2871 05-11-2013 07:50:00 5.9 C 6.27 g/m*3 3.48 C 11.3 km/h
2872 05-11-2013 07:55:00 5.8 C 6.23 g/m*3 4.05 C 8.1 km/h
2873 05-11-2013 08:00:00 5.7 C 6.26 g/m*3 4.4 C 6.4 km/h
2874 05-11-2013 08:05:00 5.6 C 6.15 g/m*3 5.6 C 4.8 km/h
2875 05-11-2013 08:10:00 5.5 C 6.11 g/m*3 4.17 C 6.4 km/h
Sensor: Nr:Datum:Temp:Abs-Feuchte:Windchill:Wind:
Aussen-T/F 2876 05-11-2013 08:15:00 5.4 C 6.07 g/m*3 3.58 C 8.1 km/h
2877 05-11-2013 08:20:00 5.3 C 6.1 g/m*3 3.08 C 9.7 km/h
2878 05-11-2013 08:25:00 5.2 C 6.06 g/m*3 3.34 C 8.1 km/h
2879 05-11-2013 08:30:00 5.2 C 6.13 g/m*3 3.82 C 6.4 km/h
2880 05-11-2013 08:35:00 5.1 C 6.09 g/m*3 5.1 C 4.8 km/h
2881 05-11-2013 08:40:00 5.1 C 6.09 g/m*3 3.23 C 8.1 km/h
2882 05-11-2013 08:45:00 5.1 C 6.09 g/m*3 5.1 C 3.2 km/h
2883 05-11-2013 08:50:00 5.1 C 6.09 g/m*3 5.1 C 4.8 km/h
2884 05-11-2013 08:55:00 5.2 C 6.13 g/m*3 3.34 C 8.1 km/h
2885 05-11-2013 09:00:00 5.3 C 6.17 g/m*3 2.46 C 12.9 km/h
2886 05-11-2013 09:05:00 5.4 C 6.14 g/m*3 2.87 C 11.3 km/h
2887 05-11-2013 09:10:00 5.6 C 6.22 g/m*3 2.83 C 12.9 km/h
2888 05-11-2013 09:15:00 5.6 C 6.22 g/m*3 3.11 C 11.3 km/h
2889 05-11-2013 09:20:00 5.7 C 6.19 g/m*3 5.7 C 3.2 km/h
2890 05-11-2013 09:25:00 5.8 C 6.23 g/m*3 5.8 C 4.8 km/h
2891 05-11-2013 09:30:00 5.8 C 6.23 g/m*3 4.05 C 8.1 km/h
2892 05-11-2013 09:35:00 5.8 C 6.23 g/m*3 3.68 C 9.7 km/h
2893 05-11-2013 09:40:00 5.9 C 6.27 g/m*3 3.48 C 11.3 km/h
2894 05-11-2013 09:45:00 6 C 6.31 g/m*3 4.28 C 8.1 km/h
2895 05-11-2013 09:50:00 6 C 6.24 g/m*3 2.82 C 16.1 km/h
2896 05-11-2013 09:55:00 5.9 C 6.27 g/m*3 2.93 C 14.5 km/h
2897 05-11-2013 10:00:00 5.9 C 6.2 g/m*3 3.48 C 11.3 km/h
2898 05-11-2013 10:05:00 5.9 C 6.2 g/m*3 3.19 C 12.9 km/h
2899 05-11-2013 10:10:00 5.8 C 6.16 g/m*3 2.81 C 14.5 km/h
2900 05-11-2013 10:15:00 5.8 C 6.16 g/m*3 3.36 C 11.3 km/h
Sensor: Nr:Datum:Temp:Abs-Feuchte:Windchill:Wind:
Aussen-T/F 2901 05-11-2013 10:20:00 5.8 C 6.16 g/m*3 3.36 C 11.3 km/h
2902 05-11-2013 10:25:00 5.8 C 6.23 g/m*3 4.52 C 6.4 km/h
2903 05-11-2013 10:30:00 5.8 C 6.16 g/m*3 4.05 C 8.1 km/h
2904 05-11-2013 10:35:00 5.8 C 6.16 g/m*3 4.05 C 8.1 km/h
2905 05-11-2013 10:40:00 5.8 C 6.09 g/m*3 3.36 C 11.3 km/h
2906 05-11-2013 10:45:00 5.7 C 6.05 g/m*3 2.45 C 16.1 km/h
2907 05-11-2013 10:50:00 5.7 C 6.12 g/m*3 4.4 C 6.4 km/h
2908 05-11-2013 10:55:00 5.8 C 6.16 g/m*3 3.68 C 9.7 km/h
2909 05-11-2013 11:00:00 5.8 C 6.09 g/m*3 3.07 C 12.9 km/h
2910 05-11-2013 11:05:00 5.9 C 6.13 g/m*3 3.19 C 12.9 km/h
2911 05-11-2013 11:10:00 6.1 C 6.21 g/m*3 4.4 C 8.1 km/h
2912 05-11-2013 11:15:00 6.2 C 6.25 g/m*3 4.15 C 9.7 km/h
2913 05-11-2013 11:20:00 6.3 C 6.29 g/m*3 4.27 C 9.7 km/h
2914 05-11-2013 11:25:00 6.4 C 6.33 g/m*3 3.55 C 14.5 km/h
2915 05-11-2013 11:30:00 6.6 C 6.34 g/m*3 4.32 C 11.3 km/h
2916 05-11-2013 11:35:00 6.7 C 6.38 g/m*3 4.75 C 9.7 km/h
2917 05-11-2013 11:40:00 6.7 C 6.31 g/m*3 3.92 C 14.5 km/h
2918 05-11-2013 11:45:00 6.7 C 6.38 g/m*3 5.11 C 8.1 km/h
2919 05-11-2013 11:50:00 6.8 C 6.35 g/m*3 4.29 C 12.9 km/h
2920 05-11-2013 11:55:00 6.9 C 6.39 g/m*3 5.34 C 8.1 km/h
2921 05-11-2013 12:00:00 7.1 C 6.47 g/m*3 6.02 C 6.4 km/h
2922 05-11-2013 12:05:00 7.2 C 6.52 g/m*3 6.13 C 6.4 km/h
2923 05-11-2013 12:10:00 7.3 C 6.56 g/m*3 6.25 C 6.4 km/h
2924 05-11-2013 12:15:00 7.4 C 6.52 g/m*3 5.58 C 9.7 km/h
2925 05-11-2013 12:20:00 7.6 C 6.61 g/m*3 6.16 C 8.1 km/h
Sensor: Nr:Datum:Temp:Abs-Feuchte:Windchill:Wind:
Aussen-T/F 2926 05-11-2013 12:25:00 7.7 C 6.73 g/m*3 6.71 C 6.4 km/h
2927 05-11-2013 12:30:00 7.8 C 6.69 g/m*3 6.06 C 9.7 km/h
2928 05-11-2013 12:35:00 7.8 C 6.69 g/m*3 6.06 C 9.7 km/h
2929 05-11-2013 12:40:00 7.8 C 6.69 g/m*3 6.4 C 8.1 km/h
2930 05-11-2013 12:45:00 7.8 C 6.61 g/m*3 6.4 C 8.1 km/h
2931 05-11-2013 12:50:00 7.9 C 6.74 g/m*3 6.52 C 8.1 km/h
2932 05-11-2013 12:55:00 7.9 C 6.74 g/m*3 7.9 C 4.8 km/h
2933 05-11-2013 13:00:00 8.1 C 6.82 g/m*3 7.17 C 6.4 km/h
2934 05-11-2013 13:05:00 8.2 C 6.78 g/m*3 6.87 C 8.1 km/h
2935 05-11-2013 13:10:00 8.2 C 6.78 g/m*3 6.87 C 8.1 km/h
2936 05-11-2013 13:15:00 8.2 C 6.78 g/m*3 6.87 C 8.1 km/h
2937 05-11-2013 13:20:00 8.3 C 6.66 g/m*3 6.37 C 11.3 km/h
2938 05-11-2013 13:25:00 8.2 C 6.53 g/m*3 5.76 C 14.5 km/h
2939 05-11-2013 13:30:00 8.3 C 6.57 g/m*3 6.37 C 11.3 km/h
2940 05-11-2013 13:35:00 8.2 C 6.53 g/m*3 6.54 C 9.7 km/h
2941 05-11-2013 13:40:00 8.3 C 6.66 g/m*3 8.3 C 4.8 km/h
2942 05-11-2013 13:45:00 8.3 C 6.57 g/m*3 6.99 C 8.1 km/h
2943 05-11-2013 13:50:00 8.3 C 6.57 g/m*3 7.41 C 6.4 km/h
2944 05-11-2013 13:55:00 8.3 C 6.49 g/m*3 6.37 C 11.3 km/h
2945 05-11-2013 14:00:00 8.2 C 6.53 g/m*3 6.87 C 8.1 km/h
2946 05-11-2013 14:05:00 8.1 C 6.57 g/m*3 6.75 C 8.1 km/h
2947 05-11-2013 14:10:00 8.1 C 6.57 g/m*3 8.1 C 3.2 km/h
2948 05-11-2013 14:15:00 8.1 C 6.57 g/m*3 6.42 C 9.7 km/h
2949 05-11-2013 14:20:00 8 C 6.61 g/m*3 8 C 4.8 km/h
2950 05-11-2013 14:25:00 7.9 C 6.57 g/m*3 6.94 C 6.4 km/h
Sensor: Nr:Datum:Temp:Abs-Feuchte:Windchill:Wind:
Aussen-T/F 2951 05-11-2013 14:30:00 7.9 C 6.49 g/m*3 7.9 C 4.8 km/h
2952 05-11-2013 14:35:00 7.8 C 6.37 g/m*3 7.8 C 3.2 km/h
2953 05-11-2013 14:40:00 7.7 C 6.41 g/m*3 5.94 C 9.7 km/h
2954 05-11-2013 14:45:00 7.7 C 6.32 g/m*3 7.7 C 4.8 km/h
2955 05-11-2013 14:50:00 7.7 C 6.41 g/m*3 7.7 C 4.8 km/h
2956 05-11-2013 14:55:00 7.6 C 6.28 g/m*3 7.6 C 4.8 km/h
2957 05-11-2013 15:00:00 7.6 C 6.36 g/m*3 7.6 C 1.6 km/h
2958 05-11-2013 15:05:00 7.5 C 6.32 g/m*3 6.48 C 6.4 km/h
2959 05-11-2013 15:10:00 7.5 C 6.24 g/m*3 7.5 C 4.8 km/h
2960 05-11-2013 15:15:00 7.5 C 6.24 g/m*3 7.5 C 4.8 km/h
2961 05-11-2013 15:20:00 7.4 C 6.2 g/m*3 7.4 C 3.2 km/h
2962 05-11-2013 15:25:00 7.4 C 6.36 g/m*3 7.4 C 3.2 km/h
2963 05-11-2013 15:30:00 7.4 C 6.12 g/m*3 5.02 C 12.9 km/h
2964 05-11-2013 15:35:00 7.4 C 6.2 g/m*3 7.4 C 1.6 km/h
2965 05-11-2013 15:40:00 7.4 C 6.2 g/m*3 7.4 C 1.6 km/h
2966 05-11-2013 15:45:00 7.4 C 6.2 g/m*3 7.4 C 1.6 km/h
2967 05-11-2013 15:50:00 7.3 C 6.24 g/m*3 6.25 C 6.4 km/h
2968 05-11-2013 15:55:00 7.3 C 6.24 g/m*3 7.3 C 4.8 km/h
2969 05-11-2013 16:00:00 7.3 C 6.4 g/m*3 7.3 C 1.6 km/h
2970 05-11-2013 16:05:00 7.3 C 6.56 g/m*3 7.3 C 0 km/h
2971 05-11-2013 16:10:00 7.2 C 6.44 g/m*3 7.2 C 3.2 km/h
2972 05-11-2013 16:15:00 7.2 C 6.52 g/m*3 7.2 C 3.2 km/h
2973 05-11-2013 16:20:00 7.1 C 6.47 g/m*3 7.1 C 4.8 km/h
2974 05-11-2013 16:25:00 7.1 C 6.55 g/m*3 4.92 C 11.3 km/h
2975 05-11-2013 16:30:00 7 C 6.43 g/m*3 7 C 3.2 km/h
Sensor: Nr:Datum:Temp:Abs-Feuchte:Windchill:Wind:
Aussen-T/F 2976 05-11-2013 16:35:00 7 C 6.43 g/m*3 7 C 4.8 km/h
2977 05-11-2013 16:40:00 7 C 6.51 g/m*3 5.9 C 6.4 km/h
2978 05-11-2013 16:45:00 7 C 6.43 g/m*3 7 C 4.8 km/h
2979 05-11-2013 16:50:00 7 C 6.59 g/m*3 7 C 0 km/h
2980 05-11-2013 16:55:00 6.9 C 6.62 g/m*3 6.9 C 3.2 km/h
2981 05-11-2013 17:00:00 6.9 C 6.62 g/m*3 6.9 C 3.2 km/h
2982 05-11-2013 17:05:00 6.9 C 6.62 g/m*3 6.9 C 3.2 km/h
2983 05-11-2013 17:10:00 6.9 C 6.62 g/m*3 6.9 C 3.2 km/h
2984 05-11-2013 17:15:00 6.8 C 6.58 g/m*3 6.8 C 4.8 km/h
2985 05-11-2013 17:20:00 6.8 C 6.65 g/m*3 5.22 C 8.1 km/h
2986 05-11-2013 17:25:00 6.8 C 6.65 g/m*3 6.8 C 3.2 km/h
2987 05-11-2013 17:30:00 6.8 C 6.65 g/m*3 6.8 C 3.2 km/h
2988 05-11-2013 17:35:00 6.8 C 6.65 g/m*3 5.67 C 6.4 km/h
2989 05-11-2013 17:40:00 6.8 C 6.73 g/m*3 6.8 C 4.8 km/h
2990 05-11-2013 17:45:00 6.8 C 6.73 g/m*3 6.8 C 1.6 km/h
2991 05-11-2013 17:50:00 6.8 C 6.81 g/m*3 6.8 C 0 km/h
2992 05-11-2013 17:55:00 6.7 C 6.84 g/m*3 6.7 C 0 km/h
2993 05-11-2013 18:00:00 6.7 C 6.84 g/m*3 6.7 C 3.2 km/h
2994 05-11-2013 18:05:00 6.7 C 6.76 g/m*3 6.7 C 1.6 km/h
2995 05-11-2013 18:10:00 6.7 C 6.84 g/m*3 6.7 C 1.6 km/h
2996 05-11-2013 18:15:00 6.7 C 6.84 g/m*3 6.7 C 1.6 km/h
2997 05-11-2013 18:20:00 6.7 C 6.84 g/m*3 6.7 C 1.6 km/h
2998 05-11-2013 18:25:00 6.7 C 6.91 g/m*3 6.7 C 1.6 km/h
2999 05-11-2013 18:30:00 6.7 C 6.91 g/m*3 6.7 C 0 km/h
3000 05-11-2013 18:35:00 6.7 C 6.99 g/m*3 6.7 C 1.6 km/h
Sensor: Nr:Datum:Temp:Abs-Feuchte:Windchill:Wind:
Aussen-T/F 3001 05-11-2013 18:40:00 6.7 C 6.91 g/m*3 6.7 C 0 km/h
3002 05-11-2013 18:45:00 6.7 C 6.99 g/m*3 6.7 C 1.6 km/h
3003 05-11-2013 18:50:00 6.6 C 6.95 g/m*3 6.6 C 1.6 km/h
3004 05-11-2013 18:55:00 6.6 C 6.95 g/m*3 6.6 C 3.2 km/h
3005 05-11-2013 19:00:00 6.6 C 7.02 g/m*3 6.6 C 1.6 km/h
3006 05-11-2013 19:05:00 6.6 C 7.02 g/m*3 6.6 C 1.6 km/h
3007 05-11-2013 19:10:00 6.6 C 7.1 g/m*3 6.6 C 0 km/h
3008 05-11-2013 19:15:00 6.5 C 7.05 g/m*3 6.5 C 0 km/h
3009 05-11-2013 19:20:00 6.5 C 7.05 g/m*3 6.5 C 0 km/h
3010 05-11-2013 19:25:00 6.5 C 7.12 g/m*3 6.5 C 0 km/h
3011 05-11-2013 19:30:00 6.5 C 7.12 g/m*3 6.5 C 0 km/h
3012 05-11-2013 19:35:00 6.5 C 7.12 g/m*3 6.5 C 0 km/h
3013 05-11-2013 19:40:00 6.4 C 7.08 g/m*3 6.4 C 0 km/h
3014 05-11-2013 19:45:00 6.5 C 7.12 g/m*3 6.5 C 0 km/h
3015 05-11-2013 19:50:00 6.4 C 7.15 g/m*3 6.4 C 0 km/h
3016 05-11-2013 19:55:00 6.4 C 7.15 g/m*3 6.4 C 0 km/h
3017 05-11-2013 20:00:00 6.4 C 7.15 g/m*3 6.4 C 0 km/h
3018 05-11-2013 20:05:00 6.5 C 7.2 g/m*3 6.5 C 0 km/h
3019 05-11-2013 20:10:00 6.5 C 7.2 g/m*3 6.5 C 0 km/h
3020 05-11-2013 20:15:00 6.6 C 7.25 g/m*3 6.6 C 0 km/h
3021 05-11-2013 20:20:00 6.6 C 7.25 g/m*3 6.6 C 0 km/h
3022 05-11-2013 20:25:00 6.6 C 7.25 g/m*3 6.6 C 0 km/h
3023 05-11-2013 20:30:00 6.6 C 7.25 g/m*3 6.6 C 0 km/h
3024 05-11-2013 20:35:00 6.6 C 7.25 g/m*3 6.6 C 0 km/h
3025 05-11-2013 20:40:00 6.7 C 7.29 g/m*3 6.7 C 3.2 km/h
Sensor: Nr:Datum:Temp:Abs-Feuchte:Windchill:Wind:
Aussen-T/F 3026 05-11-2013 20:45:00 6.7 C 7.37 g/m*3 6.7 C 0 km/h
3027 05-11-2013 20:50:00 6.8 C 7.42 g/m*3 6.8 C 1.6 km/h
3028 05-11-2013 20:55:00 6.9 C 7.47 g/m*3 6.9 C 1.6 km/h
3029 05-11-2013 21:00:00 7 C 7.52 g/m*3 7 C 4.8 km/h
3030 05-11-2013 21:05:00 7.1 C 7.57 g/m*3 7.1 C 4.8 km/h
3031 05-11-2013 21:10:00 7.2 C 7.54 g/m*3 5.35 C 9.7 km/h
3032 05-11-2013 21:15:00 7.2 C 7.54 g/m*3 5.04 C 11.3 km/h
3033 05-11-2013 21:20:00 7.3 C 7.58 g/m*3 6.25 C 6.4 km/h
3034 05-11-2013 21:25:00 7.3 C 7.58 g/m*3 4.9 C 12.9 km/h
3035 05-11-2013 21:30:00 7.4 C 7.63 g/m*3 7.4 C 4.8 km/h
3036 05-11-2013 21:35:00 7.4 C 7.55 g/m*3 7.4 C 1.6 km/h
3037 05-11-2013 21:40:00 7.4 C 7.55 g/m*3 7.4 C 0 km/h
3038 05-11-2013 21:45:00 7.3 C 7.51 g/m*3 7.3 C 1.6 km/h
3039 05-11-2013 21:50:00 7.3 C 7.58 g/m*3 7.3 C 1.6 km/h
3040 05-11-2013 21:55:00 7.5 C 7.68 g/m*3 6.48 C 6.4 km/h
3041 05-11-2013 22:00:00 7.7 C 7.78 g/m*3 6.71 C 6.4 km/h
3042 05-11-2013 22:05:00 7.8 C 7.83 g/m*3 7.8 C 3.2 km/h
3043 05-11-2013 22:10:00 7.9 C 7.8 g/m*3 7.9 C 3.2 km/h
3044 05-11-2013 22:15:00 7.9 C 7.8 g/m*3 7.9 C 3.2 km/h
3045 05-11-2013 22:20:00 7.9 C 7.8 g/m*3 7.9 C 4.8 km/h
3046 05-11-2013 22:25:00 8.1 C 7.9 g/m*3 6.75 C 8.1 km/h
3047 05-11-2013 22:30:00 8.2 C 7.96 g/m*3 8.2 C 4.8 km/h
3048 05-11-2013 22:35:00 8.2 C 7.96 g/m*3 7.29 C 6.4 km/h
3049 05-11-2013 22:40:00 8.3 C 8.01 g/m*3 8.3 C 1.6 km/h
3050 05-11-2013 22:45:00 8.3 C 8.01 g/m*3 8.3 C 3.2 km/h
Sensor: Nr:Datum:Temp:Abs-Feuchte:Windchill:Wind:
Aussen-T/F 3051 05-11-2013 22:50:00 8.3 C 7.92 g/m*3 8.3 C 1.6 km/h
3052 05-11-2013 22:55:00 8.3 C 7.92 g/m*3 7.41 C 6.4 km/h
3053 05-11-2013 23:00:00 8.4 C 7.97 g/m*3 8.4 C 4.8 km/h
3054 05-11-2013 23:05:00 8.4 C 7.97 g/m*3 7.11 C 8.1 km/h
3055 05-11-2013 23:10:00 8.6 C 7.99 g/m*3 7.01 C 9.7 km/h
3056 05-11-2013 23:15:00 8.7 C 8.04 g/m*3 7.13 C 9.7 km/h
3057 05-11-2013 23:20:00 8.8 C 7.92 g/m*3 6.72 C 12.9 km/h
3058 05-11-2013 23:25:00 8.9 C 7.88 g/m*3 6.85 C 12.9 km/h
3059 05-11-2013 23:30:00 9.1 C 7.9 g/m*3 7.61 C 9.7 km/h
3060 05-11-2013 23:35:00 9.2 C 7.86 g/m*3 7.73 C 9.7 km/h
3061 05-11-2013 23:40:00 9.1 C 7.81 g/m*3 7.93 C 8.1 km/h
3062 05-11-2013 23:45:00 8.9 C 7.71 g/m*3 8.1 C 6.4 km/h
3063 05-11-2013 23:50:00 8.7 C 7.7 g/m*3 8.7 C 3.2 km/h
3064 05-11-2013 23:55:00 8.4 C 7.72 g/m*3 8.4 C 4.8 km/h
3065 06-11-2013 00:00:00 8.3 C 7.67 g/m*3 8.3 C 3.2 km/h
3066 06-11-2013 00:05:00 8.2 C 7.62 g/m*3 6.87 C 8.1 km/h
3067 06-11-2013 00:10:00 8.2 C 7.62 g/m*3 7.29 C 6.4 km/h
3068 06-11-2013 00:15:00 8.3 C 7.59 g/m*3 6.99 C 8.1 km/h
3069 06-11-2013 00:20:00 8.6 C 7.56 g/m*3 7.01 C 9.7 km/h
3070 06-11-2013 00:25:00 8.7 C 7.52 g/m*3 6.6 C 12.9 km/h
3071 06-11-2013 00:30:00 8.7 C 7.52 g/m*3 7.87 C 6.4 km/h
3072 06-11-2013 00:35:00 8.7 C 7.44 g/m*3 8.7 C 3.2 km/h
3073 06-11-2013 00:40:00 8.7 C 7.44 g/m*3 7.87 C 6.4 km/h
3074 06-11-2013 00:45:00 8.6 C 7.39 g/m*3 8.6 C 4.8 km/h
3075 06-11-2013 00:50:00 8.6 C 7.48 g/m*3 7.75 C 6.4 km/h
Sensor: Nr:Datum:Temp:Abs-Feuchte:Windchill:Wind:
Aussen-T/F 3076 06-11-2013 00:55:00 8.5 C 7.34 g/m*3 6.13 C 14.5 km/h
3077 06-11-2013 01:00:00 8.4 C 7.38 g/m*3 6.01 C 14.5 km/h
3078 06-11-2013 01:05:00 8.3 C 7.33 g/m*3 8.3 C 4.8 km/h
3079 06-11-2013 01:10:00 8.2 C 7.29 g/m*3 8.2 C 4.8 km/h
3080 06-11-2013 01:15:00 8.2 C 7.29 g/m*3 8.2 C 4.8 km/h
3081 06-11-2013 01:20:00 8.1 C 7.24 g/m*3 8.1 C 4.8 km/h
3082 06-11-2013 01:25:00 8.1 C 7.24 g/m*3 8.1 C 4.8 km/h
3083 06-11-2013 01:30:00 8.1 C 7.24 g/m*3 6.75 C 8.1 km/h
3084 06-11-2013 01:35:00 8.2 C 7.2 g/m*3 6.54 C 9.7 km/h
3085 06-11-2013 01:40:00 8.3 C 7.16 g/m*3 7.41 C 6.4 km/h
3086 06-11-2013 01:45:00 8.3 C 7.16 g/m*3 7.41 C 6.4 km/h
3087 06-11-2013 01:50:00 8.3 C 7.16 g/m*3 6.37 C 11.3 km/h
3088 06-11-2013 01:55:00 8.4 C 7.21 g/m*3 7.11 C 8.1 km/h
3089 06-11-2013 02:00:00 8.4 C 7.13 g/m*3 6.78 C 9.7 km/h
3090 06-11-2013 02:05:00 8.5 C 7.17 g/m*3 7.22 C 8.1 km/h
3091 06-11-2013 02:10:00 8.6 C 7.22 g/m*3 7.01 C 9.7 km/h
3092 06-11-2013 02:15:00 8.4 C 7.21 g/m*3 6.24 C 12.9 km/h
3093 06-11-2013 02:20:00 8.3 C 7.16 g/m*3 8.3 C 4.8 km/h
3094 06-11-2013 02:25:00 8.3 C 7.25 g/m*3 6.66 C 9.7 km/h
3095 06-11-2013 02:30:00 8.3 C 7.33 g/m*3 6.66 C 9.7 km/h
3096 06-11-2013 02:35:00 8.2 C 7.29 g/m*3 6.87 C 8.1 km/h
3097 06-11-2013 02:40:00 8.2 C 7.29 g/m*3 7.29 C 6.4 km/h
3098 06-11-2013 02:45:00 8.1 C 7.32 g/m*3 7.17 C 6.4 km/h
3099 06-11-2013 02:50:00 8.1 C 7.41 g/m*3 8.1 C 3.2 km/h
3100 06-11-2013 02:55:00 8 C 7.36 g/m*3 8 C 1.6 km/h
Sensor: Nr:Datum:Temp:Abs-Feuchte:Windchill:Wind:
Aussen-T/F 3101 06-11-2013 03:00:00 7.9 C 7.39 g/m*3 7.9 C 3.2 km/h
3102 06-11-2013 03:05:00 7.9 C 7.47 g/m*3 7.9 C 1.6 km/h
3103 06-11-2013 03:10:00 7.9 C 7.56 g/m*3 7.9 C 4.8 km/h
3104 06-11-2013 03:15:00 7.9 C 7.56 g/m*3 6.94 C 6.4 km/h
3105 06-11-2013 03:20:00 7.9 C 7.56 g/m*3 7.9 C 3.2 km/h
3106 06-11-2013 03:25:00 8 C 7.61 g/m*3 6.3 C 9.7 km/h
3107 06-11-2013 03:30:00 8.1 C 7.57 g/m*3 6.75 C 8.1 km/h
3108 06-11-2013 03:35:00 8.1 C 7.57 g/m*3 7.17 C 6.4 km/h
3109 06-11-2013 03:40:00 8.2 C 7.62 g/m*3 5.55 C 16.1 km/h
3110 06-11-2013 03:45:00 8.3 C 7.59 g/m*3 6.66 C 9.7 km/h
3111 06-11-2013 03:50:00 8.3 C 7.59 g/m*3 8.3 C 4.8 km/h
3112 06-11-2013 03:55:00 8.3 C 7.59 g/m*3 8.3 C 3.2 km/h
3113 06-11-2013 04:00:00 8.3 C 7.5 g/m*3 8.3 C 4.8 km/h
3114 06-11-2013 04:05:00 8.3 C 7.5 g/m*3 8.3 C 3.2 km/h
3115 06-11-2013 04:10:00 8.2 C 7.54 g/m*3 8.2 C 1.6 km/h
3116 06-11-2013 04:15:00 8.1 C 7.49 g/m*3 8.1 C 3.2 km/h
3117 06-11-2013 04:20:00 8.1 C 7.49 g/m*3 7.17 C 6.4 km/h
3118 06-11-2013 04:25:00 8.1 C 7.41 g/m*3 7.17 C 6.4 km/h
3119 06-11-2013 04:30:00 8.1 C 7.49 g/m*3 8.1 C 4.8 km/h
3120 06-11-2013 04:35:00 8.1 C 7.41 g/m*3 8.1 C 4.8 km/h
3121 06-11-2013 04:40:00 8.1 C 7.41 g/m*3 8.1 C 4.8 km/h
3122 06-11-2013 04:45:00 8.1 C 7.49 g/m*3 8.1 C 4.8 km/h
3123 06-11-2013 04:50:00 7.9 C 7.39 g/m*3 7.9 C 3.2 km/h
3124 06-11-2013 04:55:00 7.8 C 7.43 g/m*3 7.8 C 4.8 km/h
3125 06-11-2013 05:00:00 7.8 C 7.43 g/m*3 7.8 C 4.8 km/h
Sensor: Nr:Datum:Temp:Abs-Feuchte:Windchill:Wind:
Aussen-T/F 3126 06-11-2013 05:05:00 7.8 C 7.43 g/m*3 7.8 C 3.2 km/h
3127 06-11-2013 05:10:00 7.9 C 7.47 g/m*3 7.9 C 3.2 km/h
3128 06-11-2013 05:15:00 7.9 C 7.39 g/m*3 7.9 C 3.2 km/h
3129 06-11-2013 05:20:00 7.9 C 7.39 g/m*3 7.9 C 3.2 km/h
3130 06-11-2013 05:25:00 8 C 7.44 g/m*3 7.06 C 6.4 km/h
3131 06-11-2013 05:30:00 8.1 C 7.49 g/m*3 8.1 C 3.2 km/h
3132 06-11-2013 05:35:00 8.1 C 7.49 g/m*3 8.1 C 4.8 km/h
3133 06-11-2013 05:40:00 8.1 C 7.49 g/m*3 8.1 C 3.2 km/h
3134 06-11-2013 05:45:00 8.1 C 7.49 g/m*3 6.13 C 11.3 km/h
3135 06-11-2013 05:50:00 8.2 C 7.54 g/m*3 8.2 C 4.8 km/h
3136 06-11-2013 05:55:00 8.3 C 7.5 g/m*3 8.3 C 3.2 km/h
3137 06-11-2013 06:00:00 8.3 C 7.5 g/m*3 7.41 C 6.4 km/h
3138 06-11-2013 06:05:00 8.3 C 7.5 g/m*3 8.3 C 4.8 km/h
3139 06-11-2013 06:10:00 8.3 C 7.5 g/m*3 8.3 C 1.6 km/h
3140 06-11-2013 06:15:00 8.3 C 7.5 g/m*3 8.3 C 3.2 km/h
3141 06-11-2013 06:20:00 8.3 C 7.5 g/m*3 8.3 C 1.6 km/h
3142 06-11-2013 06:25:00 8.3 C 7.5 g/m*3 8.3 C 4.8 km/h
3143 06-11-2013 06:30:00 8.3 C 7.5 g/m*3 8.3 C 4.8 km/h
3144 06-11-2013 06:35:00 8.4 C 7.55 g/m*3 8.4 C 3.2 km/h
3145 06-11-2013 06:40:00 8.3 C 7.5 g/m*3 8.3 C 3.2 km/h
3146 06-11-2013 06:45:00 8.3 C 7.59 g/m*3 8.3 C 1.6 km/h
3147 06-11-2013 06:50:00 8.1 C 7.57 g/m*3 8.1 C 1.6 km/h
3148 06-11-2013 06:55:00 8 C 7.52 g/m*3 8 C 3.2 km/h
3149 06-11-2013 07:00:00 8 C 7.52 g/m*3 8 C 1.6 km/h
3150 06-11-2013 07:05:00 8 C 7.52 g/m*3 8 C 1.6 km/h
Sensor: Nr:Datum:Temp:Abs-Feuchte:Windchill:Wind:
Aussen-T/F 3151 06-11-2013 07:10:00 8 C 7.61 g/m*3 8 C 3.2 km/h
3152 06-11-2013 07:15:00 8 C 7.61 g/m*3 8 C 3.2 km/h
3153 06-11-2013 07:20:00 8 C 7.61 g/m*3 8 C 1.6 km/h
3154 06-11-2013 07:25:00 8.1 C 7.66 g/m*3 8.1 C 1.6 km/h
3155 06-11-2013 07:30:00 8 C 7.61 g/m*3 8 C 1.6 km/h
3156 06-11-2013 07:35:00 7.9 C 7.56 g/m*3 7.9 C 0 km/h
3157 06-11-2013 07:40:00 7.9 C 7.64 g/m*3 7.9 C 0 km/h
3158 06-11-2013 07:45:00 7.8 C 7.59 g/m*3 7.8 C 0 km/h
3159 06-11-2013 07:50:00 7.8 C 7.59 g/m*3 7.8 C 1.6 km/h
3160 06-11-2013 07:55:00 7.8 C 7.59 g/m*3 7.8 C 3.2 km/h
3161 06-11-2013 08:00:00 8 C 7.61 g/m*3 8 C 3.2 km/h
3162 06-11-2013 08:05:00 8.2 C 7.62 g/m*3 7.29 C 6.4 km/h
3163 06-11-2013 08:10:00 8.4 C 7.72 g/m*3 8.4 C 1.6 km/h
3164 06-11-2013 08:15:00 8.4 C 7.72 g/m*3 8.4 C 0 km/h
3165 06-11-2013 08:20:00 8.4 C 7.72 g/m*3 8.4 C 3.2 km/h
3166 06-11-2013 08:25:00 8.5 C 7.77 g/m*3 8.5 C 0 km/h
3167 06-11-2013 08:30:00 8.6 C 7.73 g/m*3 8.6 C 1.6 km/h
3168 06-11-2013 08:35:00 8.6 C 7.73 g/m*3 8.6 C 1.6 km/h
3169 06-11-2013 08:40:00 9.5 C 7.92 g/m*3 9.5 C 3.2 km/h
3170 06-11-2013 08:45:00 9.6 C 8.06 g/m*3 8.91 C 6.4 km/h
3171 06-11-2013 08:50:00 9.7 C 8.02 g/m*3 8.06 C 11.3 km/h
3172 06-11-2013 08:55:00 9.8 C 8.07 g/m*3 8.18 C 11.3 km/h
3173 06-11-2013 09:45:00 9.8 C 8.07 g/m*3 7.94 C 12.9 km/h
3174 06-11-2013 09:50:00 9.9 C 8.12 g/m*3 8.87 C 8.1 km/h
3175 06-11-2013 09:59:00 9.9 C 8.12 g/m*3 9.9 C 1.6 km/h
Sensor: Nr:Datum:Temp:Abs-Feuchte:Windchill:Wind:
Aussen-T/F 3176 06-11-2013 10:05:00 10.2 C 8.18 g/m*3 8.92 C 9.7 km/h
3177 06-11-2013 10:10:00 10.2 C 8.18 g/m*3 10.2 C 4.8 km/h
3178 06-11-2013 10:15:00 10.2 C 8.18 g/m*3 8.66 C 11.3 km/h
3179 06-11-2013 10:20:00 10.3 C 8.24 g/m*3 8.55 C 12.9 km/h
3180 06-11-2013 10:25:00 10.3 C 8.14 g/m*3 9.04 C 9.7 km/h
3181 06-11-2013 10:30:00 10.4 C 8.19 g/m*3 10.4 C 4.8 km/h
3182 06-11-2013 10:35:00 10.5 C 8.24 g/m*3 9.02 C 11.3 km/h
3183 06-11-2013 10:40:00 10.6 C 8.2 g/m*3 10.06 C 6.4 km/h
3184 06-11-2013 10:45:00 10.7 C 8.25 g/m*3 9.04 C 12.9 km/h
3185 06-11-2013 10:50:00 10.8 C 8.2 g/m*3 9.93 C 8.1 km/h
3186 06-11-2013 10:55:00 10.9 C 8.26 g/m*3 9.28 C 12.9 km/h
3187 06-11-2013 11:00:00 10.9 C 8.16 g/m*3 8.9 C 16.1 km/h
3188 06-11-2013 11:05:00 10.9 C 8.26 g/m*3 8.9 C 16.1 km/h
3189 06-11-2013 11:10:00 11.2 C 8.21 g/m*3 11.2 C 11.3 km/h
3190 06-11-2013 11:15:00 11.3 C 8.26 g/m*3 11.3 C 12.9 km/h
3191 06-11-2013 11:20:00 11.3 C 8.26 g/m*3 11.3 C 16.1 km/h
3192 06-11-2013 11:25:00 11.3 C 8.26 g/m*3 11.3 C 8.1 km/h
3193 06-11-2013 11:30:00 11.3 C 8.36 g/m*3 11.3 C 9.7 km/h
3194 06-11-2013 11:35:00 11.3 C 8.36 g/m*3 11.3 C 11.3 km/h
3195 06-11-2013 11:40:00 11.4 C 8.42 g/m*3 11.4 C 8.1 km/h
3196 06-11-2013 11:45:00 11.4 C 8.42 g/m*3 11.4 C 3.2 km/h
3197 06-11-2013 11:50:00 11.4 C 8.31 g/m*3 11.4 C 11.3 km/h
3198 06-11-2013 11:55:00 11.4 C 8.31 g/m*3 11.4 C 11.3 km/h
3199 06-11-2013 12:00:00 11.5 C 8.37 g/m*3 11.5 C 8.1 km/h
3200 06-11-2013 12:05:00 11.5 C 8.37 g/m*3 11.5 C 11.3 km/h
Sensor: Nr:Datum:Temp:Abs-Feuchte:Windchill:Wind:
Aussen-T/F 3201 06-11-2013 12:10:00 11.5 C 8.37 g/m*3 11.5 C 9.7 km/h
3202 06-11-2013 12:15:00 11.6 C 8.32 g/m*3 11.6 C 6.4 km/h
3203 06-11-2013 12:20:00 11.6 C 8.32 g/m*3 11.6 C 9.7 km/h
3204 06-11-2013 12:25:00 11.6 C 8.32 g/m*3 11.6 C 6.4 km/h
3205 06-11-2013 12:30:00 11.7 C 8.26 g/m*3 11.7 C 14.5 km/h
3206 06-11-2013 12:35:00 11.7 C 8.37 g/m*3 11.7 C 14.5 km/h
3207 06-11-2013 12:40:00 11.6 C 8.32 g/m*3 11.6 C 9.7 km/h
3208 06-11-2013 12:45:00 11.6 C 8.42 g/m*3 11.6 C 4.8 km/h
3209 06-11-2013 12:50:00 11.7 C 8.37 g/m*3 11.7 C 9.7 km/h
3210 06-11-2013 12:55:00 11.7 C 8.37 g/m*3 11.7 C 9.7 km/h
3211 06-11-2013 13:00:00 11.7 C 8.37 g/m*3 11.7 C 6.4 km/h
3212 06-11-2013 13:05:00 11.7 C 8.47 g/m*3 11.7 C 12.9 km/h
3213 06-11-2013 13:10:00 11.8 C 8.63 g/m*3 11.8 C 6.4 km/h
3214 06-11-2013 13:15:00 11.8 C 8.63 g/m*3 11.8 C 4.8 km/h
3215 06-11-2013 13:20:00 11.8 C 8.74 g/m*3 11.8 C 4.8 km/h
3216 06-11-2013 13:25:00 11.7 C 8.68 g/m*3 11.7 C 9.7 km/h
3217 06-11-2013 13:30:00 11.8 C 8.74 g/m*3 11.8 C 4.8 km/h
3218 06-11-2013 13:35:00 11.8 C 8.63 g/m*3 11.8 C 11.3 km/h
3219 06-11-2013 13:40:00 11.8 C 8.74 g/m*3 11.8 C 8.1 km/h
3220